Provisional Data: Loyalsock Creek near Ringdale, PA


Please select a monitoring station.
Please select start date.
Please select start date.

Toggle Unit: C/F Toggle Unit: C/F
Sample Time Temperature (C) Temperature (F) Specific Conductivity (mS/cm) pH   Turbidity (NTU+) DO (mg/L)
10/20/2020 12:00:00 AM 10.35 50.63 0.057 6.81 2.37 9.77
10/20/2020 12:15:00 AM 10.36 50.648 0.057 6.82 2.42 9.76
10/20/2020 12:30:00 AM 10.35 50.63 0.057 6.84 2.39 9.8
10/20/2020 12:45:00 AM 10.36 50.648 0.058 6.82 2.35 9.73
10/20/2020 1:00:00 AM 10.35 50.63 0.057 6.82 2.4 9.75
10/20/2020 1:15:00 AM 10.36 50.648 0.057 6.81 2.33 9.74
10/20/2020 1:30:00 AM 10.35 50.63 0.057 6.83 2.32 9.75
10/20/2020 1:45:00 AM 10.36 50.648 0.057 6.81 2.34 9.69
10/20/2020 2:00:00 AM 10.37 50.666 0.057 6.81 2.39 9.68
10/20/2020 2:15:00 AM 10.36 50.648 0.058 6.83 2.29 9.75
10/20/2020 2:30:00 AM 10.36 50.648 0.057 6.82 2.34 9.67
10/20/2020 2:45:00 AM 10.38 50.684 0.057 6.8 2.37 9.68
10/20/2020 3:00:00 AM 10.39 50.702 0.058 6.8 2.61 9.63
10/20/2020 3:15:00 AM 10.4 50.72 0.06 6.76 3.29 9.61
10/20/2020 3:30:00 AM 10.41 50.738 0.06 6.78 3.1 9.64
10/20/2020 3:45:00 AM 10.41 50.738 0.062 6.79 3.06 9.67
10/20/2020 4:00:00 AM 10.41 50.738 0.059 6.8 2.54 9.61
10/20/2020 4:15:00 AM 10.5 50.9 0.06 6.76 2.49 9.52
10/20/2020 4:30:00 AM 10.5 50.9 0.059 6.8 2.4 9.65
10/20/2020 4:45:00 AM 10.47 50.846 0.059 6.81 2.57 9.65
10/20/2020 5:00:00 AM 10.47 50.846 0.058 6.82 2.43 9.7
10/20/2020 5:15:00 AM 10.47 50.846 0.058 6.8 3.34 9.66
10/20/2020 5:30:00 AM 10.48 50.864 0.058 6.81 2.4 9.66
10/20/2020 5:45:00 AM 10.48 50.864 0.058 6.8 2.57 9.63
10/20/2020 6:00:00 AM 10.49 50.882 0.058 6.81 2.38 9.58
10/20/2020 6:15:00 AM 10.52 50.936 0.058 6.79 2.41 9.59
10/20/2020 6:30:00 AM 10.52 50.936 0.058 6.81 2.3 9.6
10/20/2020 6:45:00 AM 10.53 50.954 0.058 6.81 2.41 9.58
10/20/2020 7:00:00 AM 10.56 51.008 0.058 6.79 2.38 9.54
10/20/2020 7:15:00 AM 10.6 51.08 0.058 6.77 2.29 9.51
10/20/2020 7:30:00 AM 10.61 51.098 0.058 6.8 2.31 9.56
10/20/2020 7:45:00 AM 10.61 51.098 0.058 6.81 2.31 9.55
10/20/2020 8:00:00 AM 10.61 51.098 0.058 6.81 2.91 9.62
10/20/2020 8:15:00 AM 10.61 51.098 0.057 6.82 2.47 9.63
10/20/2020 8:30:00 AM 10.64 51.152 0.057 6.8 2.58 9.6
10/20/2020 8:45:00 AM 10.66 51.188 0.058 6.81 2.41 9.62
10/20/2020 9:00:00 AM 10.67 51.206 0.057 6.81 2.27 9.58
10/20/2020 9:15:00 AM 10.68 51.224 0.057 6.82 2.32 9.65
10/20/2020 9:30:00 AM 10.78 51.404 0.06 6.79 2.83 9.63
10/20/2020 9:45:00 AM 10.77 51.386 0.06 6.81 2.94 9.75
10/20/2020 10:00:00 AM 10.78 51.404 0.057 6.84 2.5 9.78
10/20/2020 10:15:00 AM 10.83 51.494 0.057 6.82 2.3 9.78
10/20/2020 10:30:00 AM 10.83 51.494 0.057 6.85 2.35 9.82
10/20/2020 10:45:00 AM 10.87 51.566 0.057 6.83 2.25 9.73
10/20/2020 11:00:00 AM 10.95 51.71 0.059 6.82 2.36 9.81
10/20/2020 11:15:00 AM 11.03 51.854 0.06 6.81 2.81 9.87
10/20/2020 11:30:00 AM 11.1 51.98 0.059 6.83 2.27 9.9
10/20/2020 11:45:00 AM 11.17 52.106 0.059 6.85 2.3 9.95
10/20/2020 12:00:00 PM 11.24 52.232 0.059 6.84 2.24 9.98
10/20/2020 12:15:00 PM 11.45 52.61 0.06 6.84 2.24 9.92
10/20/2020 12:30:00 PM 11.54 52.772 0.065 6.68 2.22 9.96
10/20/2020 12:45:00 PM 11.69 53.042 0.058 6.84 2.24 10.04
10/20/2020 1:00:00 PM 11.84 53.312 0.058 6.84 2.22 9.93
10/20/2020 1:15:00 PM 11.84 53.312 0.059 6.91 2.27 10.1
10/20/2020 1:30:00 PM 11.88 53.384 0.059 6.88 2.24 10.15
10/20/2020 1:45:00 PM 11.94 53.492 0.059 6.88 2.18 10.13
10/20/2020 2:00:00 PM 11.98 53.564 0.059 6.88 2.24 10.13
10/20/2020 2:15:00 PM 12.05 53.69 0.059 6.88 2.22 10.15
10/20/2020 2:30:00 PM 12.11 53.798 0.059 6.89 2.2 10.17
10/20/2020 2:45:00 PM 12.26 54.068 0.058 6.88 2.75 10.16
10/20/2020 3:00:00 PM 12.31 54.158 0.058 6.91 2.22 10.19
10/20/2020 3:15:00 PM 12.39 54.302 0.055 6.91 2.23 10.18
10/20/2020 3:30:00 PM 12.44 54.392 0.054 6.9 2.22 10.19
10/20/2020 3:45:00 PM 12.49 54.482 0.054 6.91 2.17 10.17
10/20/2020 4:00:00 PM 12.54 54.572 0.055 6.92 2.19 10.18
10/20/2020 4:15:00 PM 12.59 54.662 0.055 6.91 2.35 10.13
10/20/2020 4:30:00 PM 12.63 54.734 0.054 6.93 2.18 10.1
10/20/2020 4:45:00 PM 12.67 54.806 0.054 6.93 2.18 10.11
10/20/2020 5:00:00 PM 12.73 54.914 0.057 6.89 2.73 10.04
10/20/2020 5:15:00 PM 12.76 54.968 0.054 6.94 2.27 10.08
10/20/2020 5:30:00 PM 12.8 55.04 0.054 6.92 2.22 10.04
10/20/2020 5:45:00 PM 12.81 55.058 0.053 6.93 2.26 10.05
10/20/2020 6:00:00 PM 12.84 55.112 0.054 6.94 2.41 10.01
10/20/2020 6:15:00 PM 12.85 55.13 0.053 6.94 2.25 9.98
10/20/2020 6:30:00 PM 12.86 55.148 0.053 6.95 2.26 9.95
10/20/2020 6:45:00 PM 12.85 55.13 0.053 6.94 2.38 9.87
10/20/2020 7:00:00 PM 12.85 55.13 0.054 6.92 2.4 9.81
10/20/2020 7:15:00 PM 12.84 55.112 0.054 6.93 2.61 9.77
10/20/2020 7:30:00 PM 12.83 55.094 0.053 6.9 2.46 9.73
10/20/2020 7:45:00 PM 12.82 55.076 0.054 6.91 2.35 9.69
10/20/2020 8:00:00 PM 12.81 55.058 0.054 6.91 2.39 9.65
10/20/2020 8:15:00 PM 12.8 55.04 0.054 6.91 2.25 9.63
10/20/2020 8:30:00 PM 12.79 55.022 0.054 6.89 2.4 9.55
10/20/2020 8:45:00 PM 12.76 54.968 0.053 6.89 2.6 9.54
10/20/2020 9:00:00 PM 12.72 54.896 0.047 6.88 2.24 9.52
10/20/2020 9:15:00 PM 12.7 54.86 0.047 6.87 2.25 9.51
10/20/2020 9:30:00 PM 12.67 54.806 0.047 6.88 2.3 9.48
10/20/2020 9:45:00 PM 12.65 54.77 0.048 6.87 2.24 9.45
10/20/2020 10:00:00 PM 12.62 54.716 0.047 6.88 2.72 9.44
10/20/2020 10:15:00 PM 12.6 54.68 0.047 6.88 2.3 9.43
10/20/2020 10:30:00 PM 12.57 54.626 0.048 6.87 2.31 9.41
10/20/2020 10:45:00 PM 12.54 54.572 0.053 6.87 2.31 9.38
10/20/2020 11:00:00 PM 12.5 54.5 0.054 6.86 2.41 9.39
10/20/2020 11:15:00 PM 12.47 54.446 0.054 6.87 2.25 9.39
10/20/2020 11:30:00 PM 12.44 54.392 0.047 6.86 2.32 9.38
10/20/2020 11:45:00 PM 12.41 54.338 0.047 6.86 2.31 9.37
10/21/2020 12:00:00 AM 12.37 54.266 0.053 6.86 2.26 9.36
10/21/2020 12:15:00 AM 12.34 54.212 0.053 6.86 2.34 9.38
10/21/2020 12:30:00 AM 12.29 54.122 0.053 6.86 2.26 9.38
10/21/2020 12:45:00 AM 12.22 53.996 0.055 6.82 3.54 9.31
10/21/2020 1:00:00 AM 12.17 53.906 0.055 6.82 2.42 9.24
10/21/2020 1:15:00 AM 12.11 53.798 0.056 6.81 2.93 9.31
10/21/2020 1:30:00 AM 12.05 53.69 0.053 6.82 2.31 9.34
10/21/2020 1:45:00 AM 11.99 53.582 0.048 6.84 2.31 9.36
10/21/2020 2:00:00 AM 11.94 53.492 0.054 6.83 2.37 9.37
10/21/2020 2:15:00 AM 11.88 53.384 0.048 6.82 2.36 9.35
10/21/2020 2:30:00 AM 11.82 53.276 0.048 6.82 2.34 9.35
10/21/2020 2:45:00 AM 11.75 53.15 0.048 6.83 2.28 9.38
10/21/2020 3:00:00 AM 11.71 53.078 0.048 6.83 2.29 9.36
10/21/2020 3:15:00 AM 11.64 52.952 0.048 6.82 2.36 9.39
10/21/2020 3:30:00 AM 11.58 52.844 0.054 6.82 2.49 9.41
10/21/2020 3:45:00 AM 11.52 52.736 0.047 6.82 6.27 9.42
10/21/2020 4:00:00 AM 11.49 52.682 0.054 6.81 7.23 9.4
10/21/2020 4:15:00 AM 11.46 52.628 0.052 6.81 7.27 9.42
10/21/2020 4:30:00 AM 11.4 52.52 0.054 6.81 7.12 9.42
10/21/2020 4:45:00 AM 11.35 52.43 0.054 6.82 7.02 9.45
10/21/2020 5:00:00 AM 11.31 52.358 0.055 6.79 7.75 9.43
10/21/2020 5:15:00 AM 11.29 52.322 0.048 6.79 4.51 9.41
10/21/2020 5:30:00 AM 11.25 52.25 0.055 6.8 4.02 9.43
10/21/2020 5:45:00 AM 11.22 52.196 0.054 6.81 3.58 9.48
10/21/2020 6:00:00 AM 11.18 52.124 0.048 6.81 3.91 9.48
10/21/2020 6:15:00 AM 11.16 52.088 0.055 6.81 3.38 9.5
10/21/2020 6:30:00 AM 11.16 52.088 0.057 6.78 3.83 9.46
10/21/2020 6:45:00 AM 11.18 52.124 0.055 6.78 3.27 9.35
10/21/2020 7:00:00 AM 11.15 52.07 0.054 6.8 3.26 9.48
10/21/2020 7:15:00 AM 11.17 52.106 0.055 6.8 3.15 9.41
10/21/2020 7:30:00 AM 11.21 52.178 0.056 6.79 3.05 9.45
10/21/2020 7:45:00 AM 11.17 52.106 0.056 6.77 3.18 9.42
10/21/2020 8:00:00 AM 11.18 52.124 0.056 6.8 2.97 9.47
10/21/2020 8:15:00 AM 11.18 52.124 0.055 6.78 2.94 9.39
10/21/2020 8:30:00 AM 11.19 52.142 0.055 6.77 2.78 9.37
10/21/2020 8:45:00 AM 11.19 52.142 0.055 6.79 2.61 9.42
10/21/2020 9:00:00 AM 11.28 52.304 0.055 6.78 2.69 9.38
10/21/2020 9:15:00 AM 11.29 52.322 0.055 6.78 2.73 9.52
10/21/2020 9:30:00 AM 11.32 52.376 0.054 6.8 2.69 9.58
10/21/2020 9:45:00 AM 11.42 52.556 0.055 6.82 2.59 9.61
10/21/2020 10:00:00 AM 11.45 52.61 0.054 6.79 2.67 9.49
10/21/2020 10:15:00 AM 11.69 53.042 0.055 6.79 2.62 9.64
10/21/2020 10:30:00 AM 11.66 52.988 0.057 6.84 2.43 9.78
10/21/2020 10:45:00 AM 11.88 53.384 0.058 6.83 2.47 9.8
10/21/2020 11:00:00 AM 11.99 53.582 0.062 6.83 2.92 9.89
10/21/2020 11:15:00 AM 12.07 53.726 0.058 6.84 2.37 9.85
10/21/2020 11:30:00 AM 12.25 54.05 0.059 6.86 2.62 9.96
10/21/2020 11:45:00 AM 12.38 54.284 0.061 6.87 2.38 9.95
10/21/2020 12:00:00 PM 12.6 54.68 0.054 6.85 2.34 9.95
10/21/2020 12:15:00 PM 12.74 54.932 0.053 6.86 2.36 10.01
10/21/2020 12:30:00 PM 12.82 55.076 0.054 6.86 2.28 10.03
10/21/2020 12:45:00 PM 13.01 55.418 0.06 6.86 2.3 9.89
10/21/2020 1:00:00 PM 13.19 55.742 0.047 6.87 2.33 9.96
10/21/2020 1:15:00 PM 13.37 56.066 0.047 6.88 2.26 10.04
10/21/2020 1:30:00 PM 13.54 56.372 0.046 6.89 2.32 10.02
10/21/2020 1:45:00 PM 13.81 56.858 0.047 6.86 2.22 9.95
10/21/2020 2:00:00 PM 13.97 57.146 0.046 6.86 2.21 9.87
10/21/2020 2:15:00 PM 14.21 57.578 0.046 6.88 2.18 9.94
10/21/2020 2:30:00 PM 14.44 57.992 0.047 6.9 2.24 9.83
10/21/2020 2:45:00 PM 14.75 58.55 0.051 6.94 2.38 9.8
10/21/2020 3:00:00 PM 14.95 58.91 0.052 6.95 2.41 9.83
10/21/2020 3:15:00 PM 15.16 59.288 0.052 6.94 2.27 9.85
10/21/2020 3:30:00 PM 15.32 59.576 0.052 6.95 2.26 9.82
10/21/2020 3:45:00 PM 15.5 59.9 0.052 6.95 2.36 9.75
10/21/2020 4:00:00 PM 15.71 60.278 0.052 6.94 2.19 9.76
10/21/2020 4:15:00 PM 15.82 60.476 0.052 6.95 2.13 9.7
10/21/2020 4:30:00 PM 15.91 60.638 0.051 6.92 2.2 9.68
10/21/2020 4:45:00 PM 16.01 60.818 0.052 6.92 2.17 9.63
10/21/2020 5:00:00 PM 16.08 60.944 0.052 6.91 2.2 9.59
10/21/2020 5:15:00 PM 16.11 60.998 0.051 6.94 2.22 9.52
10/21/2020 5:30:00 PM 16.17 61.106 0.051 6.93 2.24 9.48
10/21/2020 5:45:00 PM 16.22 61.196 0.051 6.92 2.29 9.41
10/21/2020 6:00:00 PM 16.24 61.232 0.053 6.92 2.9 9.36
10/21/2020 6:15:00 PM 16.25 61.25 0.05 6.98 2.53 9.38
10/21/2020 6:30:00 PM 16.24 61.232 0.05 6.99 2.45 9.36
10/21/2020 6:45:00 PM 16.22 61.196 0.05 6.98 2.56 9.31
10/21/2020 7:00:00 PM 16.19 61.142 0.049 6.99 2.75 9.29
10/21/2020 7:15:00 PM 16.14 61.052 0.045 6.98 2.86 9.23
10/21/2020 7:30:00 PM 16.06 60.908 0.045 6.96 3.02 9.12
10/21/2020 7:45:00 PM 16.01 60.818 0.045 6.95 3.08 9.08
10/21/2020 8:00:00 PM 15.94 60.692 0.045 6.95 3.18 9.02
10/21/2020 8:15:00 PM 15.9 60.62 0.045 6.92 4.05 8.95
10/21/2020 8:30:00 PM 15.81 60.458 0.045 6.92 3.84 8.92
10/21/2020 8:45:00 PM 15.73 60.314 0.046 6.91 3.32 8.88
10/21/2020 9:00:00 PM 15.66 60.188 0.046 6.91 3.77 8.86
10/21/2020 9:15:00 PM 15.58 60.044 0.046 6.9 3.47 8.84
10/21/2020 9:30:00 PM 15.5 59.9 0.044 6.87 3.47 8.81
10/21/2020 9:45:00 PM 15.44 59.792 0.046 6.89 3.42 8.8
10/21/2020 10:00:00 PM 15.35 59.63 0.046 6.88 3.44 8.81
10/21/2020 10:15:00 PM 15.29 59.522 0.046 6.88 3.48 8.79
10/21/2020 10:30:00 PM 15.21 59.378 0.046 6.87 3.74 8.78
10/21/2020 10:45:00 PM 15.14 59.252 0.046 6.86 3.22 8.75
10/21/2020 11:00:00 PM 15.07 59.126 0.047 6.86 3.25 8.76
10/21/2020 11:15:00 PM 15.02 59.036 0.047 6.85 3.22 8.75
10/21/2020 11:30:00 PM 14.9 58.82 0.047 6.85 3.2 8.76
10/21/2020 11:45:00 PM 14.82 58.676 0.047 6.84 3.07 8.75
10/22/2020 12:00:00 AM 14.74 58.532 0.047 6.83 2.97 8.73
10/22/2020 12:15:00 AM 14.65 58.37 0.047 6.83 2.87 8.73
10/22/2020 12:30:00 AM 14.56 58.208 0.047 6.83 2.78 8.76
10/22/2020 12:45:00 AM 14.49 58.082 0.047 6.83 2.68 8.78
10/22/2020 1:00:00 AM 14.42 57.956 0.047 6.82 2.94 8.75
10/22/2020 1:15:00 AM 14.35 57.83 0.047 6.81 2.66 8.75
10/22/2020 1:30:00 AM 14.25 57.65 0.045 6.78 3.17 8.75
10/22/2020 1:45:00 AM 14.18 57.524 0.047 6.81 2.71 8.8
10/22/2020 2:00:00 AM 14.13 57.434 0.048 6.81 2.61 8.78
10/22/2020 2:15:00 AM 14.05 57.29 0.047 6.8 2.46 8.83
10/22/2020 2:30:00 AM 13.99 57.182 0.048 6.79 2.61 8.81
10/22/2020 2:45:00 AM 13.92 57.056 0.048 6.8 2.54 8.83
10/22/2020 3:00:00 AM 13.86 56.948 0.048 6.8 2.6 8.85
10/22/2020 3:15:00 AM 13.81 56.858 0.048 6.79 2.67 8.8
10/22/2020 3:30:00 AM 13.76 56.768 0.048 6.79 2.37 8.83
10/22/2020 3:45:00 AM 13.71 56.678 0.048 6.78 2.37 8.88
10/22/2020 4:00:00 AM 13.67 56.606 0.048 6.79 2.36 8.88
10/22/2020 4:15:00 AM 13.62 56.516 0.048 6.79 2.34 8.88
10/22/2020 4:30:00 AM 13.58 56.444 0.048 6.79 2.32 8.9
10/22/2020 4:45:00 AM 13.54 56.372 0.048 6.79 2.34 8.93
10/22/2020 5:00:00 AM 13.51 56.318 0.048 6.78 2.48 8.9
10/22/2020 5:15:00 AM 13.47 56.246 0.048 6.77 2.42 8.9
10/22/2020 5:30:00 AM 13.44 56.192 0.048 6.77 2.45 8.88
10/22/2020 5:45:00 AM 13.41 56.138 0.048 6.78 2.38 8.92
10/22/2020 6:00:00 AM 13.38 56.084 0.048 6.77 2.33 8.9
10/22/2020 6:15:00 AM 13.35 56.03 0.048 6.77 2.27 8.94
10/22/2020 6:30:00 AM 13.32 55.976 0.048 6.77 2.34 8.93
10/22/2020 6:45:00 AM 13.31 55.958 0.048 6.77 2.43 8.95
10/22/2020 7:00:00 AM 13.28 55.904 0.048 6.77 2.32 8.96
10/22/2020 7:15:00 AM 13.26 55.868 0.048 6.77 2.35 8.96
10/22/2020 7:30:00 AM 13.24 55.832 0.048 6.77 2.3 8.96
10/22/2020 7:45:00 AM 13.22 55.796 0.048 6.75 2.31 8.92
10/22/2020 8:00:00 AM 13.21 55.778 0.048 6.76 2.39 8.94
10/22/2020 8:15:00 AM 13.19 55.742 0.047 6.76 2.42 9
10/22/2020 8:30:00 AM 13.19 55.742 0.048 6.76 2.38 9
10/22/2020 8:45:00 AM 13.18 55.724 0.049 6.72 2.4 8.89
10/22/2020 9:00:00 AM 13.18 55.724 0.048 6.74 2.27 8.93
10/22/2020 9:15:00 AM 13.18 55.724 0.048 6.75 2.34 8.99
10/22/2020 9:30:00 AM 13.18 55.724 0.048 6.76 2.43 9.04
10/22/2020 9:45:00 AM 13.19 55.742 0.047 6.77 2.42 9.07
10/22/2020 10:00:00 AM 13.21 55.778 0.047 6.77 2.37 9.1
10/22/2020 10:15:00 AM 13.25 55.85 0.051 6.77 2.4 9.09
10/22/2020 10:30:00 AM 13.29 55.922 0.053 6.75 2.38 9.08
10/22/2020 10:45:00 AM 13.35 56.03 0.056 6.73 2.29 9.17
10/22/2020 11:00:00 AM 13.45 56.21 0.054 6.73 2.3 9.09
10/22/2020 11:15:00 AM 13.62 56.516 0.054 6.74 2.43 9.08
10/22/2020 11:30:00 AM 13.87 56.966 0.056 6.78 2.27 9.22
10/22/2020 11:45:00 AM 14.02 57.236 0.056 6.79 2.23 9.3
10/22/2020 12:00:00 PM 14.16 57.488 0.056 6.79 2.29 9.36
10/22/2020 12:15:00 PM 14.35 57.83 0.059 6.79 2.32 9.4
10/22/2020 12:30:00 PM 14.45 58.01 0.056 6.82 2.28 9.44
10/22/2020 12:45:00 PM 14.6 58.28 0.059 6.83 2.29 9.47
10/22/2020 1:00:00 PM 14.71 58.478 0.059 6.83 2.28 9.45
10/22/2020 1:15:00 PM 14.93 58.874 0.061 6.85 2.22 9.48
10/22/2020 1:30:00 PM 15.14 59.252 0.059 6.88 2.26 9.54
10/22/2020 1:45:00 PM 15.3 59.54 0.06 6.89 2.34 9.56
10/22/2020 2:00:00 PM 15.42 59.756 0.058 6.88 2.19 9.54
10/22/2020 2:15:00 PM 15.59 60.062 0.052 6.88 2.16 9.52
10/22/2020 2:30:00 PM 15.83 60.494 0.046 6.92 2.13 9.47
10/22/2020 2:45:00 PM 16.01 60.818 0.052 6.93 2.16 9.43
10/22/2020 3:00:00 PM 16.19 61.142 0.053 6.95 2.13 9.48
10/22/2020 3:15:00 PM 16.32 61.376 0.053 6.94 2.11 9.43
10/22/2020 3:30:00 PM 16.45 61.61 0.055 6.89 2.11 9.42
10/22/2020 3:45:00 PM 16.51 61.718 0.054 6.9 2.13 9.39
10/22/2020 4:00:00 PM 16.62 61.916 0.055 6.9 2.28 9.35
10/22/2020 4:15:00 PM 16.71 62.078 0.055 6.88 2.13 9.29
10/22/2020 4:30:00 PM 16.83 62.294 0.055 6.9 2.15 9.29
10/22/2020 4:45:00 PM 16.89 62.402 0.055 6.89 2.13 9.22
10/22/2020 5:00:00 PM 16.94 62.492 0.055 6.89 2.17 9.22
10/22/2020 5:15:00 PM 16.98 62.564 0.055 6.88 2.16 9.17
10/22/2020 5:30:00 PM 17.01 62.618 0.055 6.9 2.13 9.15
10/22/2020 5:45:00 PM 17.02 62.636 0.055 6.92 2.11 9.12
10/22/2020 6:00:00 PM 16.99 62.582 0.055 6.95 2.17 9.1
10/22/2020 6:15:00 PM 16.98 62.564 0.054 6.96 2.09 9.16
10/22/2020 6:30:00 PM 16.96 62.528 0.055 6.96 2.16 9.1
10/22/2020 6:45:00 PM 16.91 62.438 0.053 6.96 2.09 9.05
10/22/2020 7:00:00 PM 16.87 62.366 0.052 6.96 2.17 9.01
10/22/2020 7:15:00 PM 16.79 62.222 0.052 6.94 2.13 8.94
10/22/2020 7:30:00 PM 16.71 62.078 0.052 6.93 2.31 8.82
10/22/2020 7:45:00 PM 16.65 61.97 0.052 6.92 2.12 8.75
10/22/2020 8:00:00 PM 16.59 61.862 0.052 6.9 2.19 8.74
10/22/2020 8:15:00 PM 16.52 61.736 0.052 6.9 2.34 8.71
10/22/2020 8:30:00 PM 16.42 61.556 0.052 6.89 2.21 8.7
10/22/2020 8:45:00 PM 16.34 61.412 0.046 6.89 2.18 8.67
10/22/2020 9:00:00 PM 16.23 61.214 0.045 6.84 2.81 8.6
10/22/2020 9:15:00 PM 16.12 61.016 0.047 6.86 2.19 8.6
10/22/2020 9:30:00 PM 16.01 60.818 0.047 6.87 2.17 8.62
10/22/2020 9:45:00 PM 15.89 60.602 0.047 6.85 2.2 8.61
10/22/2020 10:00:00 PM 15.78 60.404 0.047 6.86 2.21 8.59
10/22/2020 10:15:00 PM 15.67 60.206 0.047 6.85 2.18 8.59
10/22/2020 10:30:00 PM 15.57 60.026 0.047 6.85 2.21 8.59
10/22/2020 10:45:00 PM 15.46 59.828 0.048 6.84 2.18 8.57
10/22/2020 11:00:00 PM 15.36 59.648 0.048 6.83 2.17 8.59
10/22/2020 11:15:00 PM 15.24 59.432 0.048 6.83 2.44 8.6
10/22/2020 11:30:00 PM 15.15 59.27 0.048 6.83 2.19 8.57
10/22/2020 11:45:00 PM 15.05 59.09 0.048 6.82 2.25 8.56
10/23/2020 12:00:00 AM 14.93 58.874 0.048 6.82 2.23 8.58
10/23/2020 12:15:00 AM 14.83 58.694 0.048 6.81 2.25 8.59
10/23/2020 12:30:00 AM 14.74 58.532 0.049 6.81 2.27 8.55
10/23/2020 12:45:00 AM 14.64 58.352 0.049 6.8 2.23 8.59
10/23/2020 1:00:00 AM 14.54 58.172 0.049 6.8 2.46 8.58
10/23/2020 1:15:00 AM 14.44 57.992 0.049 6.78 2.38 8.58
10/23/2020 1:30:00 AM 14.31 57.758 0.049 6.8 2.31 8.62
10/23/2020 1:45:00 AM 14.22 57.596 0.049 6.8 2.29 8.64
10/23/2020 2:00:00 AM 14.12 57.416 0.05 6.77 2.19 8.6
10/23/2020 2:15:00 AM 14.01 57.218 0.05 6.78 2.21 8.63
10/23/2020 2:30:00 AM 13.93 57.074 0.049 6.79 2.17 8.67
10/23/2020 2:45:00 AM 13.86 56.948 0.049 6.79 2.23 8.71
10/23/2020 3:00:00 AM 13.77 56.786 0.049 6.79 2.31 8.72
10/23/2020 3:15:00 AM 13.68 56.624 0.049 6.79 2.25 8.73
10/23/2020 3:30:00 AM 13.6 56.48 0.049 6.79 2.32 8.77
10/23/2020 3:45:00 AM 13.57 56.426 0.049 6.79 2.23 8.75
10/23/2020 4:00:00 AM 13.56 56.408 0.05 6.78 2.27 8.69
10/23/2020 4:15:00 AM 13.5 56.3 0.05 6.78 2.33 8.7
10/23/2020 4:30:00 AM 13.45 56.21 0.05 6.76 2.26 8.69
10/23/2020 4:45:00 AM 13.43 56.174 0.05 6.78 2.2 8.72
10/23/2020 5:00:00 AM 13.39 56.102 0.05 6.78 2.27 8.76
10/23/2020 5:15:00 AM 13.35 56.03 0.049 6.79 2.15 8.81
10/23/2020 5:30:00 AM 13.32 55.976 0.047 6.77 2.84 8.84
10/23/2020 5:45:00 AM 13.3 55.94 0.049 6.79 2.22 8.84
10/23/2020 6:00:00 AM 13.26 55.868 0.049 6.78 2.23 8.85
10/23/2020 6:15:00 AM 13.2 55.76 0.05 6.78 2.4 8.83
10/23/2020 6:30:00 AM 13.14 55.652 0.049 6.79 2.37 8.9
10/23/2020 6:45:00 AM 13.1 55.58 0.049 6.79 2.42 8.89
10/23/2020 7:00:00 AM 13.06 55.508 0.049 6.79 2.26 8.91
10/23/2020 7:15:00 AM 12.99 55.382 0.049 6.78 2.61 8.92
10/23/2020 7:30:00 AM 12.94 55.292 0.049 6.78 2.28 8.92
10/23/2020 7:45:00 AM 12.89 55.202 0.049 6.78 2.24 8.93
10/23/2020 8:00:00 AM 12.85 55.13 0.049 6.78 2.32 8.94
10/23/2020 8:15:00 AM 12.81 55.058 0.049 6.77 2.37 8.94
10/23/2020 8:30:00 AM 12.78 55.004 0.049 6.78 2.32 8.98
10/23/2020 8:45:00 AM 12.77 54.986 0.049 6.78 2.25 8.98
10/23/2020 9:00:00 AM 12.76 54.968 0.049 6.78 2.18 9
10/23/2020 9:15:00 AM 12.77 54.986 0.049 6.78 2.3 8.97
10/23/2020 9:30:00 AM 12.76 54.968 0.049 6.78 2.46 9.08
10/23/2020 9:45:00 AM 12.77 54.986 0.054 6.77 2.23 9.08
10/23/2020 10:00:00 AM 12.79 55.022 0.054 6.76 2.31 8.98
10/23/2020 10:15:00 AM 12.98 55.364 0.055 6.75 2.33 8.96
10/23/2020 10:30:00 AM 13.06 55.508 0.056 6.78 2.22 9.11
10/23/2020 10:45:00 AM 13.3 55.94 0.061 6.82 2.24 9.33
10/23/2020 11:00:00 AM 13.34 56.012 0.054 6.82 2.2 9.35
10/23/2020 11:15:00 AM 13.52 56.336 0.053 6.8 2.15 9.31
10/23/2020 11:30:00 AM 13.62 56.516 0.052 6.83 2.19 9.42
10/23/2020 11:45:00 AM 13.83 56.894 0.054 6.83 2.12 9.43
10/23/2020 12:00:00 PM 14.08 57.344 0.054 6.81 2.2 9.51
10/23/2020 12:15:00 PM 14.33 57.794 0.054 6.84 2.22 9.6
10/23/2020 12:30:00 PM 14.51 58.118 0.056 6.84 2.12 9.56
10/23/2020 12:45:00 PM 14.73 58.514 0.054 6.88 2.14 9.64
10/23/2020 1:00:00 PM 14.87 58.766 0.054 6.89 2.07 9.6
10/23/2020 1:15:00 PM 15.17 59.306 0.056 6.92 2.06 9.72
10/23/2020 1:30:00 PM 15.39 59.702 0.052 6.89 2.07 9.68
10/23/2020 1:45:00 PM 15.62 60.116 0.054 6.9 2.05 9.7
10/23/2020 2:00:00 PM 15.87 60.566 0.052 6.91 2.09 9.64
10/23/2020 2:15:00 PM 16.02 60.836 0.053 6.93 2.05 9.63
10/23/2020 2:30:00 PM 16.22 61.196 0.053 6.92 2.06 9.64
10/23/2020 2:45:00 PM 16.46 61.628 0.053 6.95 2.05 9.65
10/23/2020 3:00:00 PM 16.57 61.826 0.054 6.94 2.16 9.64
10/23/2020 3:15:00 PM 16.71 62.078 0.055 6.92 2.08 9.53
10/23/2020 3:30:00 PM 16.85 62.33 0.057 6.93 2.03 9.54
10/23/2020 3:45:00 PM 16.88 62.384 0.057 6.91 2.08 9.46
10/23/2020 4:00:00 PM 16.94 62.492 0.057 6.92 2.01 9.5
10/23/2020 4:15:00 PM 17.02 62.636 0.058 6.94 2.02 9.47
10/23/2020 4:30:00 PM 17.08 62.744 0.057 6.94 2.01 9.36
10/23/2020 4:45:00 PM 17.12 62.816 0.057 6.94 2.04 9.29
10/23/2020 5:00:00 PM 17.13 62.834 0.057 7 2.07 9.31
10/23/2020 5:15:00 PM 17.13 62.834 0.056 7 2.06 9.38
10/23/2020 5:30:00 PM 17.16 62.888 0.056 7.01 2.02 9.31
10/23/2020 5:45:00 PM 17.16 62.888 0.056 7.01 2.11 9.31
10/23/2020 6:00:00 PM 17.16 62.888 0.055 7 2.06 9.25
10/23/2020 6:15:00 PM 17.13 62.834 0.055 7.02 2.03 9.25
10/23/2020 6:30:00 PM 17.07 62.726 0.055 7.01 2.03 9.13
10/23/2020 6:45:00 PM 17.01 62.618 0.055 6.99 2.07 9.08
10/23/2020 7:00:00 PM 16.93 62.474 0.055 6.98 2.05 8.99
10/23/2020 7:15:00 PM 16.85 62.33 0.054 6.97 1.98 8.9
10/23/2020 7:30:00 PM 16.79 62.222 0.054 6.96 2.08 8.84
10/23/2020 7:45:00 PM 16.75 62.15 0.054 6.95 2.06 8.82
10/23/2020 8:00:00 PM 16.71 62.078 0.053 6.95 2.2 8.77
10/23/2020 8:15:00 PM 16.64 61.952 0.053 6.94 2.07 8.71
10/23/2020 8:30:00 PM 16.61 61.898 0.053 6.92 2.19 8.67
10/23/2020 8:45:00 PM 16.55 61.79 0.053 6.92 2.06 8.63
10/23/2020 9:00:00 PM 16.51 61.718 0.053 6.91 2.13 8.6
10/23/2020 9:15:00 PM 16.44 61.592 0.053 6.9 2.07 8.56
10/23/2020 9:30:00 PM 16.4 61.52 0.053 6.89 2.06 8.53
10/23/2020 9:45:00 PM 16.37 61.466 0.053 6.89 2.59 8.44
10/23/2020 10:00:00 PM 16.31 61.358 0.053 6.87 2.07 8.49
10/23/2020 10:15:00 PM 16.26 61.268 0.053 6.88 2.08 8.48
10/23/2020 10:30:00 PM 16.23 61.214 0.048 6.87 2.11 8.42
10/23/2020 10:45:00 PM 16.18 61.124 0.053 6.87 2.09 8.39
10/23/2020 11:00:00 PM 16.12 61.016 0.048 6.86 2.09 8.41
10/23/2020 11:15:00 PM 16.07 60.926 0.049 6.86 2.14 8.37
10/23/2020 11:30:00 PM 16.03 60.854 0.053 6.85 2.15 8.32
10/23/2020 11:45:00 PM 15.96 60.728 0.049 6.84 2.21 8.33
10/24/2020 12:00:00 AM 15.91 60.638 0.049 6.84 2.16 8.28
10/24/2020 12:15:00 AM 15.86 60.548 0.049 6.85 2.14 8.33
10/24/2020 12:30:00 AM 15.82 60.476 0.049 6.84 2.12 8.33
10/24/2020 12:45:00 AM 15.75 60.35 0.049 6.83 2.12 8.33
10/24/2020 1:00:00 AM 15.68 60.224 0.049 6.84 2.23 8.37
10/24/2020 1:15:00 AM 15.62 60.116 0.049 6.84 2.12 8.35
10/24/2020 1:30:00 AM 15.56 60.008 0.049 6.84 2.12 8.35
10/24/2020 1:45:00 AM 15.5 59.9 0.049 6.83 2.19 8.35
10/24/2020 2:00:00 AM 15.43 59.774 0.049 6.83 2.15 8.34
10/24/2020 2:15:00 AM 15.37 59.666 0.049 6.83 2.18 8.37
10/24/2020 2:30:00 AM 15.32 59.576 0.05 6.83 2.13 8.34
10/24/2020 2:45:00 AM 15.28 59.504 0.05 6.83 2.11 8.39
10/24/2020 3:00:00 AM 15.23 59.414 0.05 6.83 2.09 8.37
10/24/2020 3:15:00 AM 15.2 59.36 0.05 6.83 2.1 8.36
10/24/2020 3:30:00 AM 15.16 59.288 0.056 6.83 2.2 8.34
10/24/2020 3:45:00 AM 15.13 59.234 0.057 6.83 2.36 8.34
10/24/2020 4:00:00 AM 15.09 59.162 0.05 6.81 2.19 8.34
10/24/2020 4:15:00 AM 15.04 59.072 0.05 6.82 2.19 8.33
10/24/2020 4:30:00 AM 15 59 0.05 6.81 2.28 8.34
10/24/2020 4:45:00 AM 14.96 58.928 0.051 6.82 2.16 8.34
10/24/2020 5:00:00 AM 14.92 58.856 0.048 6.8 2.73 8.37
10/24/2020 5:15:00 AM 14.89 58.802 0.048 6.8 2.72 8.4
10/24/2020 5:30:00 AM 14.85 58.73 0.051 6.82 2.17 8.37
10/24/2020 5:45:00 AM 14.83 58.694 0.051 6.81 2.15 8.35
10/24/2020 6:00:00 AM 14.81 58.658 0.051 6.8 2.27 8.33
10/24/2020 6:15:00 AM 14.77 58.586 0.051 6.81 2.16 8.34
10/24/2020 6:30:00 AM 14.74 58.532 0.05 6.82 2.15 8.4
10/24/2020 6:45:00 AM 14.71 58.478 0.051 6.82 2.19 8.41
10/24/2020 7:00:00 AM 14.68 58.424 0.051 6.82 2.15 8.44
10/24/2020 7:15:00 AM 14.65 58.37 0.051 6.82 2.14 8.42
10/24/2020 7:30:00 AM 14.61 58.298 0.05 6.81 2.44 8.43
10/24/2020 7:45:00 AM 14.59 58.262 0.05 6.81 2.14 8.39
10/24/2020 8:00:00 AM 14.59 58.262 0.05 6.8 2.19 8.38
10/24/2020 8:15:00 AM 14.57 58.226 0.051 6.77 2.16 8.31
10/24/2020 8:30:00 AM 14.54 58.172 0.05 6.8 2.18 8.38
10/24/2020 8:45:00 AM 14.52 58.136 0.051 6.8 2.22 8.42
10/24/2020 9:00:00 AM 14.45 58.01 0.05 6.81 2.15 8.48
10/24/2020 9:15:00 AM 14.42 57.956 0.05 6.82 2.67 8.56
10/24/2020 9:30:00 AM 14.41 57.938 0.05 6.78 2.35 8.4
10/24/2020 9:45:00 AM 14.34 57.812 0.05 6.82 2.18 8.56
10/24/2020 10:00:00 AM 14.3 57.74 0.05 6.82 2.2 8.56
10/24/2020 10:15:00 AM 14.29 57.722 0.05 6.82 2.29 8.58
10/24/2020 10:30:00 AM 14.26 57.668 0.05 6.81 2.25 8.53
10/24/2020 10:45:00 AM 14.19 57.542 0.047 6.81 2.74 8.7
10/24/2020 11:00:00 AM 14.14 57.452 0.05 6.84 2.19 8.73
10/24/2020 11:15:00 AM 14.14 57.452 0.05 6.83 2.29 8.66
10/24/2020 11:30:00 AM 14.08 57.344 0.05 6.81 2.26 8.7
10/24/2020 11:45:00 AM 14.06 57.308 0.05 6.8 2.22 8.7
10/24/2020 12:00:00 PM 14.01 57.218 0.05 6.82 2.19 8.72
10/24/2020 12:15:00 PM 14 57.2 0.049 6.84 2.17 8.84
10/24/2020 12:30:00 PM 13.95 57.11 0.049 6.85 2.39 8.93
10/24/2020 12:45:00 PM 13.92 57.056 0.049 6.85 2.21 8.96
10/24/2020 1:00:00 PM 13.9 57.02 0.049 6.88 2.13 9.09
10/24/2020 1:15:00 PM 13.86 56.948 0.049 6.86 2.31 8.98
10/24/2020 1:30:00 PM 13.85 56.93 0.049 6.87 2.21 9.13
10/24/2020 1:45:00 PM 13.86 56.948 0.05 6.87 2.24 9.09
10/24/2020 2:00:00 PM 13.83 56.894 0.049 6.88 2.21 9.27
10/24/2020 2:15:00 PM 13.8 56.84 0.049 6.9 2.25 9.32
10/24/2020 2:30:00 PM 13.79 56.822 0.049 6.9 2.13 9.35
10/24/2020 2:45:00 PM 13.74 56.732 0.049 6.91 2.18 9.34
10/24/2020 3:00:00 PM 13.69 56.642 0.049 6.93 2.34 9.45
10/24/2020 3:15:00 PM 13.68 56.624 0.053 6.92 2.71 9.53
10/24/2020 3:30:00 PM 13.63 56.534 0.049 6.92 2.2 9.43
10/24/2020 3:45:00 PM 13.57 56.426 0.049 6.94 2.15 9.55
10/24/2020 4:00:00 PM 13.56 56.408 0.049 6.9 2.19 9.55
10/24/2020 4:15:00 PM 13.53 56.354 0.049 6.93 2.14 9.64
10/24/2020 4:30:00 PM 13.49 56.282 0.049 6.9 2.19 9.59
10/24/2020 4:45:00 PM 13.45 56.21 0.049 6.92 2.11 9.54
10/24/2020 5:00:00 PM 13.4 56.12 0.048 6.93 2.26 9.58
10/24/2020 5:15:00 PM 13.36 56.048 0.048 6.96 2.14 9.6
10/24/2020 5:30:00 PM 13.29 55.922 0.046 6.93 2.71 9.68
10/24/2020 5:45:00 PM 13.19 55.742 0.048 6.98 2.22 9.67
10/24/2020 6:00:00 PM 13.13 55.634 0.048 6.96 2.11 9.62
10/24/2020 6:15:00 PM 13.08 55.544 0.046 6.94 2.69 9.7
10/24/2020 6:30:00 PM 13.02 55.436 0.048 6.95 2.12 9.61
10/24/2020 6:45:00 PM 12.93 55.274 0.048 6.94 2.17 9.55
10/24/2020 7:00:00 PM 12.86 55.148 0.048 6.93 2.15 9.49
10/24/2020 7:15:00 PM 12.82 55.076 0.048 6.92 2.19 9.48
10/24/2020 7:30:00 PM 12.76 54.968 0.049 6.91 2.13 9.44
10/24/2020 7:45:00 PM 12.67 54.806 0.049 6.89 2.18 9.37
10/24/2020 8:00:00 PM 12.59 54.662 0.049 6.88 2.2 9.4
10/24/2020 8:15:00 PM 12.5 54.5 0.049 6.88 2.16 9.28
10/24/2020 8:30:00 PM 12.43 54.374 0.049 6.86 2.13 9.34
10/24/2020 8:45:00 PM 12.32 54.176 0.049 6.87 2.2 9.26
10/24/2020 9:00:00 PM 12.23 54.014 0.049 6.85 2.18 9.31
10/24/2020 9:15:00 PM 12.14 53.852 0.049 6.86 2.22 9.32
10/24/2020 9:30:00 PM 12.07 53.726 0.049 6.84 2.19 9.35
10/24/2020 9:45:00 PM 11.97 53.546 0.049 6.86 2.14 9.27
10/24/2020 10:00:00 PM 11.89 53.402 0.049 6.85 2.09 9.25
10/24/2020 10:15:00 PM 11.8 53.24 0.049 6.85 2.16 9.23
10/24/2020 10:30:00 PM 11.69 53.042 0.049 6.84 2.15 9.21
10/24/2020 10:45:00 PM 11.62 52.916 0.049 6.85 2.15 9.29
10/24/2020 11:00:00 PM 11.55 52.79 0.049 6.84 2.25 9.29
10/24/2020 11:15:00 PM 11.45 52.61 0.047 6.81 2.73 9.3
10/24/2020 11:30:00 PM 11.36 52.448 0.05 6.82 2.15 9.23
10/24/2020 11:45:00 PM 11.28 52.304 0.05 6.8 2.1 9.21
10/25/2020 12:00:00 AM 11.2 52.16 0.05 6.8 2.12 9.16
10/25/2020 12:15:00 AM 11.14 52.052 0.05 6.8 2.21 9.18
10/25/2020 12:30:00 AM 11.03 51.854 0.05 6.8 2.13 9.17
10/25/2020 12:45:00 AM 10.92 51.656 0.051 6.78 2.19 9.14
10/25/2020 1:00:00 AM 10.83 51.494 0.048 6.76 2.74 9.16
10/25/2020 1:15:00 AM 10.74 51.332 0.051 6.77 2.23 9.15
10/25/2020 1:30:00 AM 10.65 51.17 0.048 6.76 2.76 9.2
10/25/2020 1:45:00 AM 10.54 50.972 0.051 6.77 2.34 9.25
10/25/2020 2:00:00 AM 10.45 50.81 0.051 6.77 2.2 9.2
10/25/2020 2:15:00 AM 10.35 50.63 0.051 6.76 2.21 9.19
10/25/2020 2:30:00 AM 10.26 50.468 0.051 6.77 2.2 9.2
10/25/2020 2:45:00 AM 10.17 50.306 0.057 6.51 15.11 9.27
10/25/2020 3:00:00 AM 10.03 50.054 0.052 6.62 10.67 8.64
10/25/2020 3:15:00 AM 9.94 49.892 0.052 6.74 3.25 9.13
10/25/2020 3:30:00 AM 9.84 49.712 0.056 6.7 2.24 9.24
10/25/2020 3:45:00 AM 9.74 49.532 0.058 6.71 2.14 9.26
10/25/2020 4:00:00 AM 9.64 49.352 0.057 6.73 2.48 9.34
10/25/2020 4:15:00 AM 9.53 49.154 0.058 6.73 2.17 9.36
10/25/2020 4:30:00 AM 9.45 49.01 0.06 6.61 2.31 9.41
10/25/2020 4:45:00 AM 9.36 48.848 0.056 6.72 2.18 9.38
10/25/2020 5:00:00 AM 9.26 48.668 0.057 6.73 2.18 9.44
10/25/2020 5:15:00 AM 9.19 48.542 0.057 6.73 2.11 9.47
10/25/2020 5:30:00 AM 9.09 48.362 0.057 6.73 2.07 9.4
10/25/2020 5:45:00 AM 9 48.2 0.056 6.73 2.07 9.48
10/25/2020 6:00:00 AM 8.93 48.074 0.056 6.74 2.05 9.49
10/25/2020 6:15:00 AM 8.87 47.966 0.055 6.74 2.11 9.52
10/25/2020 6:30:00 AM 8.78 47.804 0.056 6.73 2.04 9.49
10/25/2020 6:45:00 AM 8.67 47.606 0.055 6.71 2.21 9.56
10/25/2020 7:00:00 AM 8.58 47.444 0.054 6.73 2.24 9.52
10/25/2020 7:15:00 AM 8.5 47.3 0.055 6.71 2.08 9.58
10/25/2020 7:30:00 AM 8.49 47.282 0.055 6.65 2.16 9.63
10/25/2020 7:45:00 AM 8.39 47.102 0.054 6.7 2.17 9.69
10/25/2020 8:00:00 AM 8.31 46.958 0.052 6.75 1.99 9.72
10/25/2020 8:15:00 AM 8.23 46.814 0.052 6.76 2.03 9.7
10/25/2020 8:30:00 AM 8.19 46.742 0.052 6.74 2.33 9.83
10/25/2020 8:45:00 AM 8.17 46.706 0.052 6.74 2.26 9.8
10/25/2020 9:00:00 AM 8.11 46.598 0.054 6.73 2.02 9.87
10/25/2020 9:15:00 AM 8.08 46.544 0.053 6.75 1.99 9.86
10/25/2020 9:30:00 AM 8.07 46.526 0.052 6.76 1.96 9.99
10/25/2020 9:45:00 AM 8.01 46.418 0.05 6.82 1.99 10.32
10/25/2020 10:00:00 AM 7.99 46.382 0.051 6.73 3.45 10.43
10/25/2020 10:15:00 AM 7.96 46.328 0.049 6.59 2.53 10.43
10/25/2020 10:30:00 AM 7.92 46.256 0.05 6.85 1.96 10.46
10/25/2020 10:45:00 AM 7.89 46.202 0.05 6.84 2.02 10.43
10/25/2020 11:00:00 AM 7.89 46.202 0.051 6.8 1.96 10.36
10/25/2020 11:15:00 AM 7.88 46.184 0.051 6.79 1.93 10.49
10/25/2020 11:30:00 AM 7.88 46.184 0.051 6.82 2.05 10.56
10/25/2020 11:45:00 AM 7.9 46.22 0.052 6.77 3.32 10.57
10/25/2020 12:00:00 PM 7.9 46.22 0.053 6.8 2.49 10.68
10/25/2020 12:15:00 PM 7.93 46.274 0.048 6.82 2.5 10.75
10/25/2020 12:30:00 PM 7.95 46.31 0.048 6.63 2.53 10.76
10/25/2020 12:45:00 PM 7.99 46.382 0.05 6.85 1.92 10.8
10/25/2020 1:00:00 PM 8.06 46.508 0.049 6.79 1.99 10.89
10/25/2020 1:15:00 PM 8.07 46.526 0.05 6.87 3.23 10.78
10/25/2020 1:30:00 PM 8.15 46.67 0.049 6.88 2.07 10.96
10/25/2020 1:45:00 PM 8.2 46.76 0.047 6.85 3.25 10.97
10/25/2020 2:00:00 PM 8.29 46.922 0.049 6.91 1.88 11.05
10/25/2020 2:15:00 PM 8.34 47.012 0.048 6.92 1.86 11.02
10/25/2020 2:30:00 PM 8.45 47.21 0.048 6.93 1.88 10.99
10/25/2020 2:45:00 PM 8.54 47.372 0.048 6.91 1.91 11
10/25/2020 3:00:00 PM 8.69 47.642 0.05 6.94 1.88 11.04
10/25/2020 3:15:00 PM 8.8 47.84 0.049 6.94 1.94 11.08
10/25/2020 3:30:00 PM 8.87 47.966 0.052 6.95 1.87 11.07
10/25/2020 3:45:00 PM 8.92 48.056 0.05 6.97 1.85 11.03
10/25/2020 4:00:00 PM 8.99 48.182 0.052 6.95 1.86 11.02
10/25/2020 4:15:00 PM 9.11 48.398 0.053 6.95 1.91 11.01
10/25/2020 4:30:00 PM 9.21 48.578 0.055 6.96 1.83 10.98
10/25/2020 4:45:00 PM 9.29 48.722 0.053 6.96 1.87 11.01
10/25/2020 5:00:00 PM 9.37 48.866 0.054 6.95 2.34 10.94
10/25/2020 5:15:00 PM 9.45 49.01 0.049 6.99 1.89 10.98
10/25/2020 5:30:00 PM 9.48 49.064 0.053 6.99 1.87 10.94
10/25/2020 5:45:00 PM 9.51 49.118 0.053 6.96 1.86 10.85
10/25/2020 6:00:00 PM 9.53 49.154 0.053 6.97 1.87 10.88
10/25/2020 6:15:00 PM 9.53 49.154 0.054 6.97 1.87 10.84
10/25/2020 6:30:00 PM 9.56 49.208 0.054 6.96 1.86 10.75
10/25/2020 6:45:00 PM 9.55 49.19 0.054 6.96 1.83 10.7
10/25/2020 7:00:00 PM 9.58 49.244 0.054 6.97 1.85 10.61
10/25/2020 7:15:00 PM 9.61 49.298 0.054 6.95 1.83 10.55
10/25/2020 7:30:00 PM 9.63 49.334 0.054 6.95 1.82 10.42
10/25/2020 7:45:00 PM 9.66 49.388 0.054 6.96 1.83 10.48
10/25/2020 8:00:00 PM 9.66 49.388 0.054 6.94 1.94 10.39
10/25/2020 8:15:00 PM 9.67 49.406 0.055 6.94 1.87 10.38
10/25/2020 8:30:00 PM 9.66 49.388 0.055 6.95 1.88 10.36
10/25/2020 8:45:00 PM 9.65 49.37 0.055 6.94 1.85 10.29
10/25/2020 9:00:00 PM 9.65 49.37 0.055 6.93 1.97 10.28
10/25/2020 9:15:00 PM 9.67 49.406 0.055 6.92 1.89 10.22
10/25/2020 9:30:00 PM 9.66 49.388 0.056 6.91 2.54 10.19
10/25/2020 9:45:00 PM 9.64 49.352 0.056 6.91 1.85 10.18
10/25/2020 10:00:00 PM 9.63 49.334 0.055 6.91 1.9 10.16
10/25/2020 10:15:00 PM 9.63 49.334 0.056 6.91 1.88 10.17
10/25/2020 10:30:00 PM 9.6 49.28 0.058 6.87 1.87 10.13
10/25/2020 10:45:00 PM 9.58 49.244 0.054 6.91 1.91 10.13
10/25/2020 11:00:00 PM 9.55 49.19 0.056 6.91 1.92 10.08
10/25/2020 11:15:00 PM 9.51 49.118 0.057 6.88 1.97 10.07
10/25/2020 11:30:00 PM 9.49 49.082 0.057 6.89 2.05 10.09
10/25/2020 11:45:00 PM 9.46 49.028 0.057 6.89 1.92 10.04
10/26/2020 12:00:00 AM 9.44 48.992 0.058 6.87 1.91 9.99
10/26/2020 12:15:00 AM 9.42 48.956 0.057 6.87 1.97 9.97
10/26/2020 12:30:00 AM 9.39 48.902 0.058 6.86 1.92 9.96
10/26/2020 12:45:00 AM 9.36 48.848 0.058 6.84 1.91 9.94
10/26/2020 1:00:00 AM 9.3 48.74 0.058 6.85 1.92 10.02
10/26/2020 1:15:00 AM 9.27 48.686 0.059 6.85 2.01 9.97
10/26/2020 1:30:00 AM 9.24 48.632 0.059 6.85 1.9 9.96
10/26/2020 1:45:00 AM 9.22 48.596 0.058 6.84 1.89 9.96
10/26/2020 2:00:00 AM 9.19 48.542 0.063 6.76 1.91 9.97
10/26/2020 2:15:00 AM 9.16 48.488 0.058 6.8 2.07 9.88
10/26/2020 2:30:00 AM 9.12 48.416 0.059 6.82 1.97 9.92
10/26/2020 2:45:00 AM 9.1 48.38 0.058 6.84 2.13 9.89
10/26/2020 3:00:00 AM 9.08 48.344 0.058 6.84 2.01 9.91
10/26/2020 3:15:00 AM 9.07 48.326 0.058 6.83 2.05 9.94
10/26/2020 3:30:00 AM 9.04 48.272 0.058 6.85 2.16 10.04
10/26/2020 3:45:00 AM 9.02 48.236 0.061 6.81 2.63 10.02
10/26/2020 4:00:00 AM 8.98 48.164 0.057 6.85 2.16 10.02
10/26/2020 4:15:00 AM 8.97 48.146 0.058 6.86 2.17 10.09
10/26/2020 4:30:00 AM 8.95 48.11 0.061 6.83 2.73 10.13
10/26/2020 4:45:00 AM 8.91 48.038 0.056 6.82 2.72 10.09
10/26/2020 5:00:00 AM 8.89 48.002 0.056 6.85 2.15 10.08
10/26/2020 5:15:00 AM 8.87 47.966 0.057 6.85 2.15 10.13
10/26/2020 5:30:00 AM 8.85 47.93 0.06 6.84 2.56 10.15
10/26/2020 5:45:00 AM 8.82 47.876 0.056 6.86 2.5 10.19
10/26/2020 6:00:00 AM 8.79 47.822 0.059 6.83 2.55 10.19
10/26/2020 6:15:00 AM 8.78 47.804 0.058 6.86 2.07 10.14
10/26/2020 6:30:00 AM 8.76 47.768 0.058 6.86 2.07 10.19
10/26/2020 6:45:00 AM 8.75 47.75 0.058 6.86 2.2 10.19
10/26/2020 7:00:00 AM 8.74 47.732 0.059 6.85 2.06 10.11
10/26/2020 7:15:00 AM 8.73 47.714 0.062 6.78 3.01 10.08
10/26/2020 7:30:00 AM 8.72 47.696 0.058 6.84 2.69 10.1
10/26/2020 7:45:00 AM 8.71 47.678 0.058 6.83 2.51 10.13
10/26/2020 8:00:00 AM 8.71 47.678 0.059 6.84 2.32 10.16
10/26/2020 8:15:00 AM 8.72 47.696 0.059 6.84 2.46 10.16
10/26/2020 8:30:00 AM 8.72 47.696 0.059 6.84 1.97 10.2
10/26/2020 8:45:00 AM 8.73 47.714 0.058 6.83 2.51 10.14
10/26/2020 9:00:00 AM 8.74 47.732 0.058 6.84 2.36 10.2
10/26/2020 9:15:00 AM 8.75 47.75 0.058 6.84 2.52 10.22
10/26/2020 9:30:00 AM 8.77 47.786 0.061 6.81 2.69 10.24
10/26/2020 9:45:00 AM 8.79 47.822 0.055 6.85 2.5 10.2
10/26/2020 10:00:00 AM 8.81 47.858 0.056 6.86 1.94 10.24
10/26/2020 10:15:00 AM 8.84 47.912 0.056 6.86 1.96 10.29
10/26/2020 10:30:00 AM 8.86 47.948 0.056 6.87 1.94 10.32
10/26/2020 10:45:00 AM 8.9 48.02 0.057 6.87 1.97 10.27
10/26/2020 11:00:00 AM 8.93 48.074 0.057 6.87 1.95 10.35
10/26/2020 11:15:00 AM 8.96 48.128 0.057 6.88 2.05 10.34
10/26/2020 11:30:00 AM 8.99 48.182 0.058 6.88 1.98 10.33
10/26/2020 11:45:00 AM 9.03 48.254 0.058 6.87 1.94 10.32
10/26/2020 12:00:00 PM 9.08 48.344 0.057 6.87 2.01 10.31
10/26/2020 12:15:00 PM 9.17 48.506 0.057 6.89 1.93 10.3
10/26/2020 12:30:00 PM 9.27 48.686 0.057 6.9 1.97 10.4
10/26/2020 12:45:00 PM 9.35 48.83 0.057 6.89 1.92 10.54
10/26/2020 1:00:00 PM 9.44 48.992 0.057 6.9 1.92 10.57
10/26/2020 1:15:00 PM 9.52 49.136 0.058 6.89 1.94 10.48
10/26/2020 1:30:00 PM 9.59 49.262 0.057 6.9 2.03 10.57
10/26/2020 1:45:00 PM 9.67 49.406 0.057 6.91 1.96 10.51
10/26/2020 2:00:00 PM 9.74 49.532 0.057 6.92 1.96 10.63
10/26/2020 2:15:00 PM 9.83 49.694 0.057 6.94 1.97 10.57
10/26/2020 2:30:00 PM 9.9 49.82 0.057 6.94 2.06 10.61
10/26/2020 2:45:00 PM 9.97 49.946 0.057 6.94 2.01 10.66
10/26/2020 3:00:00 PM 10.02 50.036 0.057 6.95 2.01 10.61
10/26/2020 3:15:00 PM 10.1 50.18 0.057 6.95 1.94 10.63
10/26/2020 3:30:00 PM 10.16 50.288 0.057 6.95 2.02 10.63
10/26/2020 3:45:00 PM 10.22 50.396 0.057 6.95 2.35 10.65
10/26/2020 4:00:00 PM 10.27 50.486 0.06 6.93 2.43 10.66
10/26/2020 4:15:00 PM 10.32 50.576 0.057 6.98 1.88 10.58
10/26/2020 4:30:00 PM 10.37 50.666 0.056 6.95 1.93 10.55
10/26/2020 4:45:00 PM 10.44 50.792 0.056 6.96 1.89 10.47
10/26/2020 5:00:00 PM 10.47 50.846 0.057 6.95 1.94 10.5
10/26/2020 5:15:00 PM 10.5 50.9 0.057 6.95 1.93 10.46
10/26/2020 5:30:00 PM 10.53 50.954 0.062 6.92 2.34 10.49
10/26/2020 5:45:00 PM 10.56 51.008 0.057 6.97 1.91 10.45
10/26/2020 6:00:00 PM 10.58 51.044 0.057 6.98 2.02 10.41
10/26/2020 6:15:00 PM 10.59 51.062 0.059 6.96 1.87 10.36
10/26/2020 6:30:00 PM 10.61 51.098 0.058 6.95 1.85 10.23
10/26/2020 6:45:00 PM 10.62 51.116 0.058 6.94 1.89 10.17
10/26/2020 7:00:00 PM 10.63 51.134 0.057 6.94 1.96 10.08
10/26/2020 7:15:00 PM 10.65 51.17 0.057 6.92 1.97 10.09
10/26/2020 7:30:00 PM 10.66 51.188 0.057 6.93 2 10.08
10/26/2020 7:45:00 PM 10.67 51.206 0.057 6.92 1.83 10.02
10/26/2020 8:00:00 PM 10.68 51.224 0.058 6.92 1.91 10.01
10/26/2020 8:15:00 PM 10.69 51.242 0.057 6.9 1.83 9.95
10/26/2020 8:30:00 PM 10.69 51.242 0.058 6.9 1.88 9.99
10/26/2020 8:45:00 PM 10.7 51.26 0.058 6.89 1.9 9.93
10/26/2020 9:00:00 PM 10.7 51.26 0.057 6.89 1.84 9.87
10/26/2020 9:15:00 PM 10.7 51.26 0.057 6.82 1.96 9.8
10/26/2020 9:30:00 PM 10.7 51.26 0.057 6.85 2.03 9.82
10/26/2020 9:45:00 PM 10.7 51.26 0.056 6.87 2.08 9.82
10/26/2020 10:00:00 PM 10.7 51.26 0.056 6.87 2.05 9.76
10/26/2020 10:15:00 PM 10.7 51.26 0.056 6.87 1.89 9.78
10/26/2020 10:30:00 PM 10.7 51.26 0.056 6.85 1.86 9.75
10/26/2020 10:45:00 PM 10.69 51.242 0.057 6.85 1.84 9.74
10/26/2020 11:00:00 PM 10.69 51.242 0.056 6.85 1.84 9.67
10/26/2020 11:15:00 PM 10.68 51.224 0.056 6.85 1.94 9.63
10/26/2020 11:30:00 PM 10.65 51.17 0.055 6.86 1.87 9.75
10/26/2020 11:45:00 PM 10.65 51.17 0.056 6.85 2.41 9.72
10/27/2020 12:00:00 AM 10.64 51.152 0.056 6.85 1.86 9.67
10/27/2020 12:15:00 AM 10.6 51.08 0.056 6.84 1.85 9.65
10/27/2020 12:30:00 AM 10.59 51.062 0.055 6.84 1.86 9.65
10/27/2020 12:45:00 AM 10.58 51.044 0.056 6.83 1.92 9.65
10/27/2020 1:00:00 AM 10.54 50.972 0.056 6.83 1.87 9.62
10/27/2020 1:15:00 AM 10.51 50.918 0.055 6.84 1.91 9.61
10/27/2020 1:30:00 AM 10.46 50.828 0.056 6.84 1.84 9.63
10/27/2020 1:45:00 AM 10.41 50.738 0.056 6.85 1.86 9.6
10/27/2020 2:00:00 AM 10.38 50.684 0.059 6.81 2.36 9.68
10/27/2020 2:15:00 AM 10.35 50.63 0.057 6.83 1.88 9.59
10/27/2020 2:30:00 AM 10.32 50.576 0.056 6.83 1.9 9.53
10/27/2020 2:45:00 AM 10.26 50.468 0.056 6.83 1.88 9.61
10/27/2020 3:00:00 AM 10.23 50.414 0.057 6.84 1.87 9.64
10/27/2020 3:15:00 AM 10.19 50.342 0.057 6.83 1.87 9.6
10/27/2020 3:30:00 AM 10.16 50.288 0.057 6.83 1.92 9.68
10/27/2020 3:45:00 AM 10.13 50.234 0.056 6.83 2.05 9.56
10/27/2020 4:00:00 AM 10.09 50.162 0.058 6.83 1.94 9.62
10/27/2020 4:15:00 AM 10.04 50.072 0.062 6.78 2.49 9.6
10/27/2020 4:30:00 AM 10.02 50.036 0.058 6.82 1.92 9.52
10/27/2020 4:45:00 AM 10 50 0.057 6.82 1.93 9.55
10/27/2020 5:00:00 AM 9.99 49.982 0.058 6.8 2.08 9.54
10/27/2020 5:15:00 AM 9.94 49.892 0.058 6.8 1.93 9.53
10/27/2020 5:30:00 AM 9.91 49.838 0.057 6.81 2.01 9.64
10/27/2020 5:45:00 AM 9.86 49.748 0.056 6.8 1.91 9.61
10/27/2020 6:00:00 AM 9.83 49.694 0.057 6.81 1.89 9.62
10/27/2020 6:15:00 AM 9.8 49.64 0.061 6.77 2.41 9.61
10/27/2020 6:30:00 AM 9.77 49.586 0.057 6.81 2.8 9.63
10/27/2020 6:45:00 AM 9.73 49.514 0.058 6.79 2 9.55
10/27/2020 7:00:00 AM 9.69 49.442 0.057 6.8 2 9.59
10/27/2020 7:15:00 AM 9.65 49.37 0.056 6.78 1.88 9.63
10/27/2020 7:30:00 AM 9.62 49.316 0.057 6.77 1.94 9.58
10/27/2020 7:45:00 AM 9.58 49.244 0.057 6.79 1.99 9.65
10/27/2020 8:00:00 AM 9.54 49.172 0.056 6.8 1.95 9.74
10/27/2020 8:15:00 AM 9.51 49.118 0.056 6.79 1.96 9.78
10/27/2020 8:30:00 AM 9.48 49.064 0.056 6.81 1.95 9.85
10/27/2020 8:45:00 AM 9.48 49.064 0.057 6.78 1.96 9.81
10/27/2020 9:00:00 AM 9.46 49.028 0.055 6.8 2.07 9.89
10/27/2020 9:15:00 AM 9.46 49.028 0.056 6.77 1.95 9.84
10/27/2020 9:30:00 AM 9.43 48.974 0.054 6.8 1.97 9.88
10/27/2020 9:45:00 AM 9.4 48.92 0.053 6.81 2.32 9.98
10/27/2020 10:00:00 AM 9.39 48.902 0.057 6.79 2.47 9.97
10/27/2020 10:15:00 AM 9.37 48.866 0.059 6.73 2.43 10.06
10/27/2020 10:30:00 AM 9.35 48.83 0.053 6.83 1.96 10.12
10/27/2020 10:45:00 AM 9.32 48.776 0.053 6.84 1.96 10.18
10/27/2020 11:00:00 AM 9.3 48.74 0.053 6.83 2.09 10.15
10/27/2020 11:15:00 AM 9.28 48.704 0.053 6.86 2.06 10.22
10/27/2020 11:30:00 AM 9.28 48.704 0.052 6.88 1.98 10.35
10/27/2020 11:45:00 AM 9.3 48.74 0.052 6.89 2.11 10.27
10/27/2020 12:00:00 PM 9.31 48.758 0.052 6.88 1.95 10.25
10/27/2020 12:15:00 PM 9.33 48.794 0.052 6.88 1.98 10.33
10/27/2020 12:30:00 PM 9.36 48.848 0.052 6.89 2.11 10.4
10/27/2020 12:45:00 PM 9.41 48.938 0.05 6.85 2.4 10.51
10/27/2020 1:00:00 PM 9.45 49.01 0.051 6.91 1.97 10.49
10/27/2020 1:15:00 PM 9.53 49.154 0.05 6.91 1.94 10.58
10/27/2020 1:30:00 PM 9.56 49.208 0.05 6.9 1.98 10.51
10/27/2020 1:45:00 PM 9.59 49.262 0.05 6.91 2.01 10.58
10/27/2020 2:00:00 PM 9.67 49.406 0.049 6.94 1.99 10.62
10/27/2020 2:15:00 PM 9.71 49.478 0.049 6.94 1.97 10.62
10/27/2020 2:30:00 PM 9.75 49.55 0.048 6.93 1.94 10.68
10/27/2020 2:45:00 PM 9.81 49.658 0.055 6.91 2.37 10.73
10/27/2020 3:00:00 PM 9.82 49.676 0.048 6.95 1.93 10.71
10/27/2020 3:15:00 PM 9.87 49.766 0.048 6.96 1.89 10.77
10/27/2020 3:30:00 PM 9.88 49.784 0.047 6.92 2.43 10.79
10/27/2020 3:45:00 PM 9.89 49.802 0.047 6.97 1.97 10.69
10/27/2020 4:00:00 PM 9.92 49.856 0.046 6.97 1.97 10.67
10/27/2020 4:15:00 PM 9.96 49.928 0.046 6.95 1.92 10.63
10/27/2020 4:30:00 PM 9.99 49.982 0.046 6.96 1.92 10.71
10/27/2020 4:45:00 PM 10.01 50.018 0.044 6.93 2.36 10.74
10/27/2020 5:00:00 PM 10.02 50.036 0.046 6.97 2.01 10.73
10/27/2020 5:15:00 PM 10.04 50.072 0.051 6.95 1.92 10.57
10/27/2020 5:30:00 PM 10.04 50.072 0.054 6.96 1.92 10.49
10/27/2020 5:45:00 PM 10.02 50.036 0.052 6.97 1.92 10.53
10/27/2020 6:00:00 PM 10.03 50.054 0.053 6.98 1.91 10.55
10/27/2020 6:15:00 PM 10.03 50.054 0.053 6.96 1.92 10.54
10/27/2020 6:30:00 PM 10.04 50.072 0.051 6.95 1.9 10.46
10/27/2020 6:45:00 PM 10.04 50.072 0.051 6.94 1.97 10.43
10/27/2020 7:00:00 PM 10.04 50.072 0.05 6.95 1.89 10.37
10/27/2020 7:15:00 PM 10.04 50.072 0.049 6.95 2.06 10.31
10/27/2020 7:30:00 PM 10.02 50.036 0.049 6.93 2.02 10.3
10/27/2020 7:45:00 PM 10 50 0.05 6.92 1.95 10.29
10/27/2020 8:00:00 PM 9.96 49.928 0.05 6.88 2.41 10.29
10/27/2020 8:15:00 PM 9.95 49.91 0.052 6.9 1.92 10.25
10/27/2020 8:30:00 PM 9.94 49.892 0.05 6.9 2.01 10.16
10/27/2020 8:45:00 PM 9.92 49.856 0.049 6.89 1.94 10.15
10/27/2020 9:00:00 PM 9.92 49.856 0.048 6.88 1.92 10.15
10/27/2020 9:15:00 PM 9.91 49.838 0.047 6.89 1.99 10.11
10/27/2020 9:30:00 PM 9.9 49.82 0.046 6.88 1.92 10
10/27/2020 9:45:00 PM 9.88 49.784 0.047 6.88 1.98 10.11
10/27/2020 10:00:00 PM 9.86 49.748 0.047 6.88 1.95 10.01
10/27/2020 10:15:00 PM 9.83 49.694 0.048 6.85 1.95 10.08
10/27/2020 10:30:00 PM 9.79 49.622 0.049 6.85 1.98 10.01
10/27/2020 10:45:00 PM 9.77 49.586 0.048 6.79 2.43 10.07
10/27/2020 11:00:00 PM 9.76 49.568 0.047 6.85 2.03 10.04
10/27/2020 11:15:00 PM 9.73 49.514 0.048 6.83 2.42 10.03
10/27/2020 11:30:00 PM 9.7 49.46 0.05 6.82 2.42 10.08
10/27/2020 11:45:00 PM 9.67 49.406 0.05 6.86 1.99 10.06
10/28/2020 12:00:00 AM 9.67 49.406 0.05 6.82 1.97 9.98
10/28/2020 12:15:00 AM 9.63 49.334 0.052 6.84 2 10.01
10/28/2020 12:30:00 AM 9.61 49.298 0.049 6.84 2.02 10.02
10/28/2020 12:45:00 AM 9.57 49.226 0.048 6.85 1.98 10.02
10/28/2020 1:00:00 AM 9.54 49.172 0.049 6.83 2.02 9.99
10/28/2020 1:15:00 AM 9.53 49.154 0.049 6.83 2.21 10
10/28/2020 1:30:00 AM 9.49 49.082 0.048 6.84 2.1 9.99
10/28/2020 1:45:00 AM 9.47 49.046 0.049 6.83 2.04 9.99
10/28/2020 2:00:00 AM 9.44 48.992 0.049 6.83 2 9.97
10/28/2020 2:15:00 AM 9.41 48.938 0.049 6.83 2.01 9.94
10/28/2020 2:30:00 AM 9.39 48.902 0.049 6.83 2.01 9.9
10/28/2020 2:45:00 AM 9.37 48.866 0.053 6.83 2.09 9.95
10/28/2020 3:00:00 AM 9.33 48.794 0.05 6.84 2.07 10
10/28/2020 3:15:00 AM 9.32 48.776 0.049 6.83 2.02 9.98
10/28/2020 3:30:00 AM 9.3 48.74 0.048 6.82 2.05 10
10/28/2020 3:45:00 AM 9.26 48.668 0.051 6.83 2.03 9.99
10/28/2020 4:00:00 AM 9.24 48.632 0.049 6.83 2.19 10.03
10/28/2020 4:15:00 AM 9.22 48.596 0.053 6.83 2.01 10.02
10/28/2020 4:30:00 AM 9.19 48.542 0.052 6.84 2.19 10.07
10/28/2020 4:45:00 AM 9.18 48.524 0.049 6.84 2.03 10.05
10/28/2020 5:00:00 AM 9.16 48.488 0.048 6.84 2.22 10.04
10/28/2020 5:15:00 AM 9.15 48.47 0.048 6.84 2.03 10.06
10/28/2020 5:30:00 AM 9.13 48.434 0.048 6.83 2.05 10.04
10/28/2020 5:45:00 AM 9.12 48.416 0.048 6.82 2.01 10.02
10/28/2020 6:00:00 AM 9.11 48.398 0.05 6.78 2.5 9.99
10/28/2020 6:15:00 AM 9.09 48.362 0.053 6.82 2.41 10.01
10/28/2020 6:30:00 AM 9.08 48.344 0.052 6.8 2.68 9.97
10/28/2020 6:45:00 AM 9.07 48.326 0.049 6.8 2.26 9.9
10/28/2020 7:00:00 AM 9.07 48.326 0.049 6.76 2.87 9.96
10/28/2020 7:15:00 AM 9.06 48.308 0.048 6.77 2.69 10.04
10/28/2020 7:30:00 AM 9.04 48.272 0.05 6.75 2.33 10.06
10/28/2020 7:45:00 AM 9.03 48.254 0.049 6.79 2.2 9.89
10/28/2020 8:00:00 AM 9.02 48.236 0.048 6.81 2.05 9.98
10/28/2020 8:15:00 AM 9.01 48.218 0.048 6.83 2.08 10.08
10/28/2020 8:30:00 AM 9.01 48.218 0.048 6.83 2.12 10.12
10/28/2020 8:45:00 AM 9.01 48.218 0.052 6.83 2.13 10.1
10/28/2020 9:00:00 AM 9.01 48.218 0.05 6.82 2.14 10.07
10/28/2020 9:15:00 AM 9.01 48.218 0.051 6.82 2.18 10.01
10/28/2020 9:30:00 AM 9.02 48.236 0.05 6.84 2.18 10.09
10/28/2020 9:45:00 AM 9.03 48.254 0.05 6.8 2.67 10.17
10/28/2020 10:00:00 AM 9.05 48.29 0.05 6.8 2.96 9.96
10/28/2020 10:15:00 AM 9.06 48.308 0.052 6.79 3.43 10.17
10/28/2020 10:30:00 AM 9.07 48.326 0.052 6.81 2.95 10.11
10/28/2020 10:45:00 AM 9.11 48.398 0.052 6.8 2.87 10.11
10/28/2020 11:00:00 AM 9.15 48.47 0.052 6.82 2.59 10.16
10/28/2020 11:15:00 AM 9.17 48.506 0.057 6.79 2.95 10.03
10/28/2020 11:30:00 AM 9.2 48.56 0.054 6.78 3.01 10
10/28/2020 11:45:00 AM 9.24 48.632 0.054 6.78 2.75 9.99
10/28/2020 12:00:00 PM 9.27 48.686 0.057 6.79 2.66 10.13
10/28/2020 12:15:00 PM 9.32 48.776 0.055 6.83 2.7 10.18
10/28/2020 12:30:00 PM 9.36 48.848 0.054 6.82 2.71 10.18
10/28/2020 12:45:00 PM 9.4 48.92 0.054 6.81 2.07 10.19
10/28/2020 1:00:00 PM 9.43 48.974 0.053 6.83 2.91 10.29
10/28/2020 1:15:00 PM 9.46 49.028 0.055 6.84 2.06 10.36
10/28/2020 1:30:00 PM 9.49 49.082 0.053 6.84 2.02 10.25
10/28/2020 1:45:00 PM 9.51 49.118 0.055 6.86 2.07 10.33
10/28/2020 2:00:00 PM 9.55 49.19 0.053 6.87 2.05 10.4
10/28/2020 2:15:00 PM 9.6 49.28 0.054 6.88 2.11 10.51
10/28/2020 2:30:00 PM 9.64 49.352 0.053 6.9 2.05 10.54
10/28/2020 2:45:00 PM 9.69 49.442 0.051 6.88 2.08 10.49
10/28/2020 3:00:00 PM 9.73 49.514 0.052 6.88 2.51 10.63
10/28/2020 3:15:00 PM 9.77 49.586 0.054 6.92 2.01 10.59
10/28/2020 3:30:00 PM 9.79 49.622 0.053 6.93 2.02 10.59
10/28/2020 3:45:00 PM 9.82 49.676 0.052 6.89 1.98 10.56
10/28/2020 4:00:00 PM 9.84 49.712 0.051 6.93 2.13 10.6
10/28/2020 4:15:00 PM 9.85 49.73 0.051 6.92 1.97 10.58
10/28/2020 4:30:00 PM 9.86 49.748 0.051 6.94 2.03 10.58
10/28/2020 4:45:00 PM 9.88 49.784 0.051 6.94 2.02 10.59
10/28/2020 5:00:00 PM 9.89 49.802 0.05 6.96 1.94 10.57
10/28/2020 5:15:00 PM 9.91 49.838 0.053 6.94 1.99 10.49
10/28/2020 5:30:00 PM 9.91 49.838 0.051 6.95 2.06 10.48
10/28/2020 5:45:00 PM 9.92 49.856 0.051 6.95 1.96 10.5
10/28/2020 6:00:00 PM 9.92 49.856 0.052 6.9 2.24 10.31
10/28/2020 6:15:00 PM 9.93 49.874 0.051 6.93 2.03 10.4
10/28/2020 6:30:00 PM 9.92 49.856 0.052 6.92 1.98 10.37
10/28/2020 6:45:00 PM 9.91 49.838 0.053 6.89 2.45 10.4
10/28/2020 7:00:00 PM 9.91 49.838 0.052 6.93 2 10.39
10/28/2020 7:15:00 PM 9.88 49.784 0.054 6.89 1.97 10.3
10/28/2020 7:30:00 PM 9.87 49.766 0.054 6.91 2.02 10.36
10/28/2020 7:45:00 PM 9.84 49.712 0.053 6.9 1.98 10.32
10/28/2020 8:00:00 PM 9.82 49.676 0.053 6.9 2.02 10.26
10/28/2020 8:15:00 PM 9.79 49.622 0.054 6.87 2.54 10.25
10/28/2020 8:30:00 PM 9.75 49.55 0.054 6.88 2.04 10.18
10/28/2020 8:45:00 PM 9.71 49.478 0.053 6.84 3.02 10.19
10/28/2020 9:00:00 PM 9.67 49.406 0.055 6.88 2.07 10.22
10/28/2020 9:15:00 PM 9.62 49.316 0.053 6.87 2.07 10.17
10/28/2020 9:30:00 PM 9.56 49.208 0.054 6.88 2.17 10.14
10/28/2020 9:45:00 PM 9.53 49.154 0.055 6.87 2.12 10.14
10/28/2020 10:00:00 PM 9.48 49.064 0.053 6.86 2.17 10.14
10/28/2020 10:15:00 PM 9.44 48.992 0.053 6.86 2.08 10.14
10/28/2020 10:30:00 PM 9.39 48.902 0.053 6.86 2.13 10.15
10/28/2020 10:45:00 PM 9.35 48.83 0.051 6.85 2.2 10.09
10/28/2020 11:00:00 PM 9.29 48.722 0.055 6.79 2.87 10.07
10/28/2020 11:15:00 PM 9.24 48.632 0.054 6.83 2.25 10.14
10/28/2020 11:30:00 PM 9.19 48.542 0.054 6.85 2.14 10.14
10/28/2020 11:45:00 PM 9.12 48.416 0.052 6.85 2.16 10.14
10/29/2020 12:00:00 AM 9.06 48.308 0.051 6.85 2.16 10.17
10/29/2020 12:15:00 AM 8.99 48.182 0.051 6.85 2.11 10.17
10/29/2020 12:30:00 AM 8.95 48.11 0.051 6.85 2.21 10.17
10/29/2020 12:45:00 AM 8.88 47.984 0.051 6.85 2.13 10.19
10/29/2020 1:00:00 AM 8.84 47.912 0.051 6.85 2.17 10.19
10/29/2020 1:15:00 AM 8.79 47.822 0.051 6.85 2.08 10.21
10/29/2020 1:30:00 AM 8.75 47.75 0.05 6.84 2.2 10.21
10/29/2020 1:45:00 AM 8.7 47.66 0.05 6.84 2.19 10.22
10/29/2020 2:00:00 AM 8.66 47.588 0.05 6.84 2.3 10.23
10/29/2020 2:15:00 AM 8.61 47.498 0.052 6.82 2.62 10.24
10/29/2020 2:30:00 AM 8.56 47.408 0.049 6.85 2.18 10.27
10/29/2020 2:45:00 AM 8.51 47.318 0.049 6.85 2.28 10.27
10/29/2020 3:00:00 AM 8.49 47.282 0.051 6.82 2.61 10.28
10/29/2020 3:15:00 AM 8.45 47.21 0.049 6.84 2.17 10.28
10/29/2020 3:30:00 AM 8.41 47.138 0.049 6.85 2.33 10.31
10/29/2020 3:45:00 AM 8.39 47.102 0.049 6.84 2.17 10.31
10/29/2020 4:00:00 AM 8.35 47.03 0.051 6.84 2.33 10.33
10/29/2020 4:15:00 AM 8.32 46.976 0.048 6.84 2.75 10.34
10/29/2020 4:30:00 AM 8.3 46.94 0.05 6.74 2.6 10.35
10/29/2020 4:45:00 AM 8.28 46.904 0.049 6.84 2.25 10.36
10/29/2020 5:00:00 AM 8.25 46.85 0.051 6.82 2.69 10.37
10/29/2020 5:15:00 AM 8.23 46.814 0.048 6.8 2.71 10.39
10/29/2020 5:30:00 AM 8.21 46.778 0.046 6.8 2.65 10.39
10/29/2020 5:45:00 AM 8.21 46.778 0.048 6.81 2.66 10.4
10/29/2020 6:00:00 AM 8.19 46.742 0.046 6.85 2.96 10.41
10/29/2020 6:15:00 AM 8.18 46.724 0.047 6.84 2.19 10.43
10/29/2020 6:30:00 AM 8.16 46.688 0.047 6.82 2.72 10.4
10/29/2020 6:45:00 AM 8.15 46.67 0.047 6.85 2.21 10.42
10/29/2020 7:00:00 AM 8.15 46.67 0.047 6.85 2.21 10.4
10/29/2020 7:15:00 AM 8.14 46.652 0.049 6.81 2.8 10.41
10/29/2020 7:30:00 AM 8.14 46.652 0.048 6.78 2.68 10.37
10/29/2020 7:45:00 AM 8.13 46.634 0.049 6.84 2.26 10.37
10/29/2020 8:00:00 AM 8.11 46.598 0.053 6.83 2.21 10.39
10/29/2020 8:15:00 AM 8.1 46.58 0.054 6.78 2.71 10.44
10/29/2020 8:30:00 AM 8.09 46.562 0.055 6.67 2.78 10.45
10/29/2020 8:45:00 AM 8.08 46.544 0.053 6.85 2.41 10.47
10/29/2020 9:00:00 AM 8.08 46.544 0.052 6.85 2.98 10.47
10/29/2020 9:15:00 AM 8.07 46.526 0.054 6.84 4.82 10.48
10/29/2020 9:30:00 AM 8.07 46.526 0.055 6.86 6.2 10.48
10/29/2020 9:45:00 AM 8.07 46.526 0.056 6.87 7.5 10.49
10/29/2020 10:00:00 AM 8.08 46.544 0.062 6.77 7.42 10.47
10/29/2020 10:15:00 AM 8.09 46.562 0.057 6.84 7.21 10.5
10/29/2020 10:30:00 AM 8.09 46.562 0.056 6.87 7.09 10.46
10/29/2020 10:45:00 AM 8.09 46.562 0.056 6.89 6.68 10.55
10/29/2020 11:00:00 AM 8.11 46.598 0.058 6.88 6.5 10.59
10/29/2020 11:15:00 AM 8.12 46.616 0.058 6.85 6.23 10.64
10/29/2020 11:30:00 AM 8.14 46.652 0.054 6.91 6.02 10.69
10/29/2020 11:45:00 AM 8.15 46.67 0.058 6.88 6.04 10.7
10/29/2020 12:00:00 PM 8.16 46.688 0.056 6.91 6.35 10.67
10/29/2020 12:15:00 PM 8.18 46.724 0.056 6.92 5.59 10.71
10/29/2020 12:30:00 PM 8.19 46.742 0.059 6.91 6.15 10.69
10/29/2020 12:45:00 PM 8.22 46.796 0.059 6.93 6.09 10.78
10/29/2020 1:00:00 PM 8.24 46.832 0.056 6.94 6.19 10.81
10/29/2020 1:15:00 PM 8.26 46.868 0.058 6.94 6.09 10.8
10/29/2020 1:30:00 PM 8.29 46.922 0.059 6.94 5.82 10.79
10/29/2020 1:45:00 PM 8.31 46.958 0.058 6.96 6.84 10.84
10/29/2020 2:00:00 PM 8.34 47.012 0.057 6.95 4.91 10.83
10/29/2020 2:15:00 PM 8.36 47.048 0.056 6.95 5.82 10.85
10/29/2020 2:30:00 PM 8.38 47.084 0.055 6.96 5.3 10.83
10/29/2020 2:45:00 PM 8.41 47.138 0.054 6.95 4.74 10.82
10/29/2020 3:00:00 PM 8.44 47.192 0.055 6.94 5 10.8
10/29/2020 3:15:00 PM 8.46 47.228 0.056 6.95 4.57 10.81
10/29/2020 3:30:00 PM 8.47 47.246 0.057 6.95 4.5 10.79
10/29/2020 3:45:00 PM 8.48 47.264 0.056 6.95 4.7 10.8
10/29/2020 4:00:00 PM 8.49 47.282 0.057 6.94 4.24 10.79
10/29/2020 4:15:00 PM 8.49 47.282 0.055 6.92 5.75 10.72
10/29/2020 4:30:00 PM 8.48 47.264 0.056 6.92 5.09 10.71
10/29/2020 4:45:00 PM 8.46 47.228 0.06 6.88 6.33 10.75
10/29/2020 5:00:00 PM 8.44 47.192 0.055 6.9 6.11 10.73
10/29/2020 5:15:00 PM 8.42 47.156 0.058 6.76 8.4 10.71
10/29/2020 5:30:00 PM 8.41 47.138 0.052 6.89 7.52 10.69
10/29/2020 5:45:00 PM 8.39 47.102 0.052 6.88 7.52 10.67
10/29/2020 6:00:00 PM 8.37 47.066 0.053 6.88 6.85 10.66
10/29/2020 6:15:00 PM 8.35 47.03 0.054 6.87 7.39 10.65
10/29/2020 6:30:00 PM 8.34 47.012 0.055 6.86 7.22 10.64
10/29/2020 6:45:00 PM 8.33 46.994 0.054 6.86 7.13 10.62
10/29/2020 7:00:00 PM 8.32 46.976 0.054 6.85 6.7 10.62
10/29/2020 7:15:00 PM 8.33 46.994 0.051 6.85 8.79 10.62
10/29/2020 7:30:00 PM 8.33 46.994 0.048 6.84 8.38 10.61
10/29/2020 7:45:00 PM 8.32 46.976 0.051 6.85 8.06 10.62
10/29/2020 8:00:00 PM 8.32 46.976 0.053 6.84 8.08 10.62
10/29/2020 8:15:00 PM 8.32 46.976 0.051 6.84 8.6 10.64
10/29/2020 8:30:00 PM 8.31 46.958 0.049 6.83 9.19 10.66
10/29/2020 8:45:00 PM 8.3 46.94 0.053 6.83 9.7 10.68
10/29/2020 9:00:00 PM 8.29 46.922 0.05 6.82 9.69 10.68
10/29/2020 9:15:00 PM 8.29 46.922 0.053 6.81 9.29 10.69
10/29/2020 9:30:00 PM 8.28 46.904 0.049 6.8 10.14 10.69
10/29/2020 9:45:00 PM 8.27 46.886 0.055 6.75 10.38 10.71
10/29/2020 10:00:00 PM 8.26 46.868 0.049 6.78 13.12 10.72
10/29/2020 10:15:00 PM 8.25 46.85 0.049 6.7 10.22 10.74
10/29/2020 10:30:00 PM 8.24 46.832 0.053 6.69 9.53 10.73
10/29/2020 10:45:00 PM 8.23 46.814 0.048 6.77 10.45 10.74
10/29/2020 11:00:00 PM 8.21 46.778 0.042 6.76 9.78 10.74
10/29/2020 11:15:00 PM 8.2 46.76 0.046 6.75 10.46 10.75
10/29/2020 11:30:00 PM 8.19 46.742 0.043 6.76 9.76 10.76
10/29/2020 11:45:00 PM 8.18 46.724 0.047 6.74 8.96 10.76
10/30/2020 12:00:00 AM 8.16 46.688 0.05 6.72 8.95 10.77
10/30/2020 12:15:00 AM 8.15 46.67 0.05 6.73 8.95 10.77
10/30/2020 12:30:00 AM 8.13 46.634 0.047 6.67 8.4 10.79
10/30/2020 12:45:00 AM 8.12 46.616 0.053 6.64 7.71 10.78
10/30/2020 1:00:00 AM 8.1 46.58 0.046 6.67 8 10.79
10/30/2020 1:15:00 AM 8.09 46.562 0.043 6.72 7.85 10.8
10/30/2020 1:30:00 AM 8.07 46.526 0.045 6.55 8.38 10.8
10/30/2020 1:45:00 AM 8.05 46.49 0.054 6.63 7.4 10.81
10/30/2020 2:00:00 AM 8.03 46.454 0.047 6.67 7.7 10.82
10/30/2020 2:15:00 AM 8.01 46.418 0.044 6.69 7.64 10.82
10/30/2020 2:30:00 AM 7.99 46.382 0.046 6.67 9 10.83
10/30/2020 2:45:00 AM 7.96 46.328 0.042 6.66 7.97 10.84
10/30/2020 3:00:00 AM 7.94 46.292 0.044 6.48 9.26 10.84
10/30/2020 3:15:00 AM 7.91 46.238 0.044 6.38 8.55 10.85
10/30/2020 3:30:00 AM 7.89 46.202 0.04 6.58 8.35 10.85
10/30/2020 3:45:00 AM 7.87 46.166 0.041 6.59 8.65 10.87
10/30/2020 4:00:00 AM 7.85 46.13 0.045 6.68 7.77 10.88
10/30/2020 4:15:00 AM 7.82 46.076 0.049 6.56 8.61 10.89
10/30/2020 4:30:00 AM 7.78 46.004 0.042 6.65 7.35 10.89
10/30/2020 4:45:00 AM 7.74 45.932 0.044 6.59 8.58 10.9
10/30/2020 5:00:00 AM 7.69 45.842 0.039 6.56 8.92 10.91
10/30/2020 5:15:00 AM 7.63 45.734 0.042 6.66 7.39 10.93
10/30/2020 5:30:00 AM 7.57 45.626 0.04 6.66 7.05 10.94
10/30/2020 5:45:00 AM 7.51 45.518 0.045 6.63 7.85 10.95
10/30/2020 6:00:00 AM 7.46 45.428 0.042 6.62 6.87 10.97
10/30/2020 6:15:00 AM 7.41 45.338 0.041 6.62 6.93 10.98
10/30/2020 6:30:00 AM 7.35 45.23 0.043 6.57 6.76 11
10/30/2020 6:45:00 AM 7.3 45.14 0.04 6.55 7.24 11.02
10/30/2020 7:00:00 AM 7.24 45.032 0.049 6.44 7.33 11.02
10/30/2020 7:15:00 AM 7.18 44.924 0.04 6.51 7.04 11.05
10/30/2020 7:30:00 AM 7.13 44.834 0.043 6.5 6.95 11.06
10/30/2020 7:45:00 AM 7.09 44.762 0.048 6.36 6.7 11.08
10/30/2020 8:00:00 AM 7.06 44.708 0.045 6.38 9.31 11.09
10/30/2020 8:15:00 AM 7.03 44.654 0.046 6.45 6.08 11.12
10/30/2020 8:30:00 AM 7.01 44.618 0.048 6.22 7.73 11.15
10/30/2020 8:45:00 AM 6.98 44.564 0.046 6.39 6.13 11.17
10/30/2020 9:00:00 AM 6.95 44.51 0.044 6.38 7.17 11.19
10/30/2020 9:15:00 AM 6.94 44.492 0.044 6.35 6.09 11.21
10/30/2020 9:30:00 AM 6.94 44.492 0.042 6.35 6.21 11.23
10/30/2020 9:45:00 AM 6.94 44.492 0.04 6.4 6.02 11.25
10/30/2020 10:00:00 AM 6.96 44.528 0.045 6.39 6.78 11.27
10/30/2020 10:15:00 AM 6.98 44.564 0.046 6.32 7.09 11.28
10/30/2020 10:30:00 AM 7 44.6 0.041 6.29 9.52 11.29
10/30/2020 10:45:00 AM 7.02 44.636 0.044 6.22 6.94 11.3
10/30/2020 11:00:00 AM 7.06 44.708 0.044 6.26 7.02 11.3
10/30/2020 11:15:00 AM 7.1 44.78 0.043 6.19 6.55 11.31
10/30/2020 11:30:00 AM 7.15 44.87 0.039 6.43 5.95 11.32
10/30/2020 11:45:00 AM 7.21 44.978 0.047 6.36 5.82 11.31
10/30/2020 12:00:00 PM 7.24 45.032 0.041 6.41 5.82 11.31
10/30/2020 12:15:00 PM 7.24 45.032 0.041 6.44 5.72 11.3
10/30/2020 12:30:00 PM 7.25 45.05 0.045 6.42 6.32 11.3
10/30/2020 12:45:00 PM 7.25 45.05 0.045 6.44 6.03 11.3
10/30/2020 1:00:00 PM 7.25 45.05 0.042 6.37 6.15 11.3
10/30/2020 1:15:00 PM 7.24 45.032 0.039 6.34 5.95 11.3
10/30/2020 1:30:00 PM 7.24 45.032 0.042 6.27 5.74 11.3
10/30/2020 1:45:00 PM 7.23 45.014 0.048 6.42 5.34 11.3
10/30/2020 2:00:00 PM 7.21 44.978 0.043 6.48 5.51 11.3
10/30/2020 2:15:00 PM 7.19 44.942 0.045 6.46 5.8 11.3
10/30/2020 2:30:00 PM 7.18 44.924 0.045 6.42 5.7 11.31
10/30/2020 2:45:00 PM 7.18 44.924 0.045 6.44 5.61 11.31
10/30/2020 3:00:00 PM 7.2 44.96 0.041 6.45 4.95 11.33
10/30/2020 3:15:00 PM 7.22 44.996 0.04 6.45 4.76 11.33
10/30/2020 3:30:00 PM 7.23 45.014 0.039 6.47 4.79 11.34
10/30/2020 3:45:00 PM 7.23 45.014 0.047 6.45 4.72 11.35
10/30/2020 4:00:00 PM 7.22 44.996 0.045 6.47 5.24 11.35
10/30/2020 4:15:00 PM 7.18 44.924 0.04 6.48 5 11.34
10/30/2020 4:30:00 PM 7.14 44.852 0.045 6.49 4.93 11.34
10/30/2020 4:45:00 PM 7.09 44.762 0.045 6.46 4.94 11.35
10/30/2020 5:00:00 PM 7.07 44.726 0.041 6.47 5.22 11.35
10/30/2020 5:15:00 PM 7.04 44.672 0.04 6.45 5.88 11.35
10/30/2020 5:30:00 PM 7.02 44.636 0.041 6.35 5.86 11.35
10/30/2020 5:45:00 PM 6.99 44.582 0.037 6.38 5.13 11.35
10/30/2020 6:00:00 PM 6.96 44.528 0.036 6.31 5.32 11.34
10/30/2020 6:15:00 PM 6.94 44.492 0.039 6.29 5.39 11.34
10/30/2020 6:30:00 PM 6.91 44.438 0.043 6.36 5.51 11.33
10/30/2020 6:45:00 PM 6.85 44.33 0.039 6.22 5.34 11.34
10/30/2020 7:00:00 PM 6.8 44.24 0.037 6.2 5.2 11.34
10/30/2020 7:15:00 PM 6.74 44.132 0.036 6.4 4.5 11.35
10/30/2020 7:30:00 PM 6.68 44.024 0.035 6.33 4.95 11.37
10/30/2020 7:45:00 PM 6.64 43.952 0.035 6.41 4.48 11.38
10/30/2020 8:00:00 PM 6.59 43.862 0.033 6.41 5.04 11.39
10/30/2020 8:15:00 PM 6.54 43.772 0.034 6.43 4.51 11.41
10/30/2020 8:30:00 PM 6.5 43.7 0.035 6.35 5.26 11.42
10/30/2020 8:45:00 PM 6.45 43.61 0.035 6.36 4.9 11.45
10/30/2020 9:00:00 PM 6.41 43.538 0.035 6.37 4.85 11.46
10/30/2020 9:15:00 PM 6.37 43.466 0.035 6.39 4.76 11.47
10/30/2020 9:30:00 PM 6.33 43.394 0.035 6.28 4.75 11.48
10/30/2020 9:45:00 PM 6.29 43.322 0.038 6.24 4.76 11.5
10/30/2020 10:00:00 PM 6.26 43.268 0.035 6.37 4.42 11.5
10/30/2020 10:15:00 PM 6.23 43.214 0.034 6.37 4.26 11.52
10/30/2020 10:30:00 PM 6.2 43.16 0.036 6.33 4.54 11.53
10/30/2020 10:45:00 PM 6.18 43.124 0.034 6.36 4.03 11.55
10/30/2020 11:00:00 PM 6.17 43.106 0.034 6.39 4.87 11.56
10/30/2020 11:15:00 PM 6.16 43.088 0.033 6.28 4.71 11.57
10/30/2020 11:30:00 PM 6.16 43.088 0.035 6.39 4.11 11.57
10/30/2020 11:45:00 PM 6.15 43.07 0.038 6.39 4.02 11.58
10/31/2020 12:00:00 AM 6.14 43.052 0.036 6.39 4 11.59
10/31/2020 12:15:00 AM 6.12 43.016 0.034 6.4 4.07 11.6
10/31/2020 12:30:00 AM 6.1 42.98 0.038 6.4 3.92 11.6
10/31/2020 12:45:00 AM 6.07 42.926 0.04 6.38 4.54 11.62
10/31/2020 1:00:00 AM 6.05 42.89 0.04 6.34 3.96 11.63
10/31/2020 1:15:00 AM 6.03 42.854 0.034 6.39 4.36 11.64
10/31/2020 1:30:00 AM 6.01 42.818 0.036 6.21 4.67 11.64
10/31/2020 1:45:00 AM 5.99 42.782 0.034 6.2 4.54 11.65
10/31/2020 2:00:00 AM 5.98 42.764 0.037 6.23 4.22 11.66
10/31/2020 2:15:00 AM 5.96 42.728 0.036 6.42 3.8 11.67
10/31/2020 2:30:00 AM 5.94 42.692 0.035 6.39 3.96 11.67
10/31/2020 2:45:00 AM 5.93 42.674 0.035 6.42 3.93 11.67
10/31/2020 3:00:00 AM 5.91 42.638 0.036 6.4 3.83 11.68
10/31/2020 3:15:00 AM 5.89 42.602 0.034 6.43 4.29 11.69
10/31/2020 3:30:00 AM 5.88 42.584 0.036 6.32 4.38 11.7
10/31/2020 3:45:00 AM 5.86 42.548 0.036 6.34 4.26 11.7
10/31/2020 4:00:00 AM 5.84 42.512 0.034 6.31 4.2 11.71
10/31/2020 4:15:00 AM 5.81 42.458 0.035 6.23 4.36 11.72
10/31/2020 4:30:00 AM 5.79 42.422 0.033 6.33 4.26 11.72
10/31/2020 4:45:00 AM 5.77 42.386 0.033 6.43 3.57 11.73
10/31/2020 5:00:00 AM 5.75 42.35 0.04 6.37 3.71 11.73
10/31/2020 5:15:00 AM 5.73 42.314 0.033 6.39 4.15 11.74
10/31/2020 5:30:00 AM 5.7 42.26 0.033 6.32 4.05 11.75
10/31/2020 5:45:00 AM 5.68 42.224 0.033 6.4 3.57 11.76
10/31/2020 6:00:00 AM 5.65 42.17 0.032 6.35 4.17 11.77
10/31/2020 6:15:00 AM 5.61 42.098 0.034 6.4 3.62 11.77
10/31/2020 6:30:00 AM 5.56 42.008 0.033 6.4 3.96 11.79
10/31/2020 6:45:00 AM 5.51 41.918 0.033 6.26 4.11 11.81
10/31/2020 7:00:00 AM 5.47 41.846 0.039 6.37 3.64 11.82
10/31/2020 7:15:00 AM 5.43 41.774 0.032 6.38 4.04 11.84
10/31/2020 7:30:00 AM 5.4 41.72 0.033 6.4 3.84 11.84
10/31/2020 7:45:00 AM 5.38 41.684 0.035 6.41 3.68 11.86
10/31/2020 8:00:00 AM 5.36 41.648 0.04 6.36 3.61 11.87
10/31/2020 8:15:00 AM 5.33 41.594 0.034 6.38 3.72 11.89
10/31/2020 8:30:00 AM 5.3 41.54 0.036 6.37 3.52 11.91
10/31/2020 8:45:00 AM 5.27 41.486 0.034 6.45 3.51 11.92
10/31/2020 9:00:00 AM 5.23 41.414 0.038 6.38 3.54 11.95
10/31/2020 9:15:00 AM 5.21 41.378 0.032 6.42 3.94 11.97
10/31/2020 9:30:00 AM 5.2 41.36 0.038 6.39 3.44 11.98
10/31/2020 9:45:00 AM 5.22 41.396 0.037 6.39 3.45 12.01
10/31/2020 10:00:00 AM 5.27 41.486 0.033 6.37 3.82 12.02
10/31/2020 10:15:00 AM 5.35 41.63 0.041 6.39 3.3 12.03
10/31/2020 10:30:00 AM 5.45 41.81 0.035 6.43 3.37 12.03
10/31/2020 10:45:00 AM 5.53 41.954 0.034 6.49 3.35 12.04
10/31/2020 11:00:00 AM 5.58 42.044 0.036 6.46 3.85 12.04
10/31/2020 11:15:00 AM 5.6 42.08 0.034 6.46 3.32 12.04
10/31/2020 11:30:00 AM 5.66 42.188 0.033 6.53 3.31 12.05
10/31/2020 11:45:00 AM 5.82 42.476 0.033 6.53 3.77 12.04
10/31/2020 12:00:00 PM 5.97 42.746 0.034 6.47 3.81 12
10/31/2020 12:15:00 PM 6.09 42.962 0.032 6.45 3.72 11.96
10/31/2020 12:30:00 PM 6.24 43.232 0.033 6.59 3.24 11.94
10/31/2020 12:45:00 PM 6.31 43.358 0.033 6.6 3.16 11.91
10/31/2020 1:00:00 PM 6.38 43.484 0.033 6.5 4.3 11.9
10/31/2020 1:15:00 PM 6.46 43.628 0.033 6.37 3.76 11.88
10/31/2020 1:30:00 PM 6.52 43.736 0.032 6.42 3.73 11.87
10/31/2020 1:45:00 PM 6.57 43.826 0.036 6.6 3.18 11.85
10/31/2020 2:00:00 PM 6.64 43.952 0.037 6.56 3.59 11.81
10/31/2020 2:15:00 PM 6.71 44.078 0.033 6.56 3.89 11.77
10/31/2020 2:30:00 PM 6.77 44.186 0.037 6.45 3.82 11.78
10/31/2020 2:45:00 PM 6.81 44.258 0.034 6.61 3.21 11.75
10/31/2020 3:00:00 PM 6.83 44.294 0.036 6.54 3.57 11.73
10/31/2020 3:15:00 PM 6.83 44.294 0.033 6.61 3.11 11.74
10/31/2020 3:30:00 PM 6.82 44.276 0.036 6.6 3.35 11.72
10/31/2020 3:45:00 PM 6.81 44.258 0.037 6.58 3.11 11.7
10/31/2020 4:00:00 PM 6.77 44.186 0.037 6.57 3.65 11.7
10/31/2020 4:15:00 PM 6.69 44.042 0.039 6.59 3.4 11.68
10/31/2020 4:30:00 PM 6.61 43.898 0.036 6.58 3.68 11.7
10/31/2020 4:45:00 PM 6.52 43.736 0.041 6.52 3.19 11.71
10/31/2020 5:00:00 PM 6.42 43.556 0.035 6.49 3.65 11.72
10/31/2020 5:15:00 PM 6.34 43.412 0.032 6.45 4.98 11.71
10/31/2020 5:30:00 PM 6.25 43.25 0.036 6.46 3.73 11.72
10/31/2020 5:45:00 PM 6.18 43.124 0.034 6.6 3.29 11.72
10/31/2020 6:00:00 PM 6.11 42.998 0.034 6.57 3.13 11.73
10/31/2020 6:15:00 PM 6.05 42.89 0.033 6.59 3.14 11.73
10/31/2020 6:30:00 PM 5.99 42.782 0.034 6.5 3.67 11.72
10/31/2020 6:45:00 PM 5.93 42.674 0.032 6.45 3.9 11.72
10/31/2020 7:00:00 PM 5.87 42.566 0.036 6.42 4.08 11.71
10/31/2020 7:15:00 PM 5.79 42.422 0.034 6.38 3.83 11.72
10/31/2020 7:30:00 PM 5.73 42.314 0.037 6.41 3.8 11.71
10/31/2020 7:45:00 PM 5.67 42.206 0.035 6.32 3.85 11.72
10/31/2020 8:00:00 PM 5.6 42.08 0.035 6.51 3.48 11.73
10/31/2020 8:15:00 PM 5.54 41.972 0.032 6.53 3.77 11.73
10/31/2020 8:30:00 PM 5.48 41.864 0.033 6.53 3.8 11.73
10/31/2020 8:45:00 PM 5.43 41.774 0.035 6.55 3.24 11.76
10/31/2020 9:00:00 PM 5.37 41.666 0.036 6.49 3.84 11.77
10/31/2020 9:15:00 PM 5.32 41.576 0.034 6.52 3.3 11.79
10/31/2020 9:30:00 PM 5.26 41.468 0.033 6.46 3.67 11.8
10/31/2020 9:45:00 PM 5.21 41.378 0.034 6.53 3.26 11.81
10/31/2020 10:00:00 PM 5.16 41.288 0.033 6.49 3.75 11.82
10/31/2020 10:15:00 PM 5.12 41.216 0.034 6.47 3.16 11.84
10/31/2020 10:30:00 PM 5.08 41.144 0.034 6.55 3.38 11.86
10/31/2020 10:45:00 PM 5.04 41.072 0.038 6.47 3.33 11.87
10/31/2020 11:00:00 PM 5 41 0.035 6.54 3.12 11.86
10/31/2020 11:15:00 PM 4.97 40.946 0.036 6.47 3.14 11.87
10/31/2020 11:30:00 PM 4.94 40.892 0.038 6.41 3.29 11.88
10/31/2020 11:45:00 PM 4.92 40.856 0.034 6.55 3.17 11.89
11/1/2020 12:00:00 AM 4.88 40.784 0.035 6.54 3.16 11.89
11/1/2020 12:15:00 AM 4.86 40.748 0.034 6.54 3.21 11.91
11/1/2020 12:30:00 AM 4.83 40.694 0.034 6.4 3.27 11.91
11/1/2020 12:45:00 AM 4.81 40.658 0.034 6.55 3.1 11.91
11/1/2020 1:00:00 AM 4.79 40.622 0.036 6.54 3.16 11.93
11/1/2020 1:15:00 AM 4.78 40.604 0.036 6.53 3.23 11.94
11/1/2020 1:30:00 AM 4.77 40.586 0.037 6.54 3.54 11.93
11/1/2020 1:45:00 AM 4.76 40.568 0.035 6.54 3.28 11.93
11/1/2020 2:00:00 AM 4.77 40.586 0.036 6.46 3.24 11.92
11/1/2020 2:15:00 AM 4.78 40.604 0.034 6.54 3.26 11.93
11/1/2020 2:30:00 AM 4.79 40.622 0.034 6.54 3.14 11.94
11/1/2020 2:45:00 AM 4.81 40.658 0.034 6.54 3.11 11.93
11/1/2020 3:00:00 AM 4.83 40.694 0.034 6.54 3.13 11.92
11/1/2020 3:15:00 AM 4.85 40.73 0.034 6.54 3.11 11.91
11/1/2020 3:30:00 AM 4.86 40.748 0.038 6.54 3.19 11.91
11/1/2020 3:45:00 AM 4.88 40.784 0.039 6.41 3.62 11.91
11/1/2020 4:00:00 AM 4.89 40.802 0.041 6.48 3.22 11.9
11/1/2020 4:15:00 AM 4.91 40.838 0.038 6.54 3.1 11.89
11/1/2020 4:30:00 AM 4.97 40.946 0.04 6.48 3.51 11.87
11/1/2020 4:45:00 AM 4.99 40.982 0.038 6.54 3.05 11.86
11/1/2020 5:00:00 AM 5.02 41.036 0.042 6.45 3.07 11.82
11/1/2020 5:15:00 AM 5.04 41.072 0.037 6.54 3.01 11.83
11/1/2020 5:30:00 AM 5.05 41.09 0.04 6.5 3.07 11.82
11/1/2020 5:45:00 AM 5.06 41.108 0.038 6.45 3.58 11.82
11/1/2020 6:00:00 AM 5.08 41.144 0.04 6.54 2.98 11.81
11/1/2020 6:15:00 AM 5.09 41.162 0.042 6.54 3.09 11.81
11/1/2020 6:30:00 AM 5.1 41.18 0.043 6.47 3.19 11.81
11/1/2020 6:45:00 AM 5.12 41.216 0.04 6.51 3.49 11.8
11/1/2020 7:00:00 AM 5.14 41.252 0.037 6.54 3.08 11.79
11/1/2020 7:15:00 AM 5.17 41.306 0.038 6.53 3.02 11.77
11/1/2020 7:30:00 AM 5.18 41.324 0.038 6.54 2.96 11.76
11/1/2020 7:45:00 AM 5.2 41.36 0.041 6.48 3.53 11.76
11/1/2020 8:00:00 AM 5.23 41.414 0.042 6.54 2.97 11.77
11/1/2020 8:15:00 AM 5.25 41.45 0.04 6.55 3.01 11.76
11/1/2020 8:30:00 AM 5.28 41.504 0.04 6.33 3.5 11.77
11/1/2020 8:45:00 AM 5.31 41.558 0.042 6.55 3.25 11.77
11/1/2020 9:00:00 AM 5.34 41.612 0.043 6.47 2.93 11.77
11/1/2020 9:15:00 AM 5.38 41.684 0.036 6.57 2.92 11.75
11/1/2020 9:30:00 AM 5.42 41.756 0.041 6.51 3.46 11.77
11/1/2020 9:45:00 AM 5.47 41.846 0.04 6.56 2.97 11.76
11/1/2020 10:00:00 AM 5.52 41.936 0.044 6.41 3.44 11.78
11/1/2020 10:15:00 AM 5.57 42.026 0.036 6.58 2.98 11.76
11/1/2020 10:30:00 AM 5.63 42.134 0.042 6.47 3.99 11.77
11/1/2020 10:45:00 AM 5.66 42.188 0.038 6.58 3.05 11.73
11/1/2020 11:00:00 AM 5.7 42.26 0.042 6.54 3.31 11.72
11/1/2020 11:15:00 AM 5.73 42.314 0.044 6.53 4.88 11.7
11/1/2020 11:30:00 AM 5.75 42.35 0.04 6.58 3.05 11.69
11/1/2020 11:45:00 AM 5.78 42.404 0.044 6.49 3.42 11.67
11/1/2020 12:00:00 PM 5.8 42.44 0.044 6.37 3.54 11.67
11/1/2020 12:15:00 PM 5.83 42.494 0.044 6.37 3.54 11.66
11/1/2020 12:30:00 PM 5.86 42.548 0.047 6.24 5.31 11.64
11/1/2020 12:45:00 PM 5.91 42.638 0.046 6.25 3.44 11.64
11/1/2020 1:00:00 PM 5.95 42.71 0.043 6.58 2.93 11.64
11/1/2020 1:15:00 PM 5.99 42.782 0.044 6.58 3.17 11.62
11/1/2020 1:30:00 PM 6.02 42.836 0.045 6.55 3.63 11.61
11/1/2020 1:45:00 PM 6.05 42.89 0.04 6.58 3.2 11.59
11/1/2020 2:00:00 PM 6.09 42.962 0.043 6.53 3.51 11.57
11/1/2020 2:15:00 PM 6.13 43.034 0.043 6.2 3.5 11.56
11/1/2020 2:30:00 PM 6.16 43.088 0.044 6.35 3.45 11.55
11/1/2020 2:45:00 PM 6.19 43.142 0.044 6.47 3.4 11.52
11/1/2020 3:00:00 PM 6.21 43.178 0.046 6.47 5.13 11.47
11/1/2020 3:15:00 PM 6.24 43.232 0.043 6.58 3.42 11.47
11/1/2020 3:30:00 PM 6.25 43.25 0.043 6.58 2.93 11.47
11/1/2020 3:45:00 PM 6.27 43.286 0.044 6.53 3.46 11.44
11/1/2020 4:00:00 PM 6.29 43.322 0.044 6.58 2.96 11.43
11/1/2020 4:15:00 PM 6.3 43.34 0.045 6.49 3.43 11.41
11/1/2020 4:30:00 PM 6.3 43.34 0.045 6.51 3.45 11.39
11/1/2020 4:45:00 PM 6.27 43.286 0.041 6.53 5.5 11.4
11/1/2020 5:00:00 PM 6.25 43.25 0.042 6.46 3.76 11.4
11/1/2020 5:15:00 PM 6.22 43.196 0.039 6.58 3.37 11.39
11/1/2020 5:30:00 PM 6.18 43.124 0.042 6.57 3.22 11.36
11/1/2020 5:45:00 PM 6.14 43.052 0.042 6.57 3.06 11.38
11/1/2020 6:00:00 PM 6.11 42.998 0.042 6.53 3.93 11.36
11/1/2020 6:15:00 PM 6.06 42.908 0.042 6.57 3.01 11.37
11/1/2020 6:30:00 PM 6.02 42.836 0.042 6.44 3.46 11.37
11/1/2020 6:45:00 PM 5.99 42.782 0.041 6.52 3.48 11.37
11/1/2020 7:00:00 PM 5.95 42.71 0.041 6.56 3.26 11.38
11/1/2020 7:15:00 PM 5.91 42.638 0.043 6.55 4.79 11.38
11/1/2020 7:30:00 PM 5.86 42.548 0.042 6.53 4.48 11.39
11/1/2020 7:45:00 PM 5.8 42.44 0.041 6.53 3.5 11.41
11/1/2020 8:00:00 PM 5.75 42.35 0.042 6.55 3.06 11.42
11/1/2020 8:15:00 PM 5.67 42.206 0.042 6.52 3.68 11.45
11/1/2020 8:30:00 PM 5.62 42.116 0.044 6.53 3.56 11.43
11/1/2020 8:45:00 PM 5.54 41.972 0.043 6.55 3.12 11.47
11/1/2020 9:00:00 PM 5.43 41.774 0.041 6.48 3.65 11.51
11/1/2020 9:15:00 PM 5.36 41.648 0.041 6.41 3.56 11.53
11/1/2020 9:30:00 PM 5.29 41.522 0.038 6.56 3.13 11.55
11/1/2020 9:45:00 PM 5.21 41.378 0.04 6.46 3.8 11.57
11/1/2020 10:00:00 PM 5.15 41.27 0.041 6.55 3.05 11.6
11/1/2020 10:15:00 PM 5.1 41.18 0.041 6.55 3.08 11.62
11/1/2020 10:30:00 PM 5.04 41.072 0.047 6.41 3.15 11.63
11/1/2020 10:45:00 PM 4.98 40.964 0.04 6.51 3.51 11.65
11/1/2020 11:00:00 PM 4.92 40.856 0.038 6.55 3.05 11.65
11/1/2020 11:15:00 PM 4.85 40.73 0.042 6.49 3.05 11.68
11/1/2020 11:30:00 PM 4.76 40.568 0.038 6.55 3.59 11.69
11/1/2020 11:45:00 PM 4.71 40.478 0.038 6.54 3.22 11.71
11/2/2020 12:00:00 AM 4.63 40.334 0.037 6.55 3.06 11.74
11/2/2020 12:15:00 AM 4.57 40.226 0.036 6.54 3.06 11.77
11/2/2020 12:30:00 AM 4.52 40.136 0.035 6.55 3.11 11.78
11/2/2020 12:45:00 AM 4.47 40.046 0.037 6.53 3.11 11.8
11/2/2020 1:00:00 AM 4.44 39.992 0.038 6.54 3.13 11.82
11/2/2020 1:15:00 AM 4.41 39.938 0.036 6.54 3.41 11.84
11/2/2020 1:30:00 AM 4.4 39.92 0.038 6.53 3.32 11.83
11/2/2020 1:45:00 AM 4.38 39.884 0.037 6.54 3.09 11.86
11/2/2020 2:00:00 AM 4.36 39.848 0.039 6.53 3.09 11.87
11/2/2020 2:15:00 AM 4.34 39.812 0.04 6.54 3.06 11.87
11/2/2020 2:30:00 AM 4.32 39.776 0.04 6.51 3.02 11.89
11/2/2020 2:45:00 AM 4.3 39.74 0.038 6.54 2.99 11.9
11/2/2020 3:00:00 AM 4.28 39.704 0.037 6.51 3.85 11.91
11/2/2020 3:15:00 AM 4.26 39.668 0.038 6.53 3.04 11.92
11/2/2020 3:30:00 AM 4.24 39.632 0.039 6.52 3.06 11.92
11/2/2020 3:45:00 AM 4.22 39.596 0.038 6.53 3.09 11.94
11/2/2020 4:00:00 AM 4.2 39.56 0.042 6.48 3.03 11.94
11/2/2020 4:15:00 AM 4.17 39.506 0.035 6.54 3.1 11.96
11/2/2020 4:30:00 AM 4.14 39.452 0.037 6.51 2.98 11.95
11/2/2020 4:45:00 AM 4.09 39.362 0.035 6.52 3.02 11.94
11/2/2020 5:00:00 AM 4.04 39.272 0.034 6.49 3.48 11.98
11/2/2020 5:15:00 AM 4 39.2 0.039 6.49 3.11 11.99
11/2/2020 5:30:00 AM 3.97 39.146 0.038 6.52 3.03 11.99
11/2/2020 5:45:00 AM 3.94 39.092 0.038 6.52 3.16 12.01
11/2/2020 6:00:00 AM 3.9 39.02 0.037 6.52 3.05 12.03
11/2/2020 6:15:00 AM 3.85 38.93 0.035 6.52 3.09 12.05
11/2/2020 6:30:00 AM 3.81 38.858 0.037 6.51 3.09 12.05
11/2/2020 6:45:00 AM 3.77 38.786 0.036 6.51 3.03 12.07
11/2/2020 7:00:00 AM 3.73 38.714 0.035 6.51 3.03 12.09
11/2/2020 7:15:00 AM 3.69 38.642 0.04 6.44 3.02 12.1
11/2/2020 7:30:00 AM 3.66 38.588 0.034 6.52 3.04 12.14
11/2/2020 7:45:00 AM 3.63 38.534 0.037 6.51 4.33 12.15
11/2/2020 8:00:00 AM 3.61 38.498 0.042 6.36 3.02 12.2
11/2/2020 8:15:00 AM 3.61 38.498 0.034 6.52 3.47 12.22
11/2/2020 8:30:00 AM 3.6 38.48 0.037 6.48 3.06 12.24
11/2/2020 8:45:00 AM 3.6 38.48 0.035 6.52 2.99 12.26
11/2/2020 9:00:00 AM 3.61 38.498 0.035 6.51 3.05 12.3
11/2/2020 9:15:00 AM 3.63 38.534 0.034 6.45 3.55 12.32
11/2/2020 9:30:00 AM 3.66 38.588 0.035 6.52 5.55 12.32
11/2/2020 9:45:00 AM 3.7 38.66 0.035 6.51 3.5 12.31
11/2/2020 10:00:00 AM 3.76 38.768 0.035 6.53 3.18 12.35
11/2/2020 10:15:00 AM 3.84 38.912 0.038 6.39 2.94 12.36
11/2/2020 10:30:00 AM 3.94 39.092 0.035 6.55 2.95 12.36
11/2/2020 10:45:00 AM 4.04 39.272 0.041 6.39 2.98 12.36
11/2/2020 11:00:00 AM 4.12 39.416 0.035 6.52 2.96 12.33
11/2/2020 11:15:00 AM 4.21 39.578 0.034 6.53 2.99 12.33
11/2/2020 11:30:00 AM 4.29 39.722 0.035 6.54 2.94 12.3
11/2/2020 11:45:00 AM 4.37 39.866 0.035 6.53 3.03 12.28
11/2/2020 12:00:00 PM 4.46 40.028 0.036 6.47 2.99 12.23
11/2/2020 12:15:00 PM 4.59 40.262 0.033 6.5 3.42 12.22
11/2/2020 12:30:00 PM 4.67 40.406 0.035 6.53 3 12.18
11/2/2020 12:45:00 PM 4.79 40.622 0.034 6.53 2.95 12.17
11/2/2020 1:00:00 PM 4.88 40.784 0.035 6.48 3.76 12.13
11/2/2020 1:15:00 PM 4.95 40.91 0.035 6.54 3.13 12.1
11/2/2020 1:30:00 PM 5 41 0.034 6.53 2.99 12.06
11/2/2020 1:45:00 PM 5.04 41.072 0.035 6.53 2.99 12.06
11/2/2020 2:00:00 PM 5.06 41.108 0.035 6.5 3 12.06
11/2/2020 2:15:00 PM 5.06 41.108 0.035 6.35 3.8 12.06
11/2/2020 2:30:00 PM 5.04 41.072 0.034 6.52 4.51 12.03
11/2/2020 2:45:00 PM 5 41 0.034 6.51 3.86 12.02
11/2/2020 3:00:00 PM 4.96 40.928 0.034 6.5 4.93 12.05
11/2/2020 3:15:00 PM 4.9 40.82 0.035 6.53 3 12.03
11/2/2020 3:30:00 PM 4.8 40.64 0.034 6.46 3.47 12.06
11/2/2020 3:45:00 PM 4.73 40.514 0.035 6.47 2.97 12.07
11/2/2020 4:00:00 PM 4.63 40.334 0.035 6.53 2.95 12.09
11/2/2020 4:15:00 PM 4.53 40.154 0.034 6.53 3.12 12.1
11/2/2020 4:30:00 PM 4.44 39.992 0.038 6.47 3.03 12.11
11/2/2020 4:45:00 PM 4.34 39.812 0.038 6.43 2.95 12.11
11/2/2020 5:00:00 PM 4.26 39.668 0.035 6.45 3.41 12.09
11/2/2020 5:15:00 PM 4.18 39.524 0.035 6.43 3.38 12.1
11/2/2020 5:30:00 PM 4.11 39.398 0.034 6.51 3.1 12.13
11/2/2020 5:45:00 PM 4.06 39.308 0.035 6.5 3.04 12.12
11/2/2020 6:00:00 PM 3.99 39.182 0.036 6.42 3.11 12.13
11/2/2020 6:15:00 PM 3.94 39.092 0.035 6.47 3.14 12.12
11/2/2020 6:30:00 PM 3.88 38.984 0.035 6.5 3.1 12.15
11/2/2020 6:45:00 PM 3.82 38.876 0.035 6.4 3.53 12.17
11/2/2020 7:00:00 PM 3.78 38.804 0.035 6.49 3.08 12.16
11/2/2020 7:15:00 PM 3.71 38.678 0.035 6.49 3.12 12.18
11/2/2020 7:30:00 PM 3.68 38.624 0.037 6.38 3.06 12.18
11/2/2020 7:45:00 PM 3.64 38.552 0.035 6.48 3.05 12.19
11/2/2020 8:00:00 PM 3.6 38.48 0.035 6.48 3.12 12.19
11/2/2020 8:15:00 PM 3.56 38.408 0.036 6.39 3.07 12.22
11/2/2020 8:30:00 PM 3.53 38.354 0.035 6.48 3.15 12.22
11/2/2020 8:45:00 PM 3.5 38.3 0.035 6.48 3.08 12.22
11/2/2020 9:00:00 PM 3.46 38.228 0.036 6.35 3 12.23
11/2/2020 9:15:00 PM 3.44 38.192 0.035 6.48 3.12 12.23
11/2/2020 9:30:00 PM 3.41 38.138 0.035 6.48 3.05 12.23
11/2/2020 9:45:00 PM 3.37 38.066 0.035 6.47 3.26 12.25
11/2/2020 10:00:00 PM 3.33 37.994 0.036 6.43 2.97 12.25
11/2/2020 10:15:00 PM 3.29 37.922 0.035 6.42 3.01 12.26
11/2/2020 10:30:00 PM 3.25 37.85 0.035 6.48 3.03 12.26
11/2/2020 10:45:00 PM 3.21 37.778 0.035 6.48 2.96 12.27
11/2/2020 11:00:00 PM 3.17 37.706 0.035 6.49 3 12.29
11/2/2020 11:15:00 PM 3.15 37.67 0.035 6.47 2.97 12.28
11/2/2020 11:30:00 PM 3.12 37.616 0.036 6.33 2.94 12.31
11/2/2020 11:45:00 PM 3.1 37.58 0.035 6.47 2.93 12.32
11/3/2020 12:00:00 AM 3.08 37.544 0.035 6.47 2.94 12.33
11/3/2020 12:15:00 AM 3.09 37.562 0.035 6.46 2.94 12.32
11/3/2020 12:30:00 AM 3.09 37.562 0.035 6.46 2.85 12.32
11/3/2020 12:45:00 AM 3.07 37.526 0.035 6.42 2.95 12.32
11/3/2020 1:00:00 AM 3.07 37.526 0.035 6.47 2.95 12.32
11/3/2020 1:15:00 AM 3.05 37.49 0.035 6.47 2.85 12.33
11/3/2020 1:30:00 AM 3.04 37.472 0.035 6.46 2.81 12.34
11/3/2020 1:45:00 AM 3.03 37.454 0.035 6.47 2.87 12.34
11/3/2020 2:00:00 AM 3.01 37.418 0.035 6.47 2.9 12.35
11/3/2020 2:15:00 AM 2.99 37.382 0.035 6.48 2.83 12.37
11/3/2020 2:30:00 AM 2.99 37.382 0.035 6.47 2.85 12.36
11/3/2020 2:45:00 AM 2.99 37.382 0.035 6.47 2.8 12.36
11/3/2020 3:00:00 AM 2.97 37.346 0.035 6.47 2.86 12.36
11/3/2020 3:15:00 AM 2.97 37.346 0.035 6.48 2.8 12.36
11/3/2020 3:30:00 AM 2.95 37.31 0.035 6.41 2.81 12.37
11/3/2020 3:45:00 AM 2.95 37.31 0.035 6.48 2.77 12.38
11/3/2020 4:00:00 AM 2.94 37.292 0.035 6.48 2.8 12.38
11/3/2020 4:15:00 AM 2.93 37.274 0.035 6.48 2.8 12.38
11/3/2020 4:30:00 AM 2.93 37.274 0.035 6.47 2.82 12.37
11/3/2020 4:45:00 AM 2.92 37.256 0.035 6.47 2.86 12.37
11/3/2020 5:00:00 AM 2.91 37.238 0.035 6.39 2.77 12.37
11/3/2020 5:15:00 AM 2.9 37.22 0.035 6.48 2.84 12.38
11/3/2020 5:30:00 AM 2.9 37.22 0.036 6.46 2.75 12.39
11/3/2020 5:45:00 AM 2.89 37.202 0.035 6.48 2.72 12.4
11/3/2020 6:00:00 AM 2.89 37.202 0.035 6.47 2.81 12.39
11/3/2020 6:15:00 AM 2.88 37.184 0.035 6.47 2.75 12.4
11/3/2020 6:30:00 AM 2.88 37.184 0.035 6.47 2.82 12.4
11/3/2020 6:45:00 AM 2.87 37.166 0.037 6.36 2.76 12.41
11/3/2020 7:00:00 AM 2.89 37.202 0.035 6.42 2.8 12.41
11/3/2020 7:15:00 AM 2.9 37.22 0.035 6.47 2.79 12.42
11/3/2020 7:30:00 AM 2.93 37.274 0.035 6.44 2.76 12.43
11/3/2020 7:45:00 AM 2.97 37.346 0.035 6.46 2.77 12.45
11/3/2020 8:00:00 AM 3.03 37.454 0.035 6.43 2.84 12.41
11/3/2020 8:15:00 AM 3.1 37.58 0.035 6.44 4.08 12.45
11/3/2020 8:30:00 AM 3.18 37.724 0.036 6.42 3.9 12.48
11/3/2020 8:45:00 AM 3.26 37.868 0.035 6.37 2.99 12.47
11/3/2020 9:00:00 AM 3.35 38.03 0.035 6.44 5.12 12.44
11/3/2020 9:15:00 AM 3.43 38.174 0.035 6.44 4.57 12.45
11/3/2020 9:30:00 AM 3.52 38.336 0.041 6.3 3.02 12.42
11/3/2020 9:45:00 AM 3.63 38.534 0.035 6.45 2.8 12.42
11/3/2020 10:00:00 AM 3.73 38.714 0.035 6.47 2.7 12.43
11/3/2020 10:15:00 AM 3.87 38.966 0.035 6.48 2.72 12.43
11/3/2020 10:30:00 AM 4.01 39.218 0.035 6.48 2.9 12.36
11/3/2020 10:45:00 AM 4.18 39.524 0.035 6.5 2.69 12.37
11/3/2020 11:00:00 AM 4.33 39.794 0.035 6.49 2.69 12.32
11/3/2020 11:15:00 AM 4.48 40.064 0.035 6.48 2.69 12.28
11/3/2020 11:30:00 AM 4.62 40.316 0.036 6.42 2.73 12.27
11/3/2020 11:45:00 AM 4.75 40.55 0.035 6.51 2.83 12.24
11/3/2020 12:00:00 PM 4.88 40.784 0.035 6.5 2.71 12.17
11/3/2020 12:15:00 PM 5.06 41.108 0.035 6.52 2.73 12.18
11/3/2020 12:30:00 PM 5.22 41.396 0.034 6.41 3.23 12.1
11/3/2020 12:45:00 PM 5.39 41.702 0.035 6.52 2.64 12.09
11/3/2020 1:00:00 PM 5.56 42.008 0.035 6.51 4.17 12.04
11/3/2020 1:15:00 PM 5.72 42.296 0.036 6.47 4.78 11.98
11/3/2020 1:30:00 PM 5.87 42.566 0.035 6.48 3.14 11.95
11/3/2020 1:45:00 PM 6.01 42.818 0.035 6.49 3.21 11.94
11/3/2020 2:00:00 PM 6.1 42.98 0.036 6.48 3.18 11.89
11/3/2020 2:15:00 PM 6.21 43.178 0.034 6.49 3.26 11.9
11/3/2020 2:30:00 PM 6.26 43.268 0.036 6.41 3.11 11.87
11/3/2020 2:45:00 PM 6.27 43.286 0.038 6.55 2.67 11.85
11/3/2020 3:00:00 PM 6.28 43.304 0.037 6.53 3.13 11.85
11/3/2020 3:15:00 PM 6.25 43.25 0.035 6.55 2.64 11.82
11/3/2020 3:30:00 PM 6.23 43.214 0.034 6.56 2.63 11.81
11/3/2020 3:45:00 PM 6.19 43.142 0.034 6.56 2.61 11.81
11/3/2020 4:00:00 PM 6.14 43.052 0.035 6.55 4.47 11.76
11/3/2020 4:15:00 PM 6.08 42.944 0.035 6.53 3.22 11.79
11/3/2020 4:30:00 PM 6.03 42.854 0.034 6.52 3.19 11.75
11/3/2020 4:45:00 PM 5.97 42.746 0.034 6.51 3.16 11.77
11/3/2020 5:00:00 PM 5.9 42.62 0.035 6.54 3.78 11.71
11/3/2020 5:15:00 PM 5.84 42.512 0.035 6.54 4.27 11.71
11/3/2020 5:30:00 PM 5.76 42.368 0.037 6.53 4.1 11.67
11/3/2020 5:45:00 PM 5.67 42.206 0.035 6.48 4.4 11.7
11/3/2020 6:00:00 PM 5.59 42.062 0.035 6.48 3.38 11.7
11/3/2020 6:15:00 PM 5.5 41.9 0.039 6.51 2.8 11.69
11/3/2020 6:30:00 PM 5.41 41.738 0.034 6.49 3.26 11.7
11/3/2020 6:45:00 PM 5.35 41.63 0.035 6.51 2.79 11.72
11/3/2020 7:00:00 PM 5.26 41.468 0.035 6.51 2.9 11.72
11/3/2020 7:15:00 PM 5.18 41.324 0.034 6.47 3.24 11.73
11/3/2020 7:30:00 PM 5.1 41.18 0.036 6.47 3.3 11.76
11/3/2020 7:45:00 PM 5.03 41.054 0.033 6.48 3.28 11.78
11/3/2020 8:00:00 PM 4.96 40.928 0.034 6.47 3.23 11.8
11/3/2020 8:15:00 PM 4.9 40.82 0.035 6.5 2.84 11.82
11/3/2020 8:30:00 PM 4.82 40.676 0.035 6.5 2.79 11.82
11/3/2020 8:45:00 PM 4.77 40.586 0.036 6.5 2.89 11.85
11/3/2020 9:00:00 PM 4.69 40.442 0.037 6.47 3.3 11.87
11/3/2020 9:15:00 PM 4.64 40.352 0.035 6.47 2.84 11.87
11/3/2020 9:30:00 PM 4.57 40.226 0.035 6.46 2.83 11.91
11/3/2020 9:45:00 PM 4.52 40.136 0.035 6.5 2.84 11.92
11/3/2020 10:00:00 PM 4.48 40.064 0.037 6.39 2.87 11.89
11/3/2020 10:15:00 PM 4.4 39.92 0.035 6.5 2.8 11.96
11/3/2020 10:30:00 PM 4.33 39.794 0.035 6.49 2.8 11.99
11/3/2020 10:45:00 PM 4.28 39.704 0.038 6.33 2.88 11.99
11/3/2020 11:00:00 PM 4.22 39.596 0.035 6.49 2.8 12.02
11/3/2020 11:15:00 PM 4.18 39.524 0.035 6.48 2.88 12.01
11/3/2020 11:30:00 PM 4.11 39.398 0.035 6.49 2.78 12.06
11/3/2020 11:45:00 PM 4.05 39.29 0.035 6.49 2.78 12.07
11/4/2020 12:00:00 AM 4 39.2 0.036 6.43 2.81 12.07
11/4/2020 12:15:00 AM 3.96 39.128 0.036 6.36 2.85 12.07
11/4/2020 12:30:00 AM 3.91 39.038 0.036 6.48 2.84 12.1
11/4/2020 12:45:00 AM 3.85 38.93 0.036 6.46 2.8 12.11
11/4/2020 1:00:00 AM 3.82 38.876 0.037 6.33 2.83 12.03
11/4/2020 1:15:00 AM 3.74 38.732 0.035 6.48 2.88 12.15
11/4/2020 1:30:00 AM 3.69 38.642 0.035 6.46 2.82 12.16
11/4/2020 1:45:00 AM 3.65 38.57 0.036 6.45 2.79 12.2
11/4/2020 2:00:00 AM 3.59 38.462 0.037 6.43 3 12.22
11/4/2020 2:15:00 AM 3.53 38.354 0.035 6.44 2.75 12.25
11/4/2020 2:30:00 AM 3.49 38.282 0.036 6.41 2.83 12.26
11/4/2020 2:45:00 AM 3.44 38.192 0.035 6.41 2.79 12.27
11/4/2020 3:00:00 AM 3.4 38.12 0.036 6.39 2.85 12.25
11/4/2020 3:15:00 AM 3.34 38.012 0.036 6.39 2.77 12.27
11/4/2020 3:30:00 AM 3.29 37.922 0.036 6.38 2.79 12.32
11/4/2020 3:45:00 AM 3.25 37.85 0.037 6.34 2.74 12.3
11/4/2020 4:00:00 AM 3.21 37.778 0.036 6.34 3 12.27
11/4/2020 4:15:00 AM 3.17 37.706 0.035 6.34 3.21 12.35
11/4/2020 4:30:00 AM 3.13 37.634 0.037 6.3 2.8 12.32
11/4/2020 4:45:00 AM 3.07 37.526 0.036 6.37 2.79 12.41
11/4/2020 5:00:00 AM 3.04 37.472 0.037 6.23 2.8 12.39
11/4/2020 5:15:00 AM 2.98 37.364 0.034 6.32 3.34 12.46
11/4/2020 5:30:00 AM 2.97 37.346 0.036 6.35 2.71 12.37
11/4/2020 5:45:00 AM 2.91 37.238 0.036 6.36 2.69 12.49
11/4/2020 6:00:00 AM 2.89 37.202 0.036 6.32 2.84 12.46
11/4/2020 6:15:00 AM 2.86 37.148 0.036 6.35 2.77 12.4
11/4/2020 6:30:00 AM 2.81 37.058 0.038 6.22 2.76 12.49
11/4/2020 6:45:00 AM 2.79 37.022 0.036 6.34 2.78 12.44
11/4/2020 7:00:00 AM 2.75 36.95 0.036 6.34 2.75 12.51
11/4/2020 7:15:00 AM 2.73 36.914 0.039 6.26 2.75 12.38
11/4/2020 7:30:00 AM 2.71 36.878 0.036 6.31 2.78 12.51
11/4/2020 7:45:00 AM 2.68 36.824 0.036 6.28 2.72 12.56
11/4/2020 8:00:00 AM 2.66 36.788 0.036 6.36 2.76 12.53
11/4/2020 8:15:00 AM 2.66 36.788 0.037 6.3 2.79 12.56
11/4/2020 8:30:00 AM 2.66 36.788 0.037 6.26 2.75 12.63
11/4/2020 8:45:00 AM 2.68 36.824 0.036 6.36 2.77 12.67
11/4/2020 9:00:00 AM 2.71 36.878 0.036 6.37 2.74 12.68
11/4/2020 9:15:00 AM 3.02 37.436 0.037 6.93 2.06 13
11/4/2020 9:30:00 AM 2.93 37.274 0.038 6.69 2.08 12.99
11/4/2020 9:45:00 AM 2.96 37.328 0.035 6.62 2.09 13
11/4/2020 10:00:00 AM 3.1 37.58 0.035 6.58 2.03 13
11/4/2020 10:15:00 AM 3.25 37.85 0.035 6.54 2 12.98
11/4/2020 10:30:00 AM 3.42 38.156 0.035 6.54 2.02 12.96
11/4/2020 10:45:00 AM 3.64 38.552 0.036 6.54 2 12.92
11/4/2020 11:00:00 AM 3.77 38.786 0.035 6.5 1.99 12.85
11/4/2020 11:15:00 AM 3.97 39.146 0.036 6.49 2.05 12.78
11/4/2020 11:30:00 AM 4.3 39.74 0.037 6.5 2 12.73
11/4/2020 11:45:00 AM 4.57 40.226 0.034 6.51 2.01 12.69
11/4/2020 12:00:00 PM 4.81 40.658 0.036 6.51 1.98 12.63
11/4/2020 12:15:00 PM 5.04 41.072 0.034 6.52 1.93 12.57
11/4/2020 12:30:00 PM 5.27 41.486 0.035 6.53 1.99 12.5
11/4/2020 12:45:00 PM 5.46 41.828 0.037 6.51 2 12.44
11/4/2020 1:00:00 PM 5.66 42.188 0.036 6.51 1.97 12.37
11/4/2020 1:15:00 PM 5.88 42.584 0.035 6.52 1.95 12.31
11/4/2020 1:30:00 PM 6.07 42.926 0.036 6.51 2.05 12.24
11/4/2020 1:45:00 PM 6.22 43.196 0.036 6.5 1.95 12.2
11/4/2020 2:00:00 PM 6.36 43.448 0.036 6.51 1.98 12.14
11/4/2020 2:15:00 PM 6.51 43.718 0.034 6.52 2 12.1
11/4/2020 2:30:00 PM 6.6 43.88 0.034 6.52 1.98 12.07
11/4/2020 2:45:00 PM 6.69 44.042 0.035 6.53 1.95 12.03
11/4/2020 3:00:00 PM 6.74 44.132 0.036 6.54 1.97 12
11/4/2020 3:15:00 PM 6.78 44.204 0.034 6.52 2 11.96
11/4/2020 3:30:00 PM 6.8 44.24 0.036 6.53 1.98 11.94
11/4/2020 3:45:00 PM 6.79 44.222 0.036 6.53 1.99 11.91
11/4/2020 4:00:00 PM 6.74 44.132 0.036 6.55 1.97 11.9
11/4/2020 4:15:00 PM 6.69 44.042 0.035 6.56 1.96 11.9
11/4/2020 4:30:00 PM 6.63 43.934 0.036 6.55 1.98 11.9
11/4/2020 4:45:00 PM 6.57 43.826 0.035 6.54 2.04 11.86
11/4/2020 5:00:00 PM 6.5 43.7 0.035 6.54 1.98 11.86
11/4/2020 5:15:00 PM 6.39 43.502 0.033 6.54 2.05 11.83
11/4/2020 5:30:00 PM 6.32 43.376 0.034 6.54 2.14 11.83
11/4/2020 5:45:00 PM 6.25 43.25 0.034 6.52 3.34 11.77
11/4/2020 6:00:00 PM 6.16 43.088 0.034 6.52 2.01 11.79
11/4/2020 6:15:00 PM 6.06 42.908 0.033 6.53 2.01 11.8
11/4/2020 6:30:00 PM 6.01 42.818 0.036 6.51 2.07 11.78
11/4/2020 6:45:00 PM 5.93 42.674 0.036 6.51 2.38 11.79
11/4/2020 7:00:00 PM 5.86 42.548 0.034 6.52 2.09 11.79
11/4/2020 7:15:00 PM 5.8 42.44 0.034 6.51 2.02 11.81
11/4/2020 7:30:00 PM 5.75 42.35 0.036 6.51 2.05 11.81
11/4/2020 7:45:00 PM 5.7 42.26 0.036 6.5 2.01 11.81
11/4/2020 8:00:00 PM 5.65 42.17 0.035 6.5 2.1 11.82
11/4/2020 8:15:00 PM 5.57 42.026 0.035 6.52 2.12 11.84
11/4/2020 8:30:00 PM 5.5 41.9 0.034 6.52 2.02 11.87
11/4/2020 8:45:00 PM 5.45 41.81 0.036 6.51 2.05 11.88
11/4/2020 9:00:00 PM 5.38 41.684 0.036 6.51 2.01 11.9
11/4/2020 9:15:00 PM 5.33 41.594 0.034 6.52 1.97 11.92
11/4/2020 9:30:00 PM 5.31 41.558 0.035 6.5 2 11.92
11/4/2020 9:45:00 PM 5.25 41.45 0.036 6.5 2.1 11.93
11/4/2020 10:00:00 PM 5.21 41.378 0.036 6.5 2.12 11.93
11/4/2020 10:15:00 PM 5.16 41.288 0.037 6.51 1.99 11.96
11/4/2020 10:30:00 PM 5.1 41.18 0.035 6.51 2.05 11.98
11/4/2020 10:45:00 PM 5.08 41.144 0.035 6.49 2.11 11.99
11/4/2020 11:00:00 PM 5.04 41.072 0.035 6.49 2.02 11.98
11/4/2020 11:15:00 PM 5.02 41.036 0.036 6.49 2.04 11.98
11/4/2020 11:30:00 PM 4.96 40.928 0.034 6.5 2.09 12.01
11/4/2020 11:45:00 PM 4.95 40.91 0.035 6.5 2.12 12.01
11/5/2020 12:00:00 AM 4.92 40.856 0.035 6.5 2.07 12.03
11/5/2020 12:15:00 AM 4.93 40.874 0.036 6.5 2.08 12.02
11/5/2020 12:30:00 AM 4.92 40.856 0.036 6.5 2.07 12.02
11/5/2020 12:45:00 AM 4.89 40.802 0.035 6.5 2.06 12.03
11/5/2020 1:00:00 AM 4.83 40.694 0.034 6.51 2.06 12.05
11/5/2020 1:15:00 AM 4.81 40.658 0.035 6.51 2.14 12.07
11/5/2020 1:30:00 AM 4.8 40.64 0.037 6.51 2 12.06
11/5/2020 1:45:00 AM 4.77 40.586 0.035 6.51 1.99 12.07
11/5/2020 2:00:00 AM 4.75 40.55 0.036 6.5 2 12.07
11/5/2020 2:15:00 AM 4.72 40.496 0.037 6.49 2.01 12.08
11/5/2020 2:30:00 AM 4.68 40.424 0.036 6.5 2.04 12.09
11/5/2020 2:45:00 AM 4.66 40.388 0.035 6.5 2.02 12.09
11/5/2020 3:00:00 AM 4.62 40.316 0.035 6.51 2.04 12.11
11/5/2020 3:15:00 AM 4.57 40.226 0.036 6.52 2.14 12.13
11/5/2020 3:30:00 AM 4.55 40.19 0.037 6.51 2.01 12.13
11/5/2020 3:45:00 AM 4.53 40.154 0.036 6.51 2.02 12.13
11/5/2020 4:00:00 AM 4.5 40.1 0.036 6.5 2.04 12.15
11/5/2020 4:15:00 AM 4.47 40.046 0.037 6.5 2 12.16
11/5/2020 4:30:00 AM 4.44 39.992 0.036 6.5 2 12.16
11/5/2020 4:45:00 AM 4.4 39.92 0.035 6.51 2.06 12.18
11/5/2020 5:00:00 AM 4.36 39.848 0.035 6.51 2.03 12.2
11/5/2020 5:15:00 AM 4.34 39.812 0.036 6.51 2.06 12.19
11/5/2020 5:30:00 AM 4.3 39.74 0.035 6.5 2.05 12.21
11/5/2020 5:45:00 AM 4.27 39.686 0.035 6.51 2.03 12.22
11/5/2020 6:00:00 AM 4.25 39.65 0.036 6.5 2.01 12.22
11/5/2020 6:15:00 AM 4.21 39.578 0.035 6.5 2.04 12.24
11/5/2020 6:30:00 AM 4.18 39.524 0.035 6.5 2.01 12.25
11/5/2020 6:45:00 AM 4.15 39.47 0.036 6.5 2.02 12.26
11/5/2020 7:00:00 AM 4.12 39.416 0.036 6.5 2.03 12.27
11/5/2020 7:15:00 AM 4.09 39.362 0.035 6.5 2.12 12.29
11/5/2020 7:30:00 AM 4.07 39.326 0.036 6.51 2.03 12.31
11/5/2020 7:45:00 AM 4.06 39.308 0.036 6.51 2.08 12.33
11/5/2020 8:00:00 AM 4.05 39.29 0.036 6.52 2.05 12.35
11/5/2020 8:15:00 AM 4.07 39.326 0.036 6.5 2.09 12.37
11/5/2020 8:30:00 AM 4.09 39.362 0.037 6.51 2.04 12.39
11/5/2020 8:45:00 AM 4.11 39.398 0.037 6.52 2.02 12.41
11/5/2020 9:00:00 AM 4.13 39.434 0.036 6.53 2.03 12.45
11/5/2020 9:15:00 AM 4.21 39.578 0.036 6.54 2 12.45
11/5/2020 9:30:00 AM 4.26 39.668 0.036 6.54 2.05 12.46
11/5/2020 9:45:00 AM 4.33 39.794 0.036 6.54 2 12.45
11/5/2020 10:00:00 AM 4.44 39.992 0.036 6.54 2.06 12.47
11/5/2020 10:15:00 AM 4.57 40.226 0.036 6.53 1.98 12.45
11/5/2020 10:30:00 AM 4.7 40.46 0.037 6.54 1.98 12.43
11/5/2020 10:45:00 AM 4.86 40.748 0.037 6.54 2.01 12.41
11/5/2020 11:00:00 AM 5.06 41.108 0.035 6.54 1.97 12.37
11/5/2020 11:15:00 AM 5.31 41.558 0.036 6.56 2.01 12.34
11/5/2020 11:30:00 AM 5.45 41.81 0.036 6.56 2.09 12.29
11/5/2020 11:45:00 AM 5.78 42.404 0.036 6.55 2 12.23
11/5/2020 12:00:00 PM 6.02 42.836 0.036 6.55 1.98 12.17
11/5/2020 12:15:00 PM 6.24 43.232 0.036 6.55 1.97 12.13
11/5/2020 12:30:00 PM 6.49 43.682 0.036 6.57 1.96 12.08
11/5/2020 12:45:00 PM 6.68 44.024 0.035 6.59 1.92 12.06
11/5/2020 1:00:00 PM 6.99 44.582 0.037 6.59 1.95 11.98
11/5/2020 1:15:00 PM 7.23 45.014 0.035 6.6 1.99 11.9
11/5/2020 1:30:00 PM 7.43 45.374 0.036 6.6 1.91 11.86
11/5/2020 1:45:00 PM 7.61 45.698 0.037 6.6 1.96 11.8
11/5/2020 2:00:00 PM 7.77 45.986 0.036 6.6 1.92 11.76
11/5/2020 2:15:00 PM 7.89 46.202 0.036 6.59 1.96 11.71
11/5/2020 2:30:00 PM 7.99 46.382 0.036 6.6 2 11.66
11/5/2020 2:45:00 PM 8.07 46.526 0.037 6.63 1.87 11.65
11/5/2020 3:00:00 PM 8.13 46.634 0.038 6.63 2.02 11.62
11/5/2020 3:15:00 PM 8.16 46.688 0.037 6.63 1.93 11.6
11/5/2020 3:30:00 PM 8.17 46.706 0.036 6.62 1.93 11.58
11/5/2020 3:45:00 PM 8.15 46.67 0.036 6.62 1.94 11.56
11/5/2020 4:00:00 PM 8.11 46.598 0.037 6.62 1.9 11.54
11/5/2020 4:15:00 PM 8.05 46.49 0.037 6.61 1.94 11.51
11/5/2020 4:30:00 PM 7.98 46.364 0.036 6.63 1.93 11.51
11/5/2020 4:45:00 PM 7.9 46.22 0.036 6.62 1.98 11.49
11/5/2020 5:00:00 PM 7.82 46.076 0.035 6.61 2 11.47
11/5/2020 5:15:00 PM 7.72 45.896 0.035 6.61 2.07 11.42
11/5/2020 5:30:00 PM 7.62 45.716 0.035 6.59 1.94 11.42
11/5/2020 5:45:00 PM 7.53 45.554 0.036 6.58 4.29 11.39
11/5/2020 6:00:00 PM 7.44 45.392 0.036 6.6 2 11.39
11/5/2020 6:15:00 PM 7.36 45.248 0.038 6.58 2.01 11.38
11/5/2020 6:30:00 PM 7.26 45.068 0.038 6.58 2.05 11.36
11/5/2020 6:45:00 PM 7.19 44.942 0.037 6.57 2.01 11.36
11/5/2020 7:00:00 PM 7.12 44.816 0.036 6.56 1.99 11.35
11/5/2020 7:15:00 PM 7.02 44.636 0.035 6.55 2.09 11.34
11/5/2020 7:30:00 PM 6.96 44.528 0.036 6.56 1.99 11.36
11/5/2020 7:45:00 PM 6.87 44.366 0.036 6.57 2.03 11.39
11/5/2020 8:00:00 PM 6.79 44.222 0.035 6.56 2.01 11.39
11/5/2020 8:15:00 PM 6.73 44.114 0.036 6.57 2.03 11.4
11/5/2020 8:30:00 PM 6.66 43.988 0.037 6.55 2 11.42
11/5/2020 8:45:00 PM 6.61 43.898 0.035 6.55 2 11.42
11/5/2020 9:00:00 PM 6.56 43.808 0.037 6.54 2.05 11.43
11/5/2020 9:15:00 PM 6.5 43.7 0.036 6.53 2.01 11.42
11/5/2020 9:30:00 PM 6.45 43.61 0.036 6.52 2.04 11.43
11/5/2020 9:45:00 PM 6.39 43.502 0.036 6.51 2 11.44
11/5/2020 10:00:00 PM 6.35 43.43 0.036 6.52 2.22 11.46
11/5/2020 10:15:00 PM 6.28 43.304 0.035 6.55 2 11.51
11/5/2020 10:30:00 PM 6.24 43.232 0.036 6.53 2.01 11.52
11/5/2020 10:45:00 PM 6.18 43.124 0.037 6.54 1.99 11.54
11/5/2020 11:00:00 PM 6.14 43.052 0.036 6.54 2.06 11.55
11/5/2020 11:15:00 PM 6.11 42.998 0.036 6.53 2.01 11.57
11/5/2020 11:30:00 PM 6.07 42.926 0.036 6.54 2.02 11.58
11/5/2020 11:45:00 PM 6.03 42.854 0.037 6.55 1.95 11.6
11/6/2020 12:00:00 AM 6.01 42.818 0.037 6.54 1.99 11.61
11/6/2020 12:15:00 AM 5.98 42.764 0.036 6.54 2.04 11.62
11/6/2020 12:30:00 AM 5.95 42.71 0.035 6.55 2.11 11.63
11/6/2020 12:45:00 AM 5.93 42.674 0.036 6.53 2.08 11.63
11/6/2020 1:00:00 AM 5.92 42.656 0.038 6.51 2.37 11.62
11/6/2020 1:15:00 AM 5.91 42.638 0.037 6.52 2.01 11.62
11/6/2020 1:30:00 AM 5.88 42.584 0.037 6.54 1.94 11.65
11/6/2020 1:45:00 AM 5.88 42.584 0.037 6.54 1.97 11.67
11/6/2020 2:00:00 AM 5.86 42.548 0.035 6.53 2.03 11.66
11/6/2020 2:15:00 AM 5.85 42.53 0.037 6.53 1.96 11.66
11/6/2020 2:30:00 AM 5.84 42.512 0.037 6.52 1.97 11.67
11/6/2020 2:45:00 AM 5.82 42.476 0.037 6.53 2.01 11.67
11/6/2020 3:00:00 AM 5.79 42.422 0.036 6.54 2.09 11.68
11/6/2020 3:15:00 AM 5.8 42.44 0.037 6.53 1.99 11.69
11/6/2020 3:30:00 AM 5.79 42.422 0.037 6.52 2.22 11.66
11/6/2020 3:45:00 AM 5.78 42.404 0.037 6.54 2.03 11.67
11/6/2020 4:00:00 AM 5.77 42.386 0.037 6.54 2.04 11.69
11/6/2020 4:15:00 AM 5.77 42.386 0.037 6.53 2.03 11.68
11/6/2020 4:30:00 AM 5.75 42.35 0.037 6.53 2.21 11.69
11/6/2020 4:45:00 AM 5.71 42.278 0.036 6.53 2.14 11.7
11/6/2020 5:00:00 AM 5.7 42.26 0.035 6.52 2.09 11.69
11/6/2020 5:15:00 AM 5.68 42.224 0.036 6.51 2.2 11.66
11/6/2020 5:30:00 AM 5.66 42.188 0.037 6.5 2.31 11.65
11/6/2020 5:45:00 AM 5.62 42.116 0.038 6.5 2.22 11.68
11/6/2020 6:00:00 AM 5.54 41.972 0.037 6.54 2.24 11.73
11/6/2020 6:15:00 AM 5.51 41.918 0.036 6.53 2.03 11.73
11/6/2020 6:30:00 AM 5.47 41.846 0.036 6.53 2.14 11.75
11/6/2020 6:45:00 AM 5.43 41.774 0.036 6.52 1.99 11.76
11/6/2020 7:00:00 AM 5.38 41.684 0.035 6.53 2.02 11.77
11/6/2020 7:15:00 AM 5.32 41.576 0.038 6.51 2.06 11.78
11/6/2020 7:30:00 AM 5.28 41.504 0.036 6.53 2.1 11.82
11/6/2020 7:45:00 AM 5.24 41.432 0.036 6.52 2.12 11.82
11/6/2020 8:00:00 AM 5.21 41.378 0.036 6.53 2.01 11.86
11/6/2020 8:15:00 AM 5.17 41.306 0.037 6.54 2.06 11.9
11/6/2020 8:30:00 AM 5.15 41.27 0.038 6.55 2.08 11.95
11/6/2020 8:45:00 AM 5.16 41.288 0.038 6.54 2.04 11.98
11/6/2020 9:00:00 AM 5.15 41.27 0.037 6.57 2.04 12.02
11/6/2020 9:15:00 AM 5.18 41.324 0.036 6.57 2.02 12.05
11/6/2020 9:30:00 AM 5.23 41.414 0.036 6.56 2.05 12.04
11/6/2020 9:45:00 AM 5.28 41.504 0.037 6.55 1.97 12.06
11/6/2020 10:00:00 AM 5.35 41.63 0.038 6.55 1.99 12.05
11/6/2020 10:15:00 AM 5.47 41.846 0.038 6.55 2.04 12.06
11/6/2020 10:30:00 AM 5.55 41.99 0.037 6.56 1.96 12.07
11/6/2020 10:45:00 AM 5.65 42.17 0.037 6.57 1.98 12.06
11/6/2020 11:00:00 AM 5.79 42.422 0.037 6.58 1.95 12.08
11/6/2020 11:15:00 AM 6.01 42.818 0.035 6.6 2.01 12.07
11/6/2020 11:30:00 AM 6.24 43.232 0.036 6.61 1.92 12.03
11/6/2020 11:45:00 AM 6.4 43.52 0.036 6.62 1.99 12.02
11/6/2020 12:00:00 PM 6.65 43.97 0.036 6.62 1.93 11.97
11/6/2020 12:15:00 PM 6.93 44.474 0.037 6.64 1.91 11.92
11/6/2020 12:30:00 PM 7.16 44.888 0.036 6.65 1.93 11.88
11/6/2020 12:45:00 PM 7.43 45.374 0.036 6.66 1.94 11.83
11/6/2020 1:00:00 PM 7.66 45.788 0.036 6.67 1.89 11.76
11/6/2020 1:15:00 PM 7.9 46.22 0.036 6.68 1.93 11.71
11/6/2020 1:30:00 PM 8.09 46.562 0.036 6.68 1.9 11.66
11/6/2020 1:45:00 PM 8.32 46.976 0.036 6.68 1.89 11.59
11/6/2020 2:00:00 PM 8.5 47.3 0.036 6.68 1.86 11.54
11/6/2020 2:15:00 PM 8.68 47.624 0.036 6.68 1.9 11.49
11/6/2020 2:30:00 PM 8.85 47.93 0.036 6.68 1.9 11.43
11/6/2020 2:45:00 PM 8.99 48.182 0.036 6.66 1.93 11.37
11/6/2020 3:00:00 PM 9.06 48.308 0.036 6.67 1.87 11.34
11/6/2020 3:15:00 PM 9.15 48.47 0.035 6.68 1.87 11.31
11/6/2020 3:30:00 PM 9.2 48.56 0.035 6.67 2.35 11.28
11/6/2020 3:45:00 PM 9.21 48.578 0.036 6.65 2.05 11.21
11/6/2020 4:00:00 PM 9.24 48.632 0.036 6.66 1.9 11.2
11/6/2020 4:15:00 PM 9.2 48.56 0.037 6.65 2 11.18
11/6/2020 4:30:00 PM 9.14 48.452 0.037 6.62 2.02 11.14
11/6/2020 4:45:00 PM 9.05 48.29 0.036 6.64 2.1 11.14
11/6/2020 5:00:00 PM 8.95 48.11 0.037 6.63 1.92 11.12
11/6/2020 5:15:00 PM 8.83 47.894 0.037 6.64 1.96 11.11
11/6/2020 5:30:00 PM 8.71 47.678 0.036 6.62 1.95 11.11
11/6/2020 5:45:00 PM 8.59 47.462 0.034 6.63 1.99 11.1
11/6/2020 6:00:00 PM 8.45 47.21 0.035 6.64 1.95 11.07
11/6/2020 6:15:00 PM 8.34 47.012 0.035 6.62 1.99 11.08
11/6/2020 6:30:00 PM 8.23 46.814 0.037 6.61 1.93 11.06
11/6/2020 6:45:00 PM 8.1 46.58 0.036 6.62 1.99 11.08
11/6/2020 7:00:00 PM 7.97 46.346 0.037 6.62 2.13 11.11
11/6/2020 7:15:00 PM 7.89 46.202 0.037 6.6 2 11.08
11/6/2020 7:30:00 PM 7.79 46.022 0.036 6.6 2.03 11.1
11/6/2020 7:45:00 PM 7.71 45.878 0.036 6.6 1.99 11.1
11/6/2020 8:00:00 PM 7.65 45.77 0.036 6.56 2 11.1
11/6/2020 8:15:00 PM 7.56 45.608 0.036 6.57 2.05 11.1
11/6/2020 8:30:00 PM 7.47 45.446 0.037 6.58 1.99 11.13
11/6/2020 8:45:00 PM 7.41 45.338 0.037 6.59 2.02 11.14
11/6/2020 9:00:00 PM 7.32 45.176 0.038 6.58 2.05 11.15
11/6/2020 9:15:00 PM 7.24 45.032 0.037 6.59 2.01 11.18
11/6/2020 9:30:00 PM 7.19 44.942 0.038 6.58 1.98 11.16
11/6/2020 9:45:00 PM 7.14 44.852 0.038 6.56 2.01 11.17
11/6/2020 10:00:00 PM 7.03 44.654 0.036 6.58 2.01 11.2
11/6/2020 10:15:00 PM 6.94 44.492 0.037 6.57 1.97 11.25
11/6/2020 10:30:00 PM 6.84 44.312 0.035 6.58 2.1 11.29
11/6/2020 10:45:00 PM 6.77 44.186 0.036 6.59 2.06 11.3
11/6/2020 11:00:00 PM 6.71 44.078 0.036 6.58 1.95 11.33
11/6/2020 11:15:00 PM 6.63 43.934 0.036 6.57 2.06 11.34
11/6/2020 11:30:00 PM 6.58 43.844 0.037 6.57 2.01 11.34
11/6/2020 11:45:00 PM 6.49 43.682 0.037 6.58 2.02 11.36
11/7/2020 12:00:00 AM 6.41 43.538 0.037 6.58 2.04 11.42
11/7/2020 12:15:00 AM 6.34 43.412 0.036 6.58 2.03 11.43
11/7/2020 12:30:00 AM 6.28 43.304 0.037 6.56 2.05 11.45
11/7/2020 12:45:00 AM 6.22 43.196 0.037 6.55 2.02 11.45
11/7/2020 1:00:00 AM 6.11 42.998 0.037 6.57 2.15 11.5
11/7/2020 1:15:00 AM 6.04 42.872 0.036 6.57 2.07 11.52
11/7/2020 1:30:00 AM 5.99 42.782 0.036 6.56 2.07 11.52
11/7/2020 1:45:00 AM 5.9 42.62 0.036 6.58 2.04 11.57
11/7/2020 2:00:00 AM 5.87 42.566 0.038 6.56 2.02 11.55
11/7/2020 2:15:00 AM 5.81 42.458 0.038 6.55 2.11 11.57
11/7/2020 2:30:00 AM 5.74 42.332 0.037 6.56 1.99 11.61
11/7/2020 2:45:00 AM 5.67 42.206 0.036 6.56 2 11.64
11/7/2020 3:00:00 AM 5.62 42.116 0.036 6.55 2.08 11.64
11/7/2020 3:15:00 AM 5.61 42.098 0.04 6.47 2.8 11.54
11/7/2020 3:30:00 AM 5.54 41.972 0.039 6.5 2.26 11.57
11/7/2020 3:45:00 AM 5.45 41.81 0.036 6.55 2.08 11.65
11/7/2020 4:00:00 AM 5.4 41.72 0.038 6.53 2.09 11.7
11/7/2020 4:15:00 AM 5.34 41.612 0.037 6.55 2.01 11.72
11/7/2020 4:30:00 AM 5.32 41.576 0.038 6.54 2.1 11.73
11/7/2020 4:45:00 AM 5.22 41.396 0.037 6.56 2.01 11.78
11/7/2020 5:00:00 AM 5.2 41.36 0.037 6.56 2 11.79
11/7/2020 5:15:00 AM 5.13 41.234 0.037 6.56 2 11.81
11/7/2020 5:30:00 AM 5.09 41.162 0.037 6.57 2.01 11.83
11/7/2020 5:45:00 AM 5.05 41.09 0.037 6.56 1.96 11.84
11/7/2020 6:00:00 AM 5 41 0.036 6.56 2.02 11.84
11/7/2020 6:15:00 AM 4.94 40.892 0.036 6.56 1.99 11.89
11/7/2020 6:30:00 AM 4.91 40.838 0.037 6.55 2.04 11.89
11/7/2020 6:45:00 AM 4.84 40.712 0.036 6.57 2.01 11.91
11/7/2020 7:00:00 AM 4.79 40.622 0.036 6.57 2.01 11.95
11/7/2020 7:15:00 AM 4.74 40.532 0.036 6.57 2.06 11.98
11/7/2020 7:30:00 AM 4.74 40.532 0.037 6.56 2.15 11.93
11/7/2020 7:45:00 AM 4.69 40.442 0.036 6.57 2.04 12.01
11/7/2020 8:00:00 AM 4.66 40.388 0.037 6.58 2 12.07
11/7/2020 8:15:00 AM 4.65 40.37 0.037 6.58 1.99 12.09
11/7/2020 8:30:00 AM 4.64 40.352 0.037 6.58 2 12.12
11/7/2020 8:45:00 AM 4.62 40.316 0.037 6.59 2.01 12.16
11/7/2020 9:00:00 AM 4.63 40.334 0.037 6.6 2.04 12.21
11/7/2020 9:15:00 AM 4.65 40.37 0.036 6.61 2.01 12.24
11/7/2020 9:30:00 AM 4.7 40.46 0.037 6.6 1.96 12.26
11/7/2020 9:45:00 AM 4.75 40.55 0.037 6.6 2.04 12.28
11/7/2020 10:00:00 AM 4.82 40.676 0.036 6.61 1.98 12.28
11/7/2020 10:15:00 AM 4.87 40.766 0.036 6.61 1.97 12.3
11/7/2020 10:30:00 AM 4.94 40.892 0.037 6.62 2 12.31
11/7/2020 10:45:00 AM 5.08 41.144 0.037 6.62 2 12.3
11/7/2020 11:00:00 AM 5.2 41.36 0.036 6.64 1.98 12.3
11/7/2020 11:15:00 AM 5.41 41.738 0.037 6.62 1.94 12.27
11/7/2020 11:30:00 AM 5.5 41.9 0.037 6.63 1.91 12.28
11/7/2020 11:45:00 AM 5.78 42.404 0.037 6.64 2.01 12.23
11/7/2020 12:00:00 PM 5.99 42.782 0.037 6.64 1.96 12.2
11/7/2020 12:15:00 PM 6.24 43.232 0.036 6.65 1.9 12.16
11/7/2020 12:30:00 PM 6.48 43.664 0.037 6.65 1.95 12.1
11/7/2020 12:45:00 PM 6.69 44.042 0.036 6.67 1.9 12.06
11/7/2020 1:00:00 PM 6.92 44.456 0.036 6.68 1.89 12.02
11/7/2020 1:15:00 PM 7.18 44.924 0.036 6.69 1.89 11.96
11/7/2020 1:30:00 PM 7.46 45.428 0.037 6.71 1.88 11.9
11/7/2020 1:45:00 PM 7.7 45.86 0.036 6.7 1.89 11.83
11/7/2020 2:00:00 PM 7.87 46.166 0.036 6.71 1.87 11.79
11/7/2020 2:15:00 PM 8.16 46.688 0.037 6.71 1.91 11.71
11/7/2020 2:30:00 PM 8.35 47.03 0.037 6.71 1.91 11.64
11/7/2020 2:45:00 PM 8.48 47.264 0.035 6.72 1.86 11.6
11/7/2020 3:00:00 PM 8.62 47.516 0.035 6.72 1.86 11.57
11/7/2020 3:15:00 PM 8.78 47.804 0.036 6.73 1.88 11.52
11/7/2020 3:30:00 PM 8.95 48.11 0.036 6.73 1.96 11.46
11/7/2020 3:45:00 PM 9.03 48.254 0.036 6.73 1.9 11.42
11/7/2020 4:00:00 PM 9.07 48.326 0.036 6.73 1.86 11.4
11/7/2020 4:15:00 PM 9.09 48.362 0.035 6.72 2.07 11.34
11/7/2020 4:30:00 PM 9.08 48.344 0.035 6.71 1.86 11.29
11/7/2020 4:45:00 PM 9.04 48.272 0.035 6.71 1.89 11.29
11/7/2020 5:00:00 PM 8.96 48.128 0.035 6.71 1.95 11.23
11/7/2020 5:15:00 PM 8.87 47.966 0.037 6.7 1.9 11.22
11/7/2020 5:30:00 PM 8.78 47.804 0.037 6.7 1.91 11.21
11/7/2020 5:45:00 PM 8.66 47.588 0.035 6.68 1.88 11.19
11/7/2020 6:00:00 PM 8.5 47.3 0.036 6.69 1.95 11.19
11/7/2020 6:15:00 PM 8.4 47.12 0.035 6.67 1.85 11.16
11/7/2020 6:30:00 PM 8.28 46.904 0.037 6.66 2.02 11.17
11/7/2020 6:45:00 PM 8.15 46.67 0.037 6.66 1.93 11.16
11/7/2020 7:00:00 PM 7.99 46.382 0.037 6.65 1.95 11.17
11/7/2020 7:15:00 PM 7.9 46.22 0.037 6.64 1.92 11.16
11/7/2020 7:30:00 PM 7.77 45.986 0.038 6.65 1.92 11.17
11/7/2020 7:45:00 PM 7.67 45.806 0.037 6.63 1.94 11.17
11/7/2020 8:00:00 PM 7.57 45.626 0.037 6.63 1.98 11.19
11/7/2020 8:15:00 PM 7.47 45.446 0.038 6.63 2 11.2
11/7/2020 8:30:00 PM 7.39 45.302 0.037 6.62 1.96 11.2
11/7/2020 8:45:00 PM 7.28 45.104 0.037 6.63 2.01 11.21
11/7/2020 9:00:00 PM 7.2 44.96 0.037 6.63 1.96 11.23
11/7/2020 9:15:00 PM 7.12 44.816 0.036 6.62 2 11.24
11/7/2020 9:30:00 PM 7.04 44.672 0.037 6.62 2.2 11.26
11/7/2020 9:45:00 PM 6.95 44.51 0.036 6.62 2 11.28
11/7/2020 10:00:00 PM 6.89 44.402 0.036 6.62 1.97 11.29
11/7/2020 10:15:00 PM 6.81 44.258 0.037 6.62 1.96 11.3
11/7/2020 10:30:00 PM 6.73 44.114 0.037 6.62 1.99 11.33
11/7/2020 10:45:00 PM 6.66 43.988 0.038 6.62 2.16 11.36
11/7/2020 11:00:00 PM 6.56 43.808 0.037 6.62 2.03 11.38
11/7/2020 11:15:00 PM 6.5 43.7 0.037 6.61 1.97 11.39
11/7/2020 11:30:00 PM 6.43 43.574 0.036 6.61 1.96 11.41
11/7/2020 11:45:00 PM 6.34 43.412 0.037 6.61 1.99 11.44
11/8/2020 12:00:00 AM 6.25 43.25 0.036 6.61 2.01 11.47
11/8/2020 12:15:00 AM 6.2 43.16 0.036 6.61 1.98 11.48
11/8/2020 12:30:00 AM 6.12 43.016 0.036 6.61 1.97 11.51
11/8/2020 12:45:00 AM 6.03 42.854 0.036 6.61 1.97 11.54
11/8/2020 1:00:00 AM 5.96 42.728 0.037 6.6 1.98 11.57
11/8/2020 1:15:00 AM 5.86 42.548 0.037 6.61 1.97 11.61
11/8/2020 1:30:00 AM 5.82 42.476 0.036 6.6 2.03 11.61
11/8/2020 1:45:00 AM 5.75 42.35 0.037 6.6 1.93 11.63
11/8/2020 2:00:00 AM 5.69 42.242 0.037 6.59 1.98 11.63
11/8/2020 2:15:00 AM 5.62 42.116 0.036 6.58 2.01 11.64
11/8/2020 2:30:00 AM 5.54 41.972 0.036 6.6 1.93 11.68
11/8/2020 2:45:00 AM 5.49 41.882 0.036 6.6 1.95 11.71
11/8/2020 3:00:00 AM 5.42 41.756 0.036 6.59 1.93 11.73
11/8/2020 3:15:00 AM 5.39 41.702 0.037 6.6 2.04 11.73
11/8/2020 3:30:00 AM 5.29 41.522 0.037 6.59 2 11.76
11/8/2020 3:45:00 AM 5.22 41.396 0.037 6.59 1.95 11.79
11/8/2020 4:00:00 AM 5.15 41.27 0.037 6.59 2.01 11.83
11/8/2020 4:15:00 AM 5.12 41.216 0.037 6.59 2.04 11.83
11/8/2020 4:30:00 AM 5.06 41.108 0.036 6.58 1.98 11.84
11/8/2020 4:45:00 AM 4.99 40.982 0.036 6.6 1.96 11.88
11/8/2020 5:00:00 AM 4.92 40.856 0.036 6.6 2.04 11.9
11/8/2020 5:15:00 AM 4.88 40.784 0.036 6.6 2.09 11.91
11/8/2020 5:30:00 AM 4.81 40.658 0.036 6.58 1.97 11.93
11/8/2020 5:45:00 AM 4.73 40.514 0.037 6.6 1.97 11.97
11/8/2020 6:00:00 AM 4.68 40.424 0.037 6.59 2.06 11.98
11/8/2020 6:15:00 AM 4.62 40.316 0.037 6.59 2.12 11.98
11/8/2020 6:30:00 AM 4.58 40.244 0.038 6.59 2.04 12.01
11/8/2020 6:45:00 AM 4.53 40.154 0.037 6.6 2 12.04
11/8/2020 7:00:00 AM 4.5 40.1 0.038 6.59 2.03 12.03
11/8/2020 7:15:00 AM 4.46 40.028 0.036 6.57 1.99 12.05
11/8/2020 7:30:00 AM 4.41 39.938 0.036 6.58 2 12.1
11/8/2020 7:45:00 AM 4.37 39.866 0.036 6.59 1.94 12.14
11/8/2020 8:00:00 AM 4.32 39.776 0.037 6.6 1.98 12.19
11/8/2020 8:15:00 AM 4.29 39.722 0.036 6.6 1.95 12.22
11/8/2020 8:30:00 AM 4.26 39.668 0.035 6.6 2.02 12.27
11/8/2020 8:45:00 AM 4.26 39.668 0.036 6.61 1.94 12.31
11/8/2020 9:00:00 AM 4.26 39.668 0.035 6.62 2.1 12.35
11/8/2020 9:15:00 AM 4.27 39.686 0.035 6.63 1.95 12.4
11/8/2020 9:30:00 AM 4.32 39.776 0.037 6.63 1.98 12.41
11/8/2020 9:45:00 AM 4.39 39.902 0.037 6.63 1.97 12.42
11/8/2020 10:00:00 AM 4.43 39.974 0.037 6.64 2.01 12.44
11/8/2020 10:15:00 AM 4.5 40.1 0.037 6.64 1.96 12.45
11/8/2020 10:30:00 AM 4.59 40.262 0.037 6.65 1.93 12.48
11/8/2020 10:45:00 AM 4.69 40.442 0.037 6.65 1.95 12.47
11/8/2020 11:00:00 AM 4.78 40.604 0.037 6.65 1.95 12.46
11/8/2020 11:15:00 AM 4.95 40.91 0.037 6.64 1.91 12.45
11/8/2020 11:30:00 AM 5.14 41.252 0.036 6.66 1.92 12.42
11/8/2020 11:45:00 AM 5.38 41.684 0.038 6.66 1.92 12.4
11/8/2020 12:00:00 PM 5.56 42.008 0.037 6.66 1.9 12.37
11/8/2020 12:15:00 PM 5.81 42.458 0.036 6.67 1.89 12.33
11/8/2020 12:30:00 PM 6.07 42.926 0.037 6.67 1.9 12.28
11/8/2020 12:45:00 PM 6.2 43.16 0.036 6.68 1.9 12.26
11/8/2020 1:00:00 PM 6.53 43.754 0.036 6.69 1.94 12.18
11/8/2020 1:15:00 PM 6.71 44.078 0.036 6.7 1.86 12.14
11/8/2020 1:30:00 PM 6.97 44.546 0.036 6.71 1.88 12.09
11/8/2020 1:45:00 PM 7.25 45.05 0.036 6.72 1.89 12.01
11/8/2020 2:00:00 PM 7.61 45.698 0.037 6.73 1.91 11.92
11/8/2020 2:15:00 PM 7.86 46.148 0.037 6.74 1.91 11.84
11/8/2020 2:30:00 PM 8.11 46.598 0.037 6.75 1.86 11.77
11/8/2020 2:45:00 PM 8.25 46.85 0.037 6.74 1.86 11.72
11/8/2020 3:00:00 PM 8.46 47.228 0.036 6.73 1.89 11.63
11/8/2020 3:15:00 PM 8.56 47.408 0.036 6.74 1.84 11.59
11/8/2020 3:30:00 PM 8.64 47.552 0.036 6.75 1.96 11.56
11/8/2020 3:45:00 PM 8.68 47.624 0.036 6.75 1.87 11.54
11/8/2020 4:00:00 PM 8.69 47.642 0.035 6.74 1.87 11.51
11/8/2020 4:15:00 PM 8.67 47.606 0.036 6.74 1.92 11.5
11/8/2020 4:30:00 PM 8.63 47.534 0.036 6.73 1.9 11.47
11/8/2020 4:45:00 PM 8.57 47.426 0.036 6.73 1.94 11.44
11/8/2020 5:00:00 PM 8.5 47.3 0.035 6.73 1.89 11.42
11/8/2020 5:15:00 PM 8.4 47.12 0.035 6.72 1.94 11.39
11/8/2020 5:30:00 PM 8.31 46.958 0.036 6.7 1.99 11.35
11/8/2020 5:45:00 PM 8.2 46.76 0.037 6.7 1.93 11.32
11/8/2020 6:00:00 PM 8.11 46.598 0.037 6.68 2.02 11.31
11/8/2020 6:15:00 PM 7.99 46.382 0.037 6.69 1.96 11.32
11/8/2020 6:30:00 PM 7.88 46.184 0.037 6.66 1.96 11.3
11/8/2020 6:45:00 PM 7.76 45.968 0.037 6.67 1.97 11.31
11/8/2020 7:00:00 PM 7.66 45.788 0.036 6.66 2 11.3
11/8/2020 7:15:00 PM 7.53 45.554 0.037 6.66 2.01 11.3
11/8/2020 7:30:00 PM 7.42 45.356 0.036 6.65 1.94 11.3
11/8/2020 7:45:00 PM 7.32 45.176 0.038 6.66 1.93 11.32
11/8/2020 8:00:00 PM 7.22 44.996 0.037 6.65 1.93 11.32
11/8/2020 8:15:00 PM 7.15 44.87 0.037 6.65 2.04 11.33
11/8/2020 8:30:00 PM 7.07 44.726 0.037 6.64 1.96 11.32
11/8/2020 8:45:00 PM 6.99 44.582 0.037 6.63 2.13 11.34
11/8/2020 9:00:00 PM 6.91 44.438 0.038 6.64 1.95 11.35
11/8/2020 9:15:00 PM 6.83 44.294 0.037 6.63 1.99 11.35
11/8/2020 9:30:00 PM 6.78 44.204 0.037 6.63 1.88 11.37
11/8/2020 9:45:00 PM 6.71 44.078 0.038 6.62 1.97 11.37
11/8/2020 10:00:00 PM 6.65 43.97 0.037 6.62 1.9 11.38
11/8/2020 10:15:00 PM 6.57 43.826 0.037 6.63 1.98 11.41
11/8/2020 10:30:00 PM 6.53 43.754 0.04 6.57 2.3 11.35
11/8/2020 10:45:00 PM 6.45 43.61 0.037 6.61 1.96 11.4
11/8/2020 11:00:00 PM 6.38 43.484 0.037 6.62 1.96 11.44
11/8/2020 11:15:00 PM 6.32 43.376 0.037 6.61 1.98 11.45
11/8/2020 11:30:00 PM 6.24 43.232 0.037 6.62 1.99 11.48
11/8/2020 11:45:00 PM 6.17 43.106 0.038 6.63 1.95 11.51
11/9/2020 12:00:00 AM 6.09 42.962 0.037 6.64 1.96 11.54
11/9/2020 12:15:00 AM 6.02 42.836 0.037 6.62 1.99 11.55
11/9/2020 12:30:00 AM 5.97 42.746 0.037 6.61 2.01 11.56
11/9/2020 12:45:00 AM 5.91 42.638 0.038 6.61 2.04 11.57
11/9/2020 1:00:00 AM 5.81 42.458 0.037 6.63 2.08 11.61
11/9/2020 1:15:00 AM 5.74 42.332 0.037 6.63 2.18 11.63
11/9/2020 1:30:00 AM 5.67 42.206 0.038 6.63 1.97 11.66
11/9/2020 1:45:00 AM 5.59 42.062 0.037 6.62 1.98 11.68
11/9/2020 2:00:00 AM 5.56 42.008 0.037 6.62 1.97 11.7
11/9/2020 2:15:00 AM 5.47 41.846 0.037 6.62 2.04 11.72
11/9/2020 2:30:00 AM 5.42 41.756 0.037 6.62 1.99 11.75
11/9/2020 2:45:00 AM 5.36 41.648 0.037 6.62 1.91 11.75
11/9/2020 3:00:00 AM 5.28 41.504 0.037 6.62 2 11.78
11/9/2020 3:15:00 AM 5.22 41.396 0.037 6.63 1.98 11.82
11/9/2020 3:30:00 AM 5.2 41.36 0.038 6.6 1.95 11.81
11/9/2020 3:45:00 AM 5.13 41.234 0.038 6.61 1.94 11.84
11/9/2020 4:00:00 AM 5.07 41.126 0.037 6.61 1.9 11.87
11/9/2020 4:15:00 AM 5.01 41.018 0.037 6.62 1.95 11.87
11/9/2020 4:30:00 AM 4.96 40.928 0.036 6.63 1.94 11.9
11/9/2020 4:45:00 AM 4.9 40.82 0.036 6.62 2.21 11.92
11/9/2020 5:00:00 AM 4.84 40.712 0.036 6.61 1.95 11.93
11/9/2020 5:15:00 AM 4.8 40.64 0.037 6.6 2.06 11.93
11/9/2020 5:30:00 AM 4.72 40.496 0.036 6.61 1.95 11.95
11/9/2020 5:45:00 AM 4.7 40.46 0.038 6.62 1.94 11.98
11/9/2020 6:00:00 AM 4.64 40.352 0.038 6.62 1.95 11.99
11/9/2020 6:15:00 AM 4.61 40.298 0.037 6.62 1.99 12.02
11/9/2020 6:30:00 AM 4.54 40.172 0.038 6.62 1.98 12.04
11/9/2020 6:45:00 AM 4.5 40.1 0.037 6.62 1.95 12.06
11/9/2020 7:00:00 AM 4.46 40.028 0.037 6.62 1.96 12.08
11/9/2020 7:15:00 AM 4.4 39.92 0.037 6.62 1.96 12.11
11/9/2020 7:30:00 AM 4.36 39.848 0.037 6.63 1.94 12.14
11/9/2020 7:45:00 AM 4.32 39.776 0.038 6.63 1.98 12.17
11/9/2020 8:00:00 AM 4.29 39.722 0.036 6.64 1.92 12.21
11/9/2020 8:15:00 AM 4.27 39.686 0.036 6.64 1.93 12.25
11/9/2020 8:30:00 AM 4.24 39.632 0.036 6.64 2.07 12.28
11/9/2020 8:45:00 AM 4.25 39.65 0.036 6.64 1.95 12.31
11/9/2020 9:00:00 AM 4.26 39.668 0.037 6.65 1.94 12.33
11/9/2020 9:15:00 AM 4.28 39.704 0.037 6.66 1.91 12.37
11/9/2020 9:30:00 AM 4.34 39.812 0.038 6.64 1.98 12.37
11/9/2020 9:45:00 AM 4.39 39.902 0.038 6.64 1.92 12.39
11/9/2020 10:00:00 AM 4.43 39.974 0.037 6.65 1.97 12.43
11/9/2020 10:15:00 AM 4.5 40.1 0.037 6.67 1.93 12.46
11/9/2020 10:30:00 AM 4.58 40.244 0.038 6.67 1.94 12.49
11/9/2020 10:45:00 AM 4.66 40.388 0.038 6.68 1.91 12.48
11/9/2020 11:00:00 AM 4.76 40.568 0.038 6.68 1.93 12.48
11/9/2020 11:15:00 AM 4.95 40.91 0.037 6.68 1.88 12.47
11/9/2020 11:30:00 AM 5.07 41.126 0.038 6.69 1.91 12.46
11/9/2020 11:45:00 AM 5.2 41.36 0.037 6.69 1.88 12.43
11/9/2020 12:00:00 PM 5.36 41.648 0.038 6.69 1.91 12.43
11/9/2020 12:15:00 PM 5.67 42.206 0.037 6.7 1.87 12.38
11/9/2020 12:30:00 PM 5.87 42.566 0.038 6.71 1.89 12.35
11/9/2020 12:45:00 PM 6.16 43.088 0.038 6.71 2.16 12.29
11/9/2020 1:00:00 PM 6.42 43.556 0.037 6.71 1.91 12.24
11/9/2020 1:15:00 PM 6.69 44.042 0.038 6.72 2.03 12.17
11/9/2020 1:30:00 PM 7.02 44.636 0.037 6.74 1.84 12.11
11/9/2020 1:45:00 PM 7.31 45.158 0.037 6.76 1.87 12.04
11/9/2020 2:00:00 PM 7.58 45.644 0.038 6.76 1.84 11.95
11/9/2020 2:15:00 PM 7.83 46.094 0.037 6.76 1.79 11.88
11/9/2020 2:30:00 PM 8.03 46.454 0.037 6.76 1.83 11.82
11/9/2020 2:45:00 PM 8.28 46.904 0.037 6.76 1.81 11.74
11/9/2020 3:00:00 PM 8.47 47.246 0.038 6.77 1.84 11.68
11/9/2020 3:15:00 PM 8.64 47.552 0.037 6.77 1.8 11.61
11/9/2020 3:30:00 PM 8.77 47.786 0.037 6.77 1.91 11.56
11/9/2020 3:45:00 PM 8.87 47.966 0.037 6.77 1.87 11.51
11/9/2020 4:00:00 PM 8.96 48.128 0.037 6.77 1.85 11.45
11/9/2020 4:15:00 PM 9.01 48.218 0.037 6.76 1.84 11.38
11/9/2020 4:30:00 PM 9.03 48.254 0.037 6.77 1.85 11.33
11/9/2020 4:45:00 PM 9.03 48.254 0.037 6.77 1.86 11.32
11/9/2020 5:00:00 PM 9 48.2 0.037 6.76 1.86 11.26
11/9/2020 5:15:00 PM 8.92 48.056 0.037 6.75 2.07 11.23
11/9/2020 5:30:00 PM 8.84 47.912 0.037 6.75 1.95 11.22
11/9/2020 5:45:00 PM 8.76 47.768 0.038 6.73 1.86 11.18
11/9/2020 6:00:00 PM 8.64 47.552 0.038 6.72 1.86 11.17
11/9/2020 6:15:00 PM 8.54 47.372 0.037 6.71 1.99 11.15
11/9/2020 6:30:00 PM 8.41 47.138 0.036 6.71 1.93 11.16
11/9/2020 6:45:00 PM 8.28 46.904 0.037 6.71 1.92 11.15
11/9/2020 7:00:00 PM 8.15 46.67 0.037 6.69 1.9 11.14
11/9/2020 7:15:00 PM 8.04 46.472 0.037 6.69 1.86 11.15
11/9/2020 7:30:00 PM 7.91 46.238 0.039 6.69 1.89 11.16
11/9/2020 7:45:00 PM 7.8 46.04 0.038 6.69 1.94 11.17
11/9/2020 8:00:00 PM 7.68 45.824 0.038 6.68 1.87 11.17
11/9/2020 8:15:00 PM 7.59 45.662 0.037 6.67 1.9 11.18
11/9/2020 8:30:00 PM 7.48 45.464 0.038 6.67 1.93 11.2
11/9/2020 8:45:00 PM 7.4 45.32 0.039 6.66 1.87 11.19
11/9/2020 9:00:00 PM 7.32 45.176 0.038 6.66 1.91 11.2
11/9/2020 9:15:00 PM 7.24 45.032 0.039 6.65 1.9 11.22
11/9/2020 9:30:00 PM 7.16 44.888 0.038 6.66 1.9 11.23
11/9/2020 9:45:00 PM 7.09 44.762 0.038 6.66 1.9 11.25
11/9/2020 10:00:00 PM 7.01 44.618 0.037 6.66 1.97 11.27
11/9/2020 10:15:00 PM 6.96 44.528 0.038 6.66 1.9 11.28
11/9/2020 10:30:00 PM 6.9 44.42 0.037 6.66 1.93 11.29
11/9/2020 10:45:00 PM 6.84 44.312 0.038 6.65 1.86 11.29
11/9/2020 11:00:00 PM 6.77 44.186 0.038 6.66 1.93 11.31
11/9/2020 11:15:00 PM 6.72 44.096 0.038 6.65 1.98 11.32
11/9/2020 11:30:00 PM 6.66 43.988 0.037 6.65 1.95 11.33
11/9/2020 11:45:00 PM 6.62 43.916 0.039 6.64 1.95 11.33
11/10/2020 12:00:00 AM 6.56 43.808 0.04 6.64 1.91 11.34
11/10/2020 12:15:00 AM 6.51 43.718 0.039 6.63 1.95 11.35
11/10/2020 12:30:00 AM 6.44 43.592 0.038 6.63 2.09 11.38
11/10/2020 12:45:00 AM 6.4 43.52 0.039 6.61 1.99 11.36
11/10/2020 1:00:00 AM 6.35 43.43 0.039 6.6 1.93 11.38
11/10/2020 1:15:00 AM 6.29 43.322 0.038 6.62 1.9 11.42
11/10/2020 1:30:00 AM 6.24 43.232 0.038 6.64 1.93 11.44
11/10/2020 1:45:00 AM 6.18 43.124 0.038 6.64 1.95 11.46
11/10/2020 2:00:00 AM 6.11 42.998 0.038 6.65 1.92 11.49
11/10/2020 2:15:00 AM 6.06 42.908 0.038 6.64 1.88 11.49
11/10/2020 2:30:00 AM 6.02 42.836 0.038 6.64 1.94 11.51
11/10/2020 2:45:00 AM 5.98 42.764 0.038 6.64 1.97 11.51
11/10/2020 3:00:00 AM 5.91 42.638 0.037 6.63 2.06 11.55
11/10/2020 3:15:00 AM 5.88 42.584 0.038 6.63 2.47 11.56
11/10/2020 3:30:00 AM 5.83 42.494 0.038 6.63 1.9 11.58
11/10/2020 3:45:00 AM 5.8 42.44 0.038 6.64 1.95 11.6
11/10/2020 4:00:00 AM 5.75 42.35 0.039 6.63 1.92 11.61
11/10/2020 4:15:00 AM 5.71 42.278 0.038 6.64 1.88 11.61
11/10/2020 4:30:00 AM 5.68 42.224 0.039 6.64 1.99 11.63
11/10/2020 4:45:00 AM 5.65 42.17 0.038 6.64 1.98 11.63
11/10/2020 5:00:00 AM 5.63 42.134 0.038 6.64 1.88 11.66
11/10/2020 5:15:00 AM 5.59 42.062 0.037 6.63 1.98 11.66
11/10/2020 5:30:00 AM 5.55 41.99 0.037 6.63 1.93 11.67
11/10/2020 5:45:00 AM 5.52 41.936 0.037 6.63 1.89 11.68
11/10/2020 6:00:00 AM 5.47 41.846 0.037 6.63 1.91 11.68
11/10/2020 6:15:00 AM 5.43 41.774 0.038 6.64 1.92 11.71
11/10/2020 6:30:00 AM 5.4 41.72 0.037 6.63 1.92 11.72
11/10/2020 6:45:00 AM 5.4 41.72 0.038 6.62 1.94 11.71
11/10/2020 7:00:00 AM 5.35 41.63 0.038 6.63 1.93 11.72
11/10/2020 7:15:00 AM 5.31 41.558 0.038 6.63 1.92 11.74
11/10/2020 7:30:00 AM 5.31 41.558 0.037 6.63 2 11.76
11/10/2020 7:45:00 AM 5.28 41.504 0.038 6.64 1.91 11.79
11/10/2020 8:00:00 AM 5.25 41.45 0.038 6.64 1.91 11.83
11/10/2020 8:15:00 AM 5.25 41.45 0.038 6.65 1.96 11.86
11/10/2020 8:30:00 AM 5.25 41.45 0.038 6.67 1.94 11.91
11/10/2020 8:45:00 AM 5.25 41.45 0.038 6.66 1.9 11.95
11/10/2020 9:00:00 AM 5.29 41.522 0.04 6.66 1.87 11.97
11/10/2020 9:15:00 AM 5.31 41.558 0.039 6.67 1.88 11.99
11/10/2020 9:30:00 AM 5.36 41.648 0.038 6.67 3.1 12
11/10/2020 9:45:00 AM 5.4 41.72 0.038 6.68 2.46 12.05
11/10/2020 10:00:00 AM 5.46 41.828 0.038 6.67 2.65 12
11/10/2020 10:15:00 AM 5.54 41.972 0.039 6.67 2.15 12.03
11/10/2020 10:30:00 AM 5.63 42.134 0.038 6.66 2.06 12.02
11/10/2020 10:45:00 AM 5.86 42.548 0.039 6.66 2.67 12.03
11/10/2020 11:00:00 AM 5.98 42.764 0.038 6.68 2 12.05
11/10/2020 11:15:00 AM 6.23 43.214 0.039 6.68 1.91 12.03
11/10/2020 11:30:00 AM 6.38 43.484 0.038 6.71 1.91 12.05
11/10/2020 11:45:00 AM 6.51 43.718 0.038 6.71 1.92 12.03
11/10/2020 12:00:00 PM 6.79 44.222 0.04 6.71 1.86 12
11/10/2020 12:15:00 PM 6.94 44.492 0.039 6.74 1.84 11.98
11/10/2020 12:30:00 PM 7.27 45.086 0.038 6.74 1.81 11.91
11/10/2020 12:45:00 PM 7.48 45.464 0.04 6.74 1.85 11.86
11/10/2020 1:00:00 PM 7.76 45.968 0.039 6.75 1.8 11.82
11/10/2020 1:15:00 PM 8.12 46.616 0.037 6.76 1.8 11.75
11/10/2020 1:30:00 PM 8.45 47.21 0.038 6.77 1.79 11.68
11/10/2020 1:45:00 PM 8.7 47.66 0.037 6.77 1.84 11.6
11/10/2020 2:00:00 PM 8.93 48.074 0.037 6.77 1.78 11.54
11/10/2020 2:15:00 PM 9.25 48.65 0.038 6.76 1.79 11.41
11/10/2020 2:30:00 PM 9.46 49.028 0.037 6.77 1.85 11.39
11/10/2020 2:45:00 PM 9.64 49.352 0.037 6.78 1.91 11.32
11/10/2020 3:00:00 PM 9.84 49.712 0.037 6.78 1.77 11.25
11/10/2020 3:15:00 PM 10.02 50.036 0.037 6.8 1.74 11.19
11/10/2020 3:30:00 PM 10.15 50.27 0.037 6.8 1.96 11.12
11/10/2020 3:45:00 PM 10.3 50.54 0.037 6.81 1.79 11.07
11/10/2020 4:00:00 PM 10.38 50.684 0.037 6.81 1.86 11.02
11/10/2020 4:15:00 PM 10.45 50.81 0.037 6.82 1.82 10.96
11/10/2020 4:30:00 PM 10.48 50.864 0.038 6.8 1.79 10.86
11/10/2020 4:45:00 PM 10.5 50.9 0.039 6.8 1.81 10.8
11/10/2020 5:00:00 PM 10.5 50.9 0.038 6.79 2.21 10.77
11/10/2020 5:15:00 PM 10.46 50.828 0.039 6.79 1.83 10.78
11/10/2020 5:30:00 PM 10.4 50.72 0.037 6.79 1.79 10.75
11/10/2020 5:45:00 PM 10.32 50.576 0.038 6.78 1.83 10.72
11/10/2020 6:00:00 PM 10.24 50.432 0.037 6.77 1.86 10.68
11/10/2020 6:15:00 PM 10.13 50.234 0.038 6.76 1.92 10.66
11/10/2020 6:30:00 PM 10.04 50.072 0.038 6.75 1.83 10.65
11/10/2020 6:45:00 PM 9.93 49.874 0.038 6.73 1.98 10.64
11/10/2020 7:00:00 PM 9.81 49.658 0.038 6.73 1.84 10.63
11/10/2020 7:15:00 PM 9.71 49.478 0.038 6.73 1.83 10.62
11/10/2020 7:30:00 PM 9.58 49.244 0.038 6.72 1.84 10.63
11/10/2020 7:45:00 PM 9.48 49.064 0.039 6.72 1.86 10.64
11/10/2020 8:00:00 PM 9.36 48.848 0.038 6.71 1.95 10.64
11/10/2020 8:15:00 PM 9.26 48.668 0.038 6.7 1.99 10.63
11/10/2020 8:30:00 PM 9.16 48.488 0.039 6.69 1.87 10.65
11/10/2020 8:45:00 PM 9.08 48.344 0.039 6.69 1.84 10.66
11/10/2020 9:00:00 PM 9.01 48.218 0.037 6.69 2.07 10.67
11/10/2020 9:15:00 PM 8.92 48.056 0.038 6.7 1.88 10.69
11/10/2020 9:30:00 PM 8.85 47.93 0.039 6.7 1.97 10.69
11/10/2020 9:45:00 PM 8.8 47.84 0.04 6.69 1.89 10.71
11/10/2020 10:00:00 PM 8.75 47.75 0.039 6.69 2.22 10.71
11/10/2020 10:15:00 PM 8.71 47.678 0.039 6.68 1.86 10.7
11/10/2020 10:30:00 PM 8.66 47.588 0.039 6.68 1.86 10.71
11/10/2020 10:45:00 PM 8.62 47.516 0.039 6.68 1.89 10.73
11/10/2020 11:00:00 PM 8.57 47.426 0.038 6.69 1.87 10.73
11/10/2020 11:15:00 PM 8.54 47.372 0.038 6.69 1.84 10.74
11/10/2020 11:30:00 PM 8.5 47.3 0.038 6.69 1.85 10.75
11/10/2020 11:45:00 PM 8.48 47.264 0.038 6.7 1.83 10.74
11/11/2020 12:00:00 AM 8.47 47.246 0.039 6.69 2.08 10.74
11/11/2020 12:15:00 AM 8.47 47.246 0.039 6.69 1.85 10.76
11/11/2020 12:30:00 AM 8.46 47.228 0.038 6.7 1.95 10.77
11/11/2020 12:45:00 AM 8.47 47.246 0.039 6.69 1.86 10.76
11/11/2020 1:00:00 AM 8.48 47.264 0.038 6.68 1.88 10.76
11/11/2020 1:15:00 AM 8.48 47.264 0.04 6.68 1.83 10.75
11/11/2020 1:30:00 AM 8.55 47.39 0.04 6.67 1.88 10.73
11/11/2020 1:45:00 AM 8.58 47.444 0.039 6.66 1.83 10.7
11/11/2020 2:00:00 AM 8.57 47.426 0.039 6.68 1.87 10.72
11/11/2020 2:15:00 AM 8.58 47.444 0.04 6.68 1.85 10.72
11/11/2020 2:30:00 AM 8.59 47.462 0.04 6.67 1.82 10.71
11/11/2020 2:45:00 AM 8.61 47.498 0.039 6.67 1.9 10.71
11/11/2020 3:00:00 AM 8.65 47.57 0.039 6.67 1.82 10.71
11/11/2020 3:15:00 AM 8.71 47.678 0.04 6.69 1.87 10.71
11/11/2020 3:30:00 AM 8.72 47.696 0.04 6.7 1.83 10.72
11/11/2020 3:45:00 AM 8.79 47.822 0.04 6.68 1.8 10.69
11/11/2020 4:00:00 AM 8.85 47.93 0.04 6.68 1.84 10.69
11/11/2020 4:15:00 AM 8.93 48.074 0.04 6.69 1.86 10.67
11/11/2020 4:30:00 AM 9.01 48.218 0.038 6.68 1.88 10.66
11/11/2020 4:45:00 AM 9.06 48.308 0.038 6.69 1.82 10.64
11/11/2020 5:00:00 AM 9.1 48.38 0.039 6.68 1.83 10.63
11/11/2020 5:15:00 AM 9.22 48.596 0.039 6.69 1.88 10.61
11/11/2020 5:30:00 AM 9.24 48.632 0.039 6.68 1.8 10.6
11/11/2020 5:45:00 AM 9.27 48.686 0.039 6.7 1.87 10.6
11/11/2020 6:00:00 AM 9.33 48.794 0.04 6.69 1.83 10.57
11/11/2020 6:15:00 AM 9.4 48.92 0.04 6.68 1.84 10.55
11/11/2020 6:30:00 AM 9.43 48.974 0.039 6.68 1.88 10.54
11/11/2020 6:45:00 AM 9.57 49.226 0.039 6.69 1.9 10.52
11/11/2020 7:00:00 AM 9.58 49.244 0.039 6.68 1.76 10.5
11/11/2020 7:15:00 AM 9.68 49.424 0.039 6.68 1.85 10.48
11/11/2020 7:30:00 AM 9.71 49.478 0.038 6.7 1.9 10.48
11/11/2020 7:45:00 AM 9.75 49.55 0.039 6.7 1.85 10.48
11/11/2020 8:00:00 AM 9.83 49.694 0.039 6.71 1.86 10.47
11/11/2020 8:15:00 AM 9.88 49.784 0.041 6.71 1.84 10.48
11/11/2020 8:30:00 AM 9.96 49.928 0.04 6.73 1.86 10.51
11/11/2020 8:45:00 AM 10.03 50.054 0.039 6.72 1.84 10.53
11/11/2020 9:00:00 AM 10.12 50.216 0.039 6.73 1.88 10.55
11/11/2020 9:15:00 AM 10.19 50.342 0.039 6.74 1.84 10.57
11/11/2020 9:30:00 AM 10.27 50.486 0.038 6.75 1.8 10.56
11/11/2020 9:45:00 AM 10.32 50.576 0.038 6.74 1.79 10.56
11/11/2020 10:00:00 AM 10.38 50.684 0.039 6.75 1.98 10.55
11/11/2020 10:15:00 AM 10.45 50.81 0.04 6.75 1.93 10.53
11/11/2020 10:30:00 AM 10.52 50.936 0.04 6.77 1.86 10.54
11/11/2020 10:45:00 AM 10.58 51.044 0.04 6.76 1.97 10.54
11/11/2020 11:00:00 AM 10.64 51.152 0.039 6.76 2.12 10.52
11/11/2020 11:15:00 AM 10.71 51.278 0.038 6.77 2.02 10.52
11/11/2020 11:30:00 AM 10.76 51.368 0.038 6.78 2.01 10.52
11/11/2020 11:45:00 AM 10.83 51.494 0.038 6.78 2.13 10.53
11/11/2020 12:00:00 PM 10.88 51.584 0.038 6.78 2.57 10.54
11/11/2020 12:15:00 PM 10.95 51.71 0.039 6.79 2.98 10.54
11/11/2020 12:30:00 PM 11.03 51.854 0.04 6.8 3.67 10.52
11/11/2020 12:45:00 PM 11.07 51.926 0.041 6.8 3.62 10.53
11/11/2020 1:00:00 PM 11.13 52.034 0.041 6.81 3.61 10.54
11/11/2020 1:15:00 PM 11.18 52.124 0.042 6.81 3.57 10.51
11/11/2020 1:30:00 PM 11.24 52.232 0.041 6.82 3.43 10.54
11/11/2020 1:45:00 PM 11.3 52.34 0.041 6.83 3.2 10.53
11/11/2020 2:00:00 PM 11.35 52.43 0.04 6.82 3.23 10.48
11/11/2020 2:15:00 PM 11.42 52.556 0.04 6.82 3.36 10.46
11/11/2020 2:30:00 PM 11.46 52.628 0.04 6.82 5.42 10.44
11/11/2020 2:45:00 PM 11.49 52.682 0.041 6.82 8.81 10.38
11/11/2020 3:00:00 PM 11.51 52.718 0.042 6.82 9.4 10.34
11/11/2020 3:15:00 PM 11.53 52.754 0.042 6.83 8.52 10.31
11/11/2020 3:30:00 PM 11.54 52.772 0.041 6.82 8.01 10.26
11/11/2020 3:45:00 PM 11.55 52.79 0.04 6.81 6.99 10.24
11/11/2020 4:00:00 PM 11.54 52.772 0.04 6.8 6.98 10.23
11/11/2020 4:15:00 PM 11.52 52.736 0.041 6.78 5.91 10.15
11/11/2020 4:30:00 PM 11.51 52.718 0.04 6.78 5.38 10.12
11/11/2020 4:45:00 PM 11.49 52.682 0.039 6.77 4.95 10.13
11/11/2020 5:00:00 PM 11.46 52.628 0.04 6.75 4.29 10.09
11/11/2020 5:15:00 PM 11.44 52.592 0.039 6.75 3.97 10.09
11/11/2020 5:30:00 PM 11.41 52.538 0.04 6.74 3.44 10.07
11/11/2020 5:45:00 PM 11.39 52.502 0.04 6.73 3.26 10.06
11/11/2020 6:00:00 PM 11.36 52.448 0.038 6.72 3.24 10.05
11/11/2020 6:15:00 PM 11.33 52.394 0.039 6.71 3.11 10.04
11/11/2020 6:30:00 PM 11.31 52.358 0.039 6.7 3.1 10.04
11/11/2020 6:45:00 PM 11.29 52.322 0.039 6.7 3.35 10.02
11/11/2020 7:00:00 PM 11.28 52.304 0.039 6.69 3.1 10.03
11/11/2020 7:15:00 PM 11.27 52.286 0.039 6.7 3.35 10.04
11/11/2020 7:30:00 PM 11.26 52.268 0.039 6.7 3.49 10.05
11/11/2020 7:45:00 PM 11.26 52.268 0.04 6.69 3.51 10.05
11/11/2020 8:00:00 PM 11.25 52.25 0.039 6.69 3.89 10.05
11/11/2020 8:15:00 PM 11.26 52.268 0.04 6.7 4.01 10.05
11/11/2020 8:30:00 PM 11.26 52.268 0.04 6.7 3.9 10.07
11/11/2020 8:45:00 PM 11.27 52.286 0.039 6.7 4.08 10.07
11/11/2020 9:00:00 PM 11.27 52.286 0.04 6.71 3.91 10.08
11/11/2020 9:15:00 PM 11.26 52.268 0.039 6.7 3.74 10.09
11/11/2020 9:30:00 PM 11.26 52.268 0.039 6.7 3.6 10.09
11/11/2020 9:45:00 PM 11.25 52.25 0.039 6.7 3.63 10.1
11/11/2020 10:00:00 PM 11.25 52.25 0.039 6.69 3.56 10.11
11/11/2020 10:15:00 PM 11.25 52.25 0.039 6.68 3.76 10.11
11/11/2020 10:30:00 PM 11.25 52.25 0.038 6.68 3.49 10.12
11/11/2020 10:45:00 PM 11.25 52.25 0.038 6.68 3.66 10.12
11/11/2020 11:00:00 PM 11.25 52.25 0.039 6.68 3.45 10.13
11/11/2020 11:15:00 PM 11.25 52.25 0.037 6.67 3.65 10.13
11/11/2020 11:30:00 PM 11.25 52.25 0.037 6.67 3.54 10.14
11/11/2020 11:45:00 PM 11.25 52.25 0.038 6.66 4.15 10.14
11/12/2020 12:00:00 AM 11.25 52.25 0.038 6.66 3.98 10.15
11/12/2020 12:15:00 AM 11.25 52.25 0.038 6.66 4.19 10.15
11/12/2020 12:30:00 AM 11.24 52.232 0.037 6.67 4.21 10.16
11/12/2020 12:45:00 AM 11.22 52.196 0.037 6.67 4.24 10.17
11/12/2020 1:00:00 AM 11.2 52.16 0.038 6.68 4.18 10.18
11/12/2020 1:15:00 AM 11.18 52.124 0.037 6.68 4.11 10.19
11/12/2020 1:30:00 AM 11.15 52.07 0.038 6.68 4.3 10.19
11/12/2020 1:45:00 AM 11.11 51.998 0.037 6.68 3.95 10.21
11/12/2020 2:00:00 AM 11.07 51.926 0.038 6.68 4.23 10.22
11/12/2020 2:15:00 AM 11.03 51.854 0.037 6.68 4.11 10.23
11/12/2020 2:30:00 AM 10.99 51.782 0.036 6.68 4.26 10.24
11/12/2020 2:45:00 AM 10.95 51.71 0.036 6.68 4.27 10.25
11/12/2020 3:00:00 AM 10.9 51.62 0.036 6.68 4.15 10.26
11/12/2020 3:15:00 AM 10.86 51.548 0.035 6.67 4.31 10.27
11/12/2020 3:30:00 AM 10.82 51.476 0.035 6.67 4.22 10.29
11/12/2020 3:45:00 AM 10.78 51.404 0.035 6.67 4.35 10.3
11/12/2020 4:00:00 AM 10.73 51.314 0.036 6.66 4.11 10.3
11/12/2020 4:15:00 AM 10.68 51.224 0.035 6.66 4.09 10.32
11/12/2020 4:30:00 AM 10.64 51.152 0.035 6.65 4.57 10.33
11/12/2020 4:45:00 AM 10.58 51.044 0.035 6.65 6.07 10.34
11/12/2020 5:00:00 AM 10.53 50.954 0.036 6.65 4.14 10.35
11/12/2020 5:15:00 AM 10.48 50.864 0.036 6.65 3.73 10.37
11/12/2020 5:30:00 AM 10.43 50.774 0.035 6.64 3.9 10.38
11/12/2020 5:45:00 AM 10.37 50.666 0.036 6.64 4.02 10.39
11/12/2020 6:00:00 AM 10.32 50.576 0.034 6.64 3.74 10.41
11/12/2020 6:15:00 AM 10.26 50.468 0.034 6.64 3.77 10.42
11/12/2020 6:30:00 AM 10.19 50.342 0.034 6.63 3.75 10.44
11/12/2020 6:45:00 AM 10.13 50.234 0.034 6.63 3.76 10.45
11/12/2020 7:00:00 AM 10.08 50.144 0.035 6.63 3.79 10.48
11/12/2020 7:15:00 AM 10.01 50.018 0.034 6.63 3.9 10.48
11/12/2020 7:30:00 AM 9.95 49.91 0.035 6.62 3.45 10.49
11/12/2020 7:45:00 AM 9.89 49.802 0.036 6.62 3.52 10.53
11/12/2020 8:00:00 AM 9.85 49.73 0.035 6.63 3.46 10.56
11/12/2020 8:15:00 AM 9.8 49.64 0.035 6.63 3.53 10.61
11/12/2020 8:30:00 AM 9.75 49.55 0.035 6.63 3.52 10.64
11/12/2020 8:45:00 AM 9.71 49.478 0.034 6.64 3.4 10.69
11/12/2020 9:00:00 AM 9.67 49.406 0.035 6.65 3.29 10.73
11/12/2020 9:15:00 AM 9.63 49.334 0.034 6.65 3.27 10.77
11/12/2020 9:30:00 AM 9.59 49.262 0.035 6.65 3.2 10.8
11/12/2020 9:45:00 AM 9.55 49.19 0.034 6.65 3.22 10.83
11/12/2020 10:00:00 AM 9.51 49.118 0.035 6.66 3.47 10.87
11/12/2020 10:15:00 AM 9.48 49.064 0.035 6.66 3.39 10.88
11/12/2020 10:30:00 AM 9.44 48.992 0.034 6.67 3.51 10.92
11/12/2020 10:45:00 AM 9.42 48.956 0.034 6.67 3.62 10.96
11/12/2020 11:00:00 AM 9.4 48.92 0.034 6.67 3.34 10.98
11/12/2020 11:15:00 AM 9.37 48.866 0.034 6.67 3.49 11
11/12/2020 11:30:00 AM 9.35 48.83 0.035 6.67 3.61 11.01
11/12/2020 11:45:00 AM 9.33 48.794 0.035 6.67 3.65 11.02
11/12/2020 12:00:00 PM 9.3 48.74 0.034 6.68 3.59 11.03
11/12/2020 12:15:00 PM 9.27 48.686 0.034 6.68 3.88 11.04
11/12/2020 12:30:00 PM 9.23 48.614 0.034 6.67 3.9 11.04
11/12/2020 12:45:00 PM 9.2 48.56 0.034 6.68 5.31 11.05
11/12/2020 1:00:00 PM 9.17 48.506 0.034 6.68 3.83 11.08
11/12/2020 1:15:00 PM 9.15 48.47 0.035 6.68 3.85 11.1
11/12/2020 1:30:00 PM 9.13 48.434 0.034 6.68 3.99 11.1
11/12/2020 1:45:00 PM 9.1 48.38 0.034 6.68 3.85 11.12
11/12/2020 2:00:00 PM 9.08 48.344 0.034 6.69 3.83 11.14
11/12/2020 2:15:00 PM 9.06 48.308 0.034 6.69 3.83 11.14
11/12/2020 2:30:00 PM 9.03 48.254 0.034 6.68 3.81 11.14
11/12/2020 2:45:00 PM 9 48.2 0.035 6.69 3.67 11.16
11/12/2020 3:00:00 PM 8.96 48.128 0.034 6.7 3.67 11.17
11/12/2020 3:15:00 PM 8.93 48.074 0.035 6.68 3.68 11.17
11/12/2020 3:30:00 PM 8.89 48.002 0.035 6.68 3.68 11.17
11/12/2020 3:45:00 PM 8.85 47.93 0.036 6.67 3.46 11.16
11/12/2020 4:00:00 PM 8.8 47.84 0.036 6.67 3.57 11.15
11/12/2020 4:15:00 PM 8.75 47.75 0.035 6.67 3.59 11.15
11/12/2020 4:30:00 PM 8.69 47.642 0.035 6.66 3.48 11.12
11/12/2020 4:45:00 PM 8.62 47.516 0.035 6.64 3.54 11.1
11/12/2020 5:00:00 PM 8.55 47.39 0.034 6.64 3.5 11.07
11/12/2020 5:15:00 PM 8.49 47.282 0.035 6.63 3.43 11.06
11/12/2020 5:30:00 PM 8.4 47.12 0.034 6.62 3.53 11.04
11/12/2020 5:45:00 PM 8.33 46.994 0.035 6.61 3.44 11.04
11/12/2020 6:00:00 PM 8.24 46.832 0.036 6.61 3.45 11.03
11/12/2020 6:15:00 PM 8.17 46.706 0.036 6.6 3.23 11.02
11/12/2020 6:30:00 PM 8.09 46.562 0.036 6.59 3.29 11.03
11/12/2020 6:45:00 PM 8.02 46.436 0.036 6.6 3.36 11.05
11/12/2020 7:00:00 PM 7.94 46.292 0.036 6.59 3.2 11.06
11/12/2020 7:15:00 PM 7.86 46.148 0.035 6.59 3.42 11.07
11/12/2020 7:30:00 PM 7.79 46.022 0.036 6.58 3.33 11.09
11/12/2020 7:45:00 PM 7.71 45.878 0.036 6.58 3.21 11.11
11/12/2020 8:00:00 PM 7.63 45.734 0.037 6.58 3.26 11.12
11/12/2020 8:15:00 PM 7.54 45.572 0.036 6.58 3.4 11.15
11/12/2020 8:30:00 PM 7.46 45.428 0.036 6.58 3.3 11.18
11/12/2020 8:45:00 PM 7.39 45.302 0.036 6.57 3.26 11.2
11/12/2020 9:00:00 PM 7.31 45.158 0.036 6.57 3.25 11.22
11/12/2020 9:15:00 PM 7.24 45.032 0.036 6.57 3.41 11.24
11/12/2020 9:30:00 PM 7.16 44.888 0.036 6.57 3.3 11.26
11/12/2020 9:45:00 PM 7.08 44.744 0.035 6.57 4.54 11.28
11/12/2020 10:00:00 PM 7.02 44.636 0.036 6.56 3.27 11.29
11/12/2020 10:15:00 PM 6.94 44.492 0.036 6.57 3.2 11.32
11/12/2020 10:30:00 PM 6.87 44.366 0.036 6.56 3.17 11.35
11/12/2020 10:45:00 PM 6.79 44.222 0.037 6.57 3.08 11.37
11/12/2020 11:00:00 PM 6.73 44.114 0.036 6.56 3.13 11.38
11/12/2020 11:15:00 PM 6.65 43.97 0.036 6.56 3.2 11.41
11/12/2020 11:30:00 PM 6.58 43.844 0.036 6.56 3.05 11.43
11/12/2020 11:45:00 PM 6.52 43.736 0.035 6.55 3.03 11.44
11/13/2020 12:00:00 AM 6.45 43.61 0.035 6.55 3.03 11.46
11/13/2020 12:15:00 AM 6.38 43.484 0.035 6.55 3.11 11.48
11/13/2020 12:30:00 AM 6.31 43.358 0.035 6.55 2.99 11.51
11/13/2020 12:45:00 AM 6.24 43.232 0.035 6.55 3.07 11.53
11/13/2020 1:00:00 AM 6.17 43.106 0.035 6.54 3.03 11.55
11/13/2020 1:15:00 AM 6.11 42.998 0.035 6.54 2.98 11.56
11/13/2020 1:30:00 AM 6.04 42.872 0.035 6.54 2.89 11.58
11/13/2020 1:45:00 AM 5.98 42.764 0.036 6.54 2.86 11.6
11/13/2020 2:00:00 AM 5.92 42.656 0.035 6.54 2.87 11.62
11/13/2020 2:15:00 AM 5.86 42.548 0.036 6.54 3.03 11.64
11/13/2020 2:30:00 AM 5.81 42.458 0.035 6.54 2.91 11.64
11/13/2020 2:45:00 AM 5.75 42.35 0.035 6.54 2.77 11.68
11/13/2020 3:00:00 AM 5.71 42.278 0.035 6.54 2.7 11.68
11/13/2020 3:15:00 AM 5.68 42.224 0.035 6.54 2.7 11.7
11/13/2020 3:30:00 AM 5.67 42.206 0.035 6.54 2.84 11.72
11/13/2020 3:45:00 AM 5.66 42.188 0.034 6.54 2.8 11.72
11/13/2020 4:00:00 AM 5.65 42.17 0.035 6.54 2.7 11.73
11/13/2020 4:15:00 AM 5.65 42.17 0.034 6.54 2.68 11.73
11/13/2020 4:30:00 AM 5.65 42.17 0.034 6.54 2.66 11.73
11/13/2020 4:45:00 AM 5.64 42.152 0.034 6.55 2.66 11.74
11/13/2020 5:00:00 AM 5.64 42.152 0.035 6.55 2.57 11.74
11/13/2020 5:15:00 AM 5.64 42.152 0.035 6.55 2.8 11.75
11/13/2020 5:30:00 AM 5.63 42.134 0.034 6.56 2.67 11.76
11/13/2020 5:45:00 AM 5.63 42.134 0.035 6.55 2.51 11.75
11/13/2020 6:00:00 AM 5.62 42.116 0.034 6.56 2.59 11.77
11/13/2020 6:15:00 AM 5.62 42.116 0.034 6.56 2.53 11.76
11/13/2020 6:30:00 AM 5.62 42.116 0.035 6.54 2.45 11.76
11/13/2020 6:45:00 AM 5.62 42.116 0.034 6.55 3.13 11.75
11/13/2020 7:00:00 AM 5.63 42.134 0.034 6.55 2.52 11.76
11/13/2020 7:15:00 AM 5.63 42.134 0.034 6.55 2.93 11.75
11/13/2020 7:30:00 AM 5.64 42.152 0.034 6.56 2.51 11.77
11/13/2020 7:45:00 AM 5.65 42.17 0.035 6.56 2.49 11.78
11/13/2020 8:00:00 AM 5.66 42.188 0.033 6.56 2.39 11.81
11/13/2020 8:15:00 AM 5.68 42.224 0.034 6.56 2.67 11.82
11/13/2020 8:30:00 AM 5.71 42.278 0.034 6.57 2.44 11.85
11/13/2020 8:45:00 AM 5.75 42.35 0.034 6.59 2.46 11.9
11/13/2020 9:00:00 AM 5.82 42.476 0.034 6.59 2.35 11.91
11/13/2020 9:15:00 AM 5.9 42.62 0.034 6.59 2.44 11.93
11/13/2020 9:30:00 AM 5.95 42.71 0.036 6.6 2.4 11.95
11/13/2020 9:45:00 AM 6.04 42.872